Darstellungsparameter: Aktuell verwendete Einstellungen:
Skalierung der Graphiken ... ?
xyx+y,   Skalierungsfaktor:      Skalierung: Modus: x, Faktor: 1
Darstellungszeitraum ... ?
Vom - - bis: - -   Zeitraum: 11.01.2011 - 10.01.2021
Min/Max/Avg-Anzeige ... ?
Zeige MMA aktuell
Zeige MMA Monat
Zeige MMA alles
Zeige --A aktuell
Zeige --A Monat
Zeige --A alles
Keine MMA-Anzeige
MMA:
Average (ber die Originaldaten)
MMA-Basis: 23.02.2003 - 03.08.2020
Quicknavigation für Darstellung... ?
Tage:      1T, 2T, 3T, 5T -1T -2T -3T -5T +1T +2T +3T +5T
Wochen: 1W, 2W, 3W -1W -2W -3W +1W +2W +3W
Monate: 1M, 3M, 6M -1M -3M -6M +1M +3M +6M
Jahre:    1J, 3J, 5J, 10J -1J -3J -5J -10J +1J +3J +5J +10J
Nutze für die Darstellung ... ?
Originaldaten oder ...
Mittelwerte Minima Maxima auf...
Stundenbasis Tagesbasis Wochenbasis
Monatsbasis Jahresbasis      Datenbasis: Mittelwerte auf Stundenbasis
Darstellen als:
Statistik (Auto) Statistik J:M      Darstellung:
Zur Graphik,    zurück zur Übersicht aller Sensoren.
 
Tabellarische Datenbersicht: ?
 
Sensor: Nr:Datum:Temp:Abs-Feuchte:Windchill:Wind:
Aussen-T/F 1 11-01-2011 00:00:00 0.16 C 3.93 g/m*3 0.16 C 0 km/h
2 11-01-2011 01:00:00 -0.12 C 4.08 g/m*3 -0.12 C 0 km/h
3 11-01-2011 02:00:00 0.78 C 4.17 g/m*3 0.78 C 0 km/h
4 11-01-2011 03:00:00 0.72 C 4.05 g/m*3 0.72 C 0 km/h
5 11-01-2011 04:00:00 0.42 C 4.05 g/m*3 0.42 C 0 km/h
6 11-01-2011 05:00:00 1.1 C 4.13 g/m*3 1.1 C 0 km/h
7 11-01-2011 06:00:00 1.26 C 4.2 g/m*3 1.26 C 0 km/h
8 11-01-2011 07:00:00 1.42 C 4.33 g/m*3 1.42 C 0 km/h
9 11-01-2011 08:00:00 1.5 C 4.45 g/m*3 1.5 C 0 km/h
10 11-01-2011 09:00:00 2.06 C 4.66 g/m*3 2.06 C 0 km/h
11 11-01-2011 10:00:00 3.04 C 4.63 g/m*3 3.04 C 0 km/h
12 11-01-2011 11:00:00 3.28 C 4.9 g/m*3 3.28 C 0 km/h
13 11-01-2011 12:00:00 5.5 C 4.62 g/m*3 5.5 C 0 km/h
14 11-01-2011 13:00:00 5.3 C 4.75 g/m*3 5.3 C 0 km/h
15 11-01-2011 14:00:00 5.3 C 4.89 g/m*3 5.3 C 0 km/h
16 11-01-2011 15:00:00 5.36 C 5.07 g/m*3 5.36 C 0 km/h
17 11-01-2011 16:00:00 4.58 C 5.42 g/m*3 4.58 C 0 km/h
18 11-01-2011 17:00:00 5.1 C 5.46 g/m*3 5.1 C 0 km/h
19 11-01-2011 18:00:00 5.48 C 5.51 g/m*3 5.48 C 0 km/h
20 11-01-2011 19:00:00 5.98 C 5.57 g/m*3 5.98 C 0 km/h
21 11-01-2011 20:00:00 6.14 C 5.6 g/m*3 6.14 C 0 km/h
22 11-01-2011 21:00:00 6.16 C 5.66 g/m*3 6.16 C 0 km/h
23 11-01-2011 22:00:00 5.96 C 5.91 g/m*3 5.96 C 0 km/h
24 11-01-2011 23:00:00 6 C 6.01 g/m*3 6 C 0 km/h
25 12-01-2011 00:00:00 6.14 C 5.46 g/m*3 6.14 C 0 km/h
Sensor: Nr:Datum:Temp:Abs-Feuchte:Windchill:Wind:
Aussen-T/F 26 12-01-2011 01:00:00 5.96 C 5.23 g/m*3 5.96 C 0 km/h
27 12-01-2011 02:00:00 5.9 C 5.06 g/m*3 5.9 C 0 km/h
28 12-01-2011 03:00:00 4.92 C 5.18 g/m*3 4.92 C 0 km/h
29 12-01-2011 04:00:00 4.08 C 5.34 g/m*3 4.08 C 0 km/h
30 12-01-2011 05:00:00 3.76 C 5.24 g/m*3 3.76 C 0 km/h
31 12-01-2011 06:00:00 3.56 C 5.12 g/m*3 3.56 C 0 km/h
32 12-01-2011 07:00:00 3.32 C 5.02 g/m*3 3.32 C 0 km/h
33 12-01-2011 08:00:00 2.98 C 4.99 g/m*3 2.98 C 0 km/h
34 12-01-2011 09:00:00 3.84 C 5.04 g/m*3 3.84 C 0 km/h
35 12-01-2011 10:00:00 4.82 C 4.87 g/m*3 4.82 C 0 km/h
36 12-01-2011 11:00:00 5.26 C 4.85 g/m*3 5.26 C 0 km/h
37 12-01-2011 12:00:00 4.88 C 5.08 g/m*3 4.88 C 0 km/h
38 12-01-2011 13:00:00 4.9 C 5.37 g/m*3 4.9 C 0 km/h
39 12-01-2011 14:00:00 5.12 C 5.52 g/m*3 5.12 C 0 km/h
40 12-01-2011 15:00:00 5.42 C 5.51 g/m*3 5.42 C 0 km/h
41 12-01-2011 16:00:00 6.04 C 5.47 g/m*3 6.04 C 0 km/h
42 12-01-2011 17:00:00 6.2 C 5.6 g/m*3 6.2 C 0 km/h
43 12-01-2011 18:00:00 6.12 C 5.91 g/m*3 6.12 C 0 km/h
44 12-01-2011 19:00:00 6.3 C 6.17 g/m*3 6.3 C 0 km/h
45 12-01-2011 20:00:00 6.98 C 6.28 g/m*3 6.98 C 0 km/h
46 12-01-2011 21:00:00 7.34 C 6.51 g/m*3 7.34 C 0 km/h
47 12-01-2011 22:00:00 7.96 C 6.71 g/m*3 7.96 C 0 km/h
48 12-01-2011 23:00:00 8.76 C 6.82 g/m*3 8.76 C 0 km/h
49 13-01-2011 00:00:00 9.3 C 6.99 g/m*3 9.3 C 0 km/h
50 13-01-2011 01:00:00 9.98 C 7.26 g/m*3 9.98 C 0 km/h
Sensor: Nr:Datum:Temp:Abs-Feuchte:Windchill:Wind:
Aussen-T/F 51 13-01-2011 02:00:00 10.6 C 7.55 g/m*3 10.6 C 0 km/h
52 13-01-2011 03:00:00 10.32 C 7.84 g/m*3 10.32 C 0 km/h
53 13-01-2011 04:00:00 10.7 C 8.05 g/m*3 10.7 C 0 km/h
54 13-01-2011 05:00:00 10.84 C 8.13 g/m*3 10.84 C 0 km/h
55 13-01-2011 06:00:00 10.58 C 8.31 g/m*3 10.58 C 0 km/h
56 13-01-2011 07:00:00 10.66 C 8.46 g/m*3 10.66 C 0 km/h
57 13-01-2011 08:00:00 10.84 C 8.46 g/m*3 10.84 C 0 km/h
58 13-01-2011 09:00:00 11.26 C 8.44 g/m*3 11.26 C 0 km/h
59 13-01-2011 10:00:00 11.94 C 8.32 g/m*3 11.94 C 0 km/h
60 13-01-2011 11:00:00 12.52 C 8.26 g/m*3 12.52 C 0 km/h
61 13-01-2011 12:00:00 12.46 C 8.31 g/m*3 12.46 C 0 km/h
62 13-01-2011 13:00:00 12.54 C 8.4 g/m*3 12.54 C 0 km/h
63 13-01-2011 14:00:00 13.18 C 8.28 g/m*3 13.18 C 0 km/h
64 13-01-2011 15:00:00 13.06 C 8.26 g/m*3 13.06 C 0 km/h
65 13-01-2011 16:00:00 12.9 C 8.48 g/m*3 12.9 C 0 km/h
66 13-01-2011 17:00:00 12.86 C 8.5 g/m*3 12.86 C 0 km/h
67 13-01-2011 18:00:00 12.84 C 8.42 g/m*3 12.84 C 0 km/h
68 13-01-2011 19:00:00 12.82 C 8.5 g/m*3 12.82 C 0 km/h
69 13-01-2011 20:00:00 12.7 C 8.53 g/m*3 12.7 C 0 km/h
70 13-01-2011 21:00:00 12.82 C 8.46 g/m*3 12.82 C 0 km/h
71 13-01-2011 22:00:00 12.82 C 8.34 g/m*3 12.82 C 0 km/h
72 13-01-2011 23:00:00 12.74 C 8.26 g/m*3 12.74 C 0 km/h
73 14-01-2011 00:00:00 12.56 C 8.14 g/m*3 12.56 C 0 km/h
74 14-01-2011 01:00:00 12.5 C 8.09 g/m*3 12.5 C 0 km/h
75 14-01-2011 02:00:00 12.34 C 7.95 g/m*3 12.34 C 0 km/h
Sensor: Nr:Datum:Temp:Abs-Feuchte:Windchill:Wind:
Aussen-T/F 76 14-01-2011 03:00:00 12.24 C 7.83 g/m*3 12.24 C 0 km/h
77 14-01-2011 04:00:00 12.24 C 7.81 g/m*3 12.24 C 0 km/h
78 14-01-2011 05:00:00 12.26 C 7.8 g/m*3 12.26 C 0 km/h
79 14-01-2011 06:00:00 12.56 C 7.61 g/m*3 12.56 C 0 km/h
80 14-01-2011 07:00:00 12.3 C 7.36 g/m*3 12.3 C 0 km/h
81 14-01-2011 08:00:00 11.66 C 6.99 g/m*3 11.66 C 0 km/h
82 14-01-2011 09:00:00 11.46 C 6.84 g/m*3 11.46 C 0 km/h
83 14-01-2011 10:00:00 11.74 C 6.71 g/m*3 11.74 C 0 km/h
84 14-01-2011 11:00:00 12.02 C 6.62 g/m*3 12.02 C 0 km/h
85 14-01-2011 12:00:00 12.14 C 6.54 g/m*3 12.14 C 0 km/h
86 14-01-2011 13:00:00 12 C 6.63 g/m*3 12 C 0 km/h
87 14-01-2011 14:00:00 11.64 C 6.81 g/m*3 11.64 C 0 km/h
88 14-01-2011 15:00:00 12.12 C 6.55 g/m*3 12.12 C 0 km/h
89 14-01-2011 16:00:00 11.96 C 6.4 g/m*3 11.96 C 0 km/h
90 14-01-2011 17:00:00 11.52 C 6.33 g/m*3 11.52 C 0 km/h
91 14-01-2011 18:00:00 11.04 C 6.32 g/m*3 11.04 C 0 km/h
92 14-01-2011 19:00:00 11.14 C 6.24 g/m*3 11.14 C 0 km/h
93 14-01-2011 20:00:00 11.68 C 6.08 g/m*3 11.68 C 0 km/h
94 14-01-2011 21:00:00 11.4 C 6.01 g/m*3 11.4 C 0 km/h
95 14-01-2011 22:00:00 10.82 C 6.25 g/m*3 10.82 C 0 km/h
96 14-01-2011 23:00:00 9.24 C 6.77 g/m*3 9.24 C 0 km/h
97 15-01-2011 00:00:00 8.22 C 6.64 g/m*3 8.22 C 0 km/h
98 15-01-2011 01:00:00 8.22 C 6.41 g/m*3 8.22 C 0 km/h
99 15-01-2011 02:00:00 8.04 C 6.43 g/m*3 8.04 C 0 km/h
100 15-01-2011 03:00:00 8.12 C 6.47 g/m*3 8.12 C 0 km/h
Sensor: Nr:Datum:Temp:Abs-Feuchte:Windchill:Wind:
Aussen-T/F 101 15-01-2011 04:00:00 8.22 C 6.41 g/m*3 8.22 C 0 km/h
102 15-01-2011 05:00:00 7.96 C 6.14 g/m*3 7.96 C 0 km/h
103 15-01-2011 06:00:00 7.44 C 6.22 g/m*3 7.44 C 0 km/h
104 15-01-2011 07:00:00 7.08 C 6.14 g/m*3 7.08 C 0 km/h
105 15-01-2011 08:00:00 7.68 C 6.14 g/m*3 7.68 C 0 km/h
106 15-01-2011 09:00:00 8.3 C 5.98 g/m*3 8.3 C 0 km/h
107 15-01-2011 10:00:00 9.06 C 5.91 g/m*3 9.06 C 0 km/h
108 15-01-2011 11:00:00 9.86 C 5.89 g/m*3 9.86 C 0 km/h
109 15-01-2011 12:00:00 10.2 C 5.73 g/m*3 10.2 C 0 km/h
110 15-01-2011 13:00:00 10.04 C 5.58 g/m*3 10.04 C 0 km/h
111 15-01-2011 14:00:00 10.04 C 5.54 g/m*3 10.04 C 0 km/h
112 15-01-2011 15:00:00 9.62 C 5.52 g/m*3 9.62 C 0 km/h
113 15-01-2011 16:00:00 8.9 C 5.71 g/m*3 8.9 C 0 km/h
114 15-01-2011 17:00:00 9.02 C 5.65 g/m*3 9.02 C 0 km/h
115 15-01-2011 18:00:00 8.98 C 5.78 g/m*3 8.98 C 0 km/h
116 15-01-2011 19:00:00 9.18 C 5.69 g/m*3 9.18 C 0 km/h
117 15-01-2011 20:00:00 8.92 C 5.68 g/m*3 8.92 C 0 km/h
118 15-01-2011 21:00:00 8.04 C 5.62 g/m*3 8.04 C 0 km/h
119 15-01-2011 22:00:00 8.6 C 5.89 g/m*3 8.6 C 0 km/h
120 15-01-2011 23:00:00 8.62 C 5.89 g/m*3 8.62 C 0 km/h
121 16-01-2011 00:00:00 8.9 C 5.83 g/m*3 8.9 C 0 km/h
122 16-01-2011 01:00:00 8.24 C 5.69 g/m*3 8.24 C 0 km/h
123 16-01-2011 02:00:00 7.96 C 5.77 g/m*3 7.96 C 0 km/h
124 16-01-2011 03:00:00 8.14 C 5.71 g/m*3 8.14 C 0 km/h
125 16-01-2011 04:00:00 8.22 C 5.75 g/m*3 8.22 C 0 km/h
Sensor: Nr:Datum:Temp:Abs-Feuchte:Windchill:Wind:
Aussen-T/F 126 16-01-2011 05:00:00 7.16 C 5.98 g/m*3 7.16 C 0 km/h
127 16-01-2011 06:00:00 7.06 C 6.08 g/m*3 7.06 C 0 km/h
128 16-01-2011 07:00:00 7.88 C 6.07 g/m*3 7.88 C 0 km/h
129 16-01-2011 08:00:00 8.22 C 5.87 g/m*3 8.22 C 0 km/h
130 16-01-2011 09:00:00 8.04 C 5.9 g/m*3 8.04 C 0 km/h
131 16-01-2011 10:00:00 7.98 C 5.91 g/m*3 7.98 C 0 km/h
132 16-01-2011 11:00:00 8.36 C 5.99 g/m*3 8.36 C 0 km/h
133 16-01-2011 12:00:00 8.64 C 6.15 g/m*3 8.64 C 0 km/h
134 16-01-2011 13:00:00 8.82 C 6.19 g/m*3 8.82 C 0 km/h
135 16-01-2011 14:00:00 8.46 C 6.27 g/m*3 8.46 C 0 km/h
136 16-01-2011 15:00:00 9.92 C 6.23 g/m*3 9.92 C 0 km/h
137 16-01-2011 16:00:00 8.04 C 6.35 g/m*3 8.04 C 0 km/h
138 16-01-2011 17:00:00 5.92 C 6.14 g/m*3 5.92 C 0 km/h
139 16-01-2011 18:00:00 4.84 C 5.92 g/m*3 4.84 C 0 km/h
140 16-01-2011 19:00:00 4.22 C 5.77 g/m*3 4.22 C 0 km/h
141 16-01-2011 20:00:00 3.26 C 5.47 g/m*3 3.26 C 0 km/h
142 16-01-2011 21:00:00 2.4 C 5.2 g/m*3 2.4 C 0 km/h
143 16-01-2011 22:00:00 2.16 C 5.16 g/m*3 2.16 C 0 km/h
144 16-01-2011 23:00:00 1.36 C 4.89 g/m*3 1.36 C 0 km/h
145 17-01-2011 00:00:00 1.4 C 4.93 g/m*3 1.4 C 0 km/h
146 17-01-2011 01:00:00 1.18 C 4.88 g/m*3 1.18 C 0 km/h
147 17-01-2011 02:00:00 1.12 C 4.87 g/m*3 1.12 C 0 km/h
148 17-01-2011 03:00:00 1.04 C 4.87 g/m*3 1.04 C 0 km/h
149 17-01-2011 04:00:00 -0.04 C 4.49 g/m*3 -0.04 C 0 km/h
150 17-01-2011 05:00:00 0.08 C 4.55 g/m*3 0.08 C 0 km/h
Sensor: Nr:Datum:Temp:Abs-Feuchte:Windchill:Wind:
Aussen-T/F 151 17-01-2011 06:00:00 -0.62 C 4.32 g/m*3 -0.62 C 0 km/h
152 17-01-2011 07:00:00 -0.4 C 4.4 g/m*3 -0.4 C 0 km/h
153 17-01-2011 08:00:00 -0.66 C 4.32 g/m*3 -0.66 C 0 km/h
154 17-01-2011 09:00:00 0.72 C 4.79 g/m*3 0.72 C 0 km/h
155 17-01-2011 10:00:00 0.68 C 4.77 g/m*3 0.68 C 0 km/h
156 17-01-2011 11:00:00 2.14 C 5.26 g/m*3 2.14 C 0 km/h
157 17-01-2011 12:00:00 5.42 C 6.5 g/m*3 5.42 C 0 km/h
158 17-01-2011 13:00:00 6.06 C 6.54 g/m*3 6.06 C 0 km/h
159 17-01-2011 14:00:00 6.4 C 6.08 g/m*3 6.4 C 0 km/h
160 17-01-2011 15:00:00 6.18 C 5.9 g/m*3 6.18 C 0 km/h
161 17-01-2011 16:00:00 6.18 C 5.96 g/m*3 6.18 C 0 km/h
162 17-01-2011 17:00:00 6.2 C 5.82 g/m*3 6.2 C 0 km/h
163 17-01-2011 18:00:00 5.98 C 6.05 g/m*3 5.98 C 0 km/h
164 17-01-2011 19:00:00 6.22 C 6.1 g/m*3 6.22 C 0 km/h
165 17-01-2011 20:00:00 6.94 C 6.19 g/m*3 6.94 C 0 km/h
166 17-01-2011 21:00:00 8.04 C 6.23 g/m*3 8.04 C 0 km/h
167 17-01-2011 22:00:00 8.28 C 6.13 g/m*3 8.28 C 0 km/h
168 17-01-2011 23:00:00 8.56 C 6.24 g/m*3 8.56 C 0 km/h
169 18-01-2011 00:00:00 7.64 C 6.14 g/m*3 7.64 C 0 km/h
170 18-01-2011 01:00:00 6.84 C 6.13 g/m*3 6.84 C 0 km/h
171 18-01-2011 02:00:00 5.24 C 5.94 g/m*3 5.24 C 0 km/h
172 18-01-2011 03:00:00 7.1 C 6.1 g/m*3 7.1 C 0 km/h
173 18-01-2011 04:00:00 7.06 C 5.96 g/m*3 7.06 C 0 km/h
174 18-01-2011 05:00:00 7.68 C 5.94 g/m*3 7.68 C 0 km/h
175 18-01-2011 06:00:00 7.26 C 5.97 g/m*3 7.26 C 0 km/h
Sensor: Nr:Datum:Temp:Abs-Feuchte:Windchill:Wind:
Aussen-T/F 176 18-01-2011 07:00:00 7.14 C 6.04 g/m*3 7.14 C 0 km/h
177 18-01-2011 08:00:00 7.3 C 5.97 g/m*3 7.3 C 0 km/h
178 18-01-2011 09:00:00 8.44 C 6.04 g/m*3 8.44 C 0 km/h
179 18-01-2011 10:00:00 8.84 C 6.09 g/m*3 8.84 C 0 km/h
180 18-01-2011 11:00:00 8.74 C 6.05 g/m*3 8.74 C 0 km/h
181 18-01-2011 12:00:00 9.7 C 6.07 g/m*3 9.7 C 0 km/h
182 18-01-2011 13:00:00 9.7 C 6.05 g/m*3 9.7 C 0 km/h
183 18-01-2011 14:00:00 9.72 C 5.94 g/m*3 9.72 C 0 km/h
184 18-01-2011 15:00:00 9.42 C 5.67 g/m*3 9.42 C 0 km/h
185 18-01-2011 16:00:00 8.38 C 5.78 g/m*3 8.38 C 0 km/h
186 18-01-2011 17:00:00 6.54 C 6.42 g/m*3 6.54 C 0 km/h
187 18-01-2011 18:00:00 6.16 C 6.31 g/m*3 6.16 C 0 km/h
188 18-01-2011 19:00:00 5.86 C 6.26 g/m*3 5.86 C 0 km/h
189 18-01-2011 20:00:00 5.74 C 6.04 g/m*3 5.74 C 0 km/h
190 18-01-2011 21:00:00 5.1 C 5.62 g/m*3 5.1 C 0 km/h
191 18-01-2011 22:00:00 4.64 C 5.48 g/m*3 4.64 C 0 km/h
192 18-01-2011 23:00:00 4.68 C 5.47 g/m*3 4.68 C 0 km/h
193 19-01-2011 00:00:00 4.36 C 5.2 g/m*3 4.36 C 0 km/h
194 19-01-2011 01:00:00 3.88 C 4.77 g/m*3 3.88 C 0 km/h
195 19-01-2011 02:00:00 3.42 C 4.67 g/m*3 3.42 C 0 km/h
196 19-01-2011 03:00:00 2.92 C 4.8 g/m*3 2.92 C 0 km/h
197 19-01-2011 04:00:00 2.8 C 4.89 g/m*3 2.8 C 0 km/h
198 19-01-2011 05:00:00 2.56 C 4.99 g/m*3 2.56 C 0 km/h
199 19-01-2011 06:00:00 2.64 C 4.99 g/m*3 2.64 C 0 km/h
200 19-01-2011 07:00:00 2.8 C 4.85 g/m*3 2.8 C 0 km/h
Sensor: Nr:Datum:Temp:Abs-Feuchte:Windchill:Wind:
Aussen-T/F 201 19-01-2011 08:00:00 2.4 C 4.86 g/m*3 2.4 C 0 km/h
202 19-01-2011 09:00:00 2.7 C 4.81 g/m*3 2.7 C 0 km/h
203 19-01-2011 10:00:00 2.4 C 4.68 g/m*3 2.4 C 0 km/h
204 19-01-2011 11:00:00 3.64 C 4.84 g/m*3 3.64 C 0 km/h
205 19-01-2011 12:00:00 4.44 C 4.64 g/m*3 4.44 C 0 km/h
206 19-01-2011 13:00:00 4.94 C 4.35 g/m*3 4.94 C 0 km/h
207 19-01-2011 14:00:00 5.36 C 4.24 g/m*3 5.36 C 0 km/h
208 19-01-2011 15:00:00 4.94 C 4.13 g/m*3 4.94 C 0 km/h
209 19-01-2011 16:00:00 4.18 C 4.38 g/m*3 4.18 C 0 km/h
210 19-01-2011 17:00:00 3.34 C 4.54 g/m*3 3.34 C 0 km/h
211 19-01-2011 18:00:00 2.94 C 4.7 g/m*3 2.94 C 0 km/h
212 19-01-2011 19:00:00 3.2 C 4.46 g/m*3 3.2 C 0 km/h
213 19-01-2011 20:00:00 2.36 C 4.69 g/m*3 2.36 C 0 km/h
214 19-01-2011 21:00:00 2.5 C 4.78 g/m*3 2.5 C 0 km/h
215 19-01-2011 22:00:00 2.4 C 4.73 g/m*3 2.4 C 0 km/h
216 19-01-2011 23:00:00 2.28 C 4.69 g/m*3 2.28 C 0 km/h
217 20-01-2011 00:00:00 1.72 C 4.73 g/m*3 1.72 C 0 km/h
218 20-01-2011 01:00:00 1.82 C 4.87 g/m*3 1.82 C 0 km/h
219 20-01-2011 02:00:00 1.22 C 4.71 g/m*3 1.22 C 0 km/h
220 20-01-2011 03:00:00 1.34 C 4.82 g/m*3 1.34 C 0 km/h
221 20-01-2011 04:00:00 1.16 C 4.78 g/m*3 1.16 C 0 km/h
222 20-01-2011 05:00:00 1.36 C 4.87 g/m*3 1.36 C 0 km/h
223 20-01-2011 06:00:00 1.28 C 4.85 g/m*3 1.28 C 0 km/h
224 20-01-2011 07:00:00 1.02 C 4.73 g/m*3 1.02 C 0 km/h
225 20-01-2011 08:00:00 1.2 C 4.75 g/m*3 1.2 C 0 km/h
Sensor: Nr:Datum:Temp:Abs-Feuchte:Windchill:Wind:
Aussen-T/F 226 20-01-2011 09:00:00 1.44 C 4.7 g/m*3 1.44 C 0 km/h
227 20-01-2011 10:00:00 2.02 C 4.61 g/m*3 2.02 C 0 km/h
228 20-01-2011 11:00:00 2.72 C 4.53 g/m*3 2.72 C 0 km/h
229 20-01-2011 12:00:00 3.26 C 4.44 g/m*3 3.26 C 0 km/h
230 20-01-2011 13:00:00 3.88 C 4.35 g/m*3 3.88 C 0 km/h
231 20-01-2011 14:00:00 4.1 C 4.29 g/m*3 4.1 C 0 km/h
232 20-01-2011 15:00:00 3.26 C 4.1 g/m*3 3.26 C 0 km/h
233 20-01-2011 16:00:00 2.48 C 3.98 g/m*3 2.48 C 0 km/h
234 20-01-2011 17:00:00 1.98 C 3.95 g/m*3 1.98 C 0 km/h
235 20-01-2011 18:00:00 1.7 C 3.97 g/m*3 1.7 C 0 km/h
236 20-01-2011 19:00:00 1.3 C 3.89 g/m*3 1.3 C 0 km/h
237 20-01-2011 20:00:00 0.9 C 3.72 g/m*3 0.9 C 0 km/h
238 20-01-2011 21:00:00 -0.16 C 3.59 g/m*3 -0.16 C 0 km/h
239 20-01-2011 22:00:00 -0.28 C 3.55 g/m*3 -0.28 C 0 km/h
240 20-01-2011 23:00:00 0.08 C 3.64 g/m*3 0.08 C 0 km/h
241 21-01-2011 00:00:00 0.34 C 3.13 g/m*3 0.34 C 0 km/h
242 21-01-2011 01:00:00 0.18 C 3.08 g/m*3 0.18 C 0 km/h
243 21-01-2011 02:00:00 0.04 C 3.11 g/m*3 0.04 C 0 km/h
244 21-01-2011 03:00:00 -0.36 C 2.8 g/m*3 -0.36 C 0 km/h
245 21-01-2011 04:00:00 -0.38 C 2.67 g/m*3 -0.38 C 0 km/h
246 21-01-2011 05:00:00 -0.46 C 2.75 g/m*3 -0.46 C 0 km/h
247 21-01-2011 06:00:00 -0.74 C 2.81 g/m*3 -0.74 C 0 km/h
248 21-01-2011 07:00:00 -0.6 C 2.67 g/m*3 -0.6 C 0 km/h
249 21-01-2011 08:00:00 -0.5 C 2.69 g/m*3 -0.5 C 0 km/h
250 21-01-2011 09:00:00 -0.14 C 2.75 g/m*3 -0.14 C 0 km/h
Sensor: Nr:Datum:Temp:Abs-Feuchte:Windchill:Wind:
Aussen-T/F 251 21-01-2011 10:00:00 0.14 C 2.74 g/m*3 0.14 C 0 km/h
252 21-01-2011 11:00:00 0.02 C 2.82 g/m*3 0.02 C 0 km/h
253 21-01-2011 12:00:00 0.32 C 2.9 g/m*3 0.32 C 0 km/h
254 21-01-2011 13:00:00 1.06 C 2.95 g/m*3 1.06 C 0 km/h
255 21-01-2011 14:00:00 1.28 C 3.01 g/m*3 1.28 C 0 km/h
256 21-01-2011 15:00:00 1.02 C 3.01 g/m*3 1.02 C 0 km/h
257 21-01-2011 16:00:00 0.18 C 3.13 g/m*3 0.18 C 0 km/h
258 21-01-2011 17:00:00 -0.22 C 3.25 g/m*3 -0.22 C 0 km/h
259 21-01-2011 18:00:00 -0.14 C 3.26 g/m*3 -0.14 C 0 km/h
260 21-01-2011 19:00:00 -0.4 C 3.25 g/m*3 -0.4 C 0 km/h
261 21-01-2011 20:00:00 -0.42 C 3.4 g/m*3 -0.42 C 0 km/h
262 21-01-2011 21:00:00 -0.78 C 3.61 g/m*3 -0.78 C 0 km/h
263 21-01-2011 22:00:00 -0.58 C 3.7 g/m*3 -0.58 C 0 km/h
264 21-01-2011 23:00:00 -0.48 C 3.8 g/m*3 -0.48 C 0 km/h
265 22-01-2011 00:00:00 -0.4 C 3.86 g/m*3 -0.4 C 0 km/h
266 22-01-2011 01:00:00 -0.4 C 3.86 g/m*3 -0.4 C 0 km/h
267 22-01-2011 02:00:00 -0.4 C 3.86 g/m*3 -0.4 C 0 km/h
268 22-01-2011 03:00:00 -0.4 C 3.86 g/m*3 -0.4 C 0 km/h
269 22-01-2011 04:00:00 -0.4 C 3.86 g/m*3 -0.4 C 0 km/h
270 22-01-2011 05:00:00 -0.4 C 3.86 g/m*3 -0.4 C 0 km/h
271 22-01-2011 06:00:00 -0.4 C 3.86 g/m*3 -0.4 C 0 km/h
272 22-01-2011 07:00:00 -0.4 C 3.86 g/m*3 -0.4 C 0 km/h
273 22-01-2011 08:00:00 -0.32 C 3.89 g/m*3 -0.32 C 0 km/h
274 22-01-2011 09:00:00 0 C 3.97 g/m*3 0 C 0 km/h
275 22-01-2011 10:00:00 0.92 C 3.86 g/m*3 0.92 C 0 km/h
Sensor: Nr:Datum:Temp:Abs-Feuchte:Windchill:Wind:
Aussen-T/F 276 22-01-2011 11:00:00 1.4 C 3.72 g/m*3 1.4 C 0 km/h
277 22-01-2011 12:00:00 1.72 C 3.69 g/m*3 1.72 C 0 km/h
278 22-01-2011 13:00:00 1.72 C 3.73 g/m*3 1.72 C 0 km/h
279 22-01-2011 14:00:00 1.84 C 3.98 g/m*3 1.84 C 0 km/h
280 22-01-2011 15:00:00 1.56 C 3.92 g/m*3 1.56 C 0 km/h
281 22-01-2011 16:00:00 1.28 C 3.86 g/m*3 1.28 C 0 km/h
282 22-01-2011 17:00:00 0.72 C 3.9 g/m*3 0.72 C 0 km/h
283 22-01-2011 18:00:00 0.56 C 3.93 g/m*3 0.56 C 0 km/h
284 22-01-2011 19:00:00 0.34 C 4.05 g/m*3 0.34 C 0 km/h
285 22-01-2011 20:00:00 0.38 C 4.01 g/m*3 0.38 C 0 km/h
286 22-01-2011 21:00:00 0.32 C 4.03 g/m*3 0.32 C 0 km/h
287 22-01-2011 22:00:00 0.25 C 4.04 g/m*3 0.25 C 0 km/h
288 22-01-2011 23:00:00 0 C 3.97 g/m*3 0 C 0 km/h
289 23-01-2011 00:00:00 0.22 C 4.03 g/m*3 0.22 C 0 km/h
290 23-01-2011 01:00:00 0.22 C 4.03 g/m*3 0.22 C 0 km/h
291 23-01-2011 02:00:00 0.28 C 4.05 g/m*3 0.28 C 0 km/h
292 23-01-2011 03:00:00 0.44 C 4.05 g/m*3 0.44 C 0 km/h
293 23-01-2011 04:00:00 0.4 C 4.05 g/m*3 0.4 C 0 km/h
294 23-01-2011 05:00:00 0.22 C 4.21 g/m*3 0.22 C 0 km/h
295 23-01-2011 06:00:00 0.42 C 4.4 g/m*3 0.42 C 0 km/h
296 23-01-2011 07:00:00 0.66 C 4.51 g/m*3 0.66 C 0 km/h
297 23-01-2011 08:00:00 0.94 C 4.61 g/m*3 0.94 C 0 km/h
298 23-01-2011 09:00:00 1.46 C 4.71 g/m*3 1.46 C 0 km/h
299 23-01-2011 10:00:00 1.92 C 4.55 g/m*3 1.92 C 0 km/h
300 23-01-2011 11:00:00 2.02 C 4.54 g/m*3 2.02 C 0 km/h
Sensor: Nr:Datum:Temp:Abs-Feuchte:Windchill:Wind:
Aussen-T/F 301 23-01-2011 12:00:00 2.16 C 4.62 g/m*3 2.16 C 0 km/h
302 23-01-2011 13:00:00 2.22 C 4.76 g/m*3 2.22 C 0 km/h
303 23-01-2011 14:00:00 2.4 C 4.88 g/m*3 2.4 C 0 km/h
304 23-01-2011 15:00:00 2.3 C 4.9 g/m*3 2.3 C 0 km/h
305 23-01-2011 16:00:00 2.2 C 4.97 g/m*3 2.2 C 0 km/h
306 23-01-2011 17:00:00 2.16 C 5.03 g/m*3 2.16 C 0 km/h
307 23-01-2011 18:00:00 2.12 C 5.06 g/m*3 2.12 C 0 km/h
308 23-01-2011 19:00:00 2.18 C 5.12 g/m*3 2.18 C 0 km/h
309 23-01-2011 20:00:00 2.22 C 5.14 g/m*3 2.22 C 0 km/h
310 23-01-2011 21:00:00 2.24 C 5.2 g/m*3 2.24 C 0 km/h
311 23-01-2011 22:00:00 2.28 C 5.21 g/m*3 2.28 C 0 km/h
312 23-01-2011 23:00:00 2.36 C 5.24 g/m*3 2.36 C 0 km/h
313 24-01-2011 00:00:00 2.42 C 5.26 g/m*3 2.42 C 0 km/h
314 24-01-2011 01:00:00 2.58 C 5.35 g/m*3 2.58 C 0 km/h
315 24-01-2011 02:00:00 2.56 C 5.37 g/m*3 2.56 C 0 km/h
316 24-01-2011 03:00:00 2.02 C 5.13 g/m*3 2.02 C 0 km/h
317 24-01-2011 04:00:00 2.12 C 5.2 g/m*3 2.12 C 0 km/h
318 24-01-2011 05:00:00 2.48 C 5.34 g/m*3 2.48 C 0 km/h
319 24-01-2011 06:00:00 2.5 C 5.35 g/m*3 2.5 C 0 km/h
320 24-01-2011 07:00:00 2.78 C 5.33 g/m*3 2.78 C 0 km/h
321 24-01-2011 08:00:00 2.76 C 5.07 g/m*3 2.76 C 0 km/h
322 24-01-2011 09:00:00 2.92 C 4.75 g/m*3 2.92 C 0 km/h
323 24-01-2011 10:00:00 3.12 C 4.6 g/m*3 3.12 C 0 km/h
324 24-01-2011 11:00:00 3.46 C 4.57 g/m*3 3.46 C 0 km/h
325 24-01-2011 12:00:00 4.04 C 4.6 g/m*3 4.04 C 0 km/h
Sensor: Nr:Datum:Temp:Abs-Feuchte:Windchill:Wind:
Aussen-T/F 326 24-01-2011 13:00:00 4.36 C 4.7 g/m*3 4.36 C 0 km/h
327 24-01-2011 14:00:00 4.2 C 4.7 g/m*3 4.2 C 0 km/h
328 24-01-2011 15:00:00 3.98 C 4.79 g/m*3 3.98 C 0 km/h
329 24-01-2011 16:00:00 3.78 C 4.96 g/m*3 3.78 C 0 km/h
330 24-01-2011 17:00:00 3.6 C 4.96 g/m*3 3.6 C 0 km/h
331 24-01-2011 18:00:00 3.44 C 5.03 g/m*3 3.44 C 0 km/h
332 24-01-2011 19:00:00 3.18 C 5.1 g/m*3 3.18 C 0 km/h
333 24-01-2011 20:00:00 3.16 C 5.24 g/m*3 3.16 C 0 km/h
334 24-01-2011 21:00:00 3.08 C 5.24 g/m*3 3.08 C 0 km/h
335 24-01-2011 22:00:00 3.08 C 5.33 g/m*3 3.08 C 0 km/h
336 24-01-2011 23:00:00 2.82 C 5.29 g/m*3 2.82 C 0 km/h
337 25-01-2011 00:00:00 2.74 C 5.19 g/m*3 2.74 C 0 km/h
338 25-01-2011 01:00:00 2.66 C 4.76 g/m*3 2.66 C 0 km/h
339 25-01-2011 02:00:00 1.88 C 4.72 g/m*3 1.88 C 0 km/h
340 25-01-2011 03:00:00 1.98 C 4.66 g/m*3 1.98 C 0 km/h
341 25-01-2011 04:00:00 2.64 C 4.43 g/m*3 2.64 C 0 km/h
342 25-01-2011 05:00:00 3.12 C 4.29 g/m*3 3.12 C 0 km/h
343 25-01-2011 06:00:00 3.34 C 4.19 g/m*3 3.34 C 0 km/h
344 25-01-2011 07:00:00 2.98 C 4.18 g/m*3 2.98 C 0 km/h
345 25-01-2011 08:00:00 2.52 C 4.28 g/m*3 2.52 C 0 km/h
346 25-01-2011 09:00:00 2.92 C 4.27 g/m*3 2.92 C 0 km/h
347 25-01-2011 10:00:00 2.92 C 4.38 g/m*3 2.92 C 0 km/h
348 25-01-2011 11:00:00 2.96 C 4.58 g/m*3 2.96 C 0 km/h
349 25-01-2011 12:00:00 3.38 C 4.75 g/m*3 3.38 C 0 km/h
350 25-01-2011 13:00:00 3.94 C 4.67 g/m*3 3.94 C 0 km/h
Sensor: Nr:Datum:Temp:Abs-Feuchte:Windchill:Wind:
Aussen-T/F 351 25-01-2011 14:00:00 3.98 C 4.72 g/m*3 3.98 C 0 km/h
352 25-01-2011 15:00:00 2.3 C 4.72 g/m*3 2.3 C 0 km/h
353 25-01-2011 16:00:00 2.52 C 4.88 g/m*3 2.52 C 0 km/h
354 25-01-2011 17:00:00 2.42 C 4.77 g/m*3 2.42 C 0 km/h
355 25-01-2011 18:00:00 2.36 C 4.74 g/m*3 2.36 C 0 km/h
356 25-01-2011 19:00:00 1.5 C 4.62 g/m*3 1.5 C 0 km/h
357 25-01-2011 20:00:00 0.84 C 4.46 g/m*3 0.84 C 0 km/h
358 25-01-2011 21:00:00 1.08 C 4.47 g/m*3 1.08 C 0 km/h
359 25-01-2011 22:00:00 1.84 C 4.35 g/m*3 1.84 C 0 km/h
360 25-01-2011 23:00:00 1.14 C 4.32 g/m*3 1.14 C 0 km/h
361 26-01-2011 00:00:00 0.64 C 4.31 g/m*3 0.64 C 0 km/h
362 26-01-2011 01:00:00 -0.58 C 4.07 g/m*3 -0.58 C 0 km/h
363 26-01-2011 02:00:00 -0.62 C 4.13 g/m*3 -0.62 C 0 km/h
364 26-01-2011 03:00:00 -0.52 C 4.21 g/m*3 -0.52 C 0 km/h
365 26-01-2011 04:00:00 -0.46 C 4.24 g/m*3 -0.46 C 0 km/h
366 26-01-2011 05:00:00 -0.2 C 4.35 g/m*3 -0.2 C 0 km/h
367 26-01-2011 06:00:00 -0.16 C 4.36 g/m*3 -0.16 C 0 km/h
368 26-01-2011 07:00:00 -0.22 C 4.34 g/m*3 -0.22 C 0 km/h
369 26-01-2011 08:00:00 0.04 C 4.43 g/m*3 0.04 C 0 km/h
370 26-01-2011 09:00:00 0.66 C 4.65 g/m*3 0.66 C 0 km/h
371 26-01-2011 10:00:00 1.6 C 4.81 g/m*3 1.6 C 0 km/h
372 26-01-2011 11:00:00 2.48 C 4.55 g/m*3 2.48 C 0 km/h
373 26-01-2011 12:00:00 3.56 C 4.1 g/m*3 3.56 C 0 km/h
374 26-01-2011 13:00:00 3.24 C 4 g/m*3 3.24 C 0 km/h
375 26-01-2011 14:00:00 3.34 C 3.91 g/m*3 3.34 C 0 km/h
Sensor: Nr:Datum:Temp:Abs-Feuchte:Windchill:Wind:
Aussen-T/F 376 26-01-2011 15:00:00 3.32 C 3.84 g/m*3 3.32 C 0 km/h
377 26-01-2011 16:00:00 2.24 C 4.04 g/m*3 2.24 C 0 km/h
378 26-01-2011 17:00:00 0.76 C 4.28 g/m*3 0.76 C 0 km/h
379 26-01-2011 18:00:00 0.64 C 4.29 g/m*3 0.64 C 0 km/h
380 26-01-2011 19:00:00 0.44 C 4.24 g/m*3 0.44 C 0 km/h
381 26-01-2011 20:00:00 0.5 C 4.31 g/m*3 0.5 C 0 km/h
382 26-01-2011 21:00:00 0.52 C 4.26 g/m*3 0.52 C 0 km/h
383 26-01-2011 22:00:00 -0.16 C 4.01 g/m*3 -0.16 C 0 km/h
384 26-01-2011 23:00:00 -0.88 C 3.86 g/m*3 -0.88 C 0 km/h
385 27-01-2011 00:00:00 -1.24 C 3.81 g/m*3 -1.24 C 0 km/h
386 27-01-2011 01:00:00 -1.76 C 3.69 g/m*3 -1.76 C 0 km/h
387 27-01-2011 02:00:00 -2.52 C 3.5 g/m*3 -2.52 C 0 km/h
388 27-01-2011 03:00:00 -3.36 C 3.32 g/m*3 -3.36 C 0 km/h
389 27-01-2011 04:00:00 -2.2 C 3.68 g/m*3 -2.2 C 0 km/h
390 27-01-2011 05:00:00 -1.56 C 3.9 g/m*3 -1.56 C 0 km/h
391 27-01-2011 06:00:00 -1.38 C 3.96 g/m*3 -1.38 C 0 km/h
392 27-01-2011 07:00:00 -1.32 C 3.98 g/m*3 -1.32 C 0 km/h
393 27-01-2011 08:00:00 -1.18 C 4.04 g/m*3 -1.18 C 0 km/h
394 27-01-2011 09:00:00 -0.24 C 4.33 g/m*3 -0.24 C 0 km/h
395 27-01-2011 10:00:00 0.86 C 4.29 g/m*3 0.86 C 0 km/h
396 27-01-2011 11:00:00 1.86 C 3.63 g/m*3 1.86 C 0 km/h
397 27-01-2011 12:00:00 2.44 C 3.33 g/m*3 2.44 C 0 km/h
398 27-01-2011 13:00:00 2.64 C 3.1 g/m*3 2.64 C 0 km/h
399 27-01-2011 14:00:00 2.4 C 2.95 g/m*3 2.4 C 0 km/h
400 27-01-2011 15:00:00 1.88 C 2.81 g/m*3 1.88 C 0 km/h
Sensor: Nr:Datum:Temp:Abs-Feuchte:Windchill:Wind:
Aussen-T/F 401 27-01-2011 16:00:00 1.18 C 2.74 g/m*3 1.18 C 0 km/h
402 27-01-2011 17:00:00 0.26 C 2.75 g/m*3 0.26 C 0 km/h
403 27-01-2011 18:00:00 0 C 2.77 g/m*3 0 C 0 km/h
404 27-01-2011 19:00:00 -0.16 C 2.82 g/m*3 -0.16 C 0 km/h
405 27-01-2011 20:00:00 -0.34 C 2.86 g/m*3 -0.34 C 0 km/h
406 27-01-2011 21:00:00 -0.92 C 2.84 g/m*3 -0.92 C 0 km/h
407 27-01-2011 22:00:00 -1.2 C 2.84 g/m*3 -1.2 C 0 km/h
408 27-01-2011 23:00:00 -1 C 2.78 g/m*3 -1 C 0 km/h
409 28-01-2011 00:00:00 -1.34 C 2.76 g/m*3 -1.34 C 0 km/h
410 28-01-2011 01:00:00 -1.24 C 2.67 g/m*3 -1.24 C 0 km/h
411 28-01-2011 02:00:00 -1.42 C 2.69 g/m*3 -1.42 C 0 km/h
412 28-01-2011 03:00:00 -1.18 C 2.79 g/m*3 -1.18 C 0 km/h
413 28-01-2011 04:00:00 -1.04 C 2.82 g/m*3 -1.04 C 0 km/h
414 28-01-2011 05:00:00 -0.98 C 2.83 g/m*3 -0.98 C 0 km/h
415 28-01-2011 06:00:00 -0.98 C 2.77 g/m*3 -0.98 C 0 km/h
416 28-01-2011 07:00:00 -1.06 C 2.79 g/m*3 -1.06 C 0 km/h
417 28-01-2011 08:00:00 -2.1 C 2.72 g/m*3 -2.1 C 0 km/h
418 28-01-2011 09:00:00 -1.4 C 2.8 g/m*3 -1.4 C 0 km/h
419 28-01-2011 10:00:00 -0.6 C 2.69 g/m*3 -0.6 C 0 km/h
420 28-01-2011 11:00:00 0.14 C 2.7 g/m*3 0.14 C 0 km/h
421 28-01-2011 12:00:00 0.72 C 2.7 g/m*3 0.72 C 0 km/h
422 28-01-2011 13:00:00 0.96 C 2.72 g/m*3 0.96 C 0 km/h
423 28-01-2011 14:00:00 1.22 C 2.75 g/m*3 1.22 C 0 km/h
424 28-01-2011 15:00:00 1.26 C 2.8 g/m*3 1.26 C 0 km/h
425 28-01-2011 16:00:00 0.44 C 2.86 g/m*3 0.44 C 0 km/h
Sensor: Nr:Datum:Temp:Abs-Feuchte:Windchill:Wind:
Aussen-T/F 426 28-01-2011 17:00:00 -1.38 C 2.96 g/m*3 -1.38 C 0 km/h
427 28-01-2011 18:00:00 -2.44 C 3.09 g/m*3 -2.44 C 0 km/h
428 28-01-2011 19:00:00 -2.68 C 3.08 g/m*3 -2.68 C 0 km/h
429 28-01-2011 20:00:00 -3.52 C 3.01 g/m*3 -3.52 C 0 km/h
430 28-01-2011 21:00:00 -3.84 C 3.02 g/m*3 -3.84 C 0 km/h
431 28-01-2011 22:00:00 -4.18 C 3 g/m*3 -4.18 C 0 km/h
432 28-01-2011 23:00:00 -3.86 C 3.07 g/m*3 -3.86 C 0 km/h
433 29-01-2011 00:00:00 -4.68 C 2.87 g/m*3 -4.68 C 0 km/h
434 29-01-2011 01:00:00 -5.04 C 2.8 g/m*3 -5.04 C 0 km/h
435 29-01-2011 02:00:00 -5.52 C 2.71 g/m*3 -5.52 C 0 km/h
436 29-01-2011 03:00:00 -5.52 C 2.74 g/m*3 -5.52 C 0 km/h
437 29-01-2011 04:00:00 -5.48 C 2.74 g/m*3 -5.48 C 0 km/h
438 29-01-2011 05:00:00 -5.88 C 2.65 g/m*3 -5.88 C 0 km/h
439 29-01-2011 06:00:00 -6.52 C 2.5 g/m*3 -6.52 C 0 km/h
440 29-01-2011 07:00:00 -6.5 C 2.5 g/m*3 -6.5 C 0 km/h
441 29-01-2011 08:00:00 -6.28 C 2.55 g/m*3 -6.28 C 0 km/h
442 29-01-2011 09:00:00 -6.44 C 2.5 g/m*3 -6.44 C 0 km/h
443 29-01-2011 10:00:00 -5.78 C 2.62 g/m*3 -5.78 C 0 km/h
444 29-01-2011 11:00:00 -4.86 C 2.82 g/m*3 -4.86 C 0 km/h
445 29-01-2011 12:00:00 -4 C 2.99 g/m*3 -4 C 0 km/h
446 29-01-2011 13:00:00 -3.26 C 3.03 g/m*3 -3.26 C 0 km/h
447 29-01-2011 14:00:00 -2.42 C 3.09 g/m*3 -2.42 C 0 km/h
448 29-01-2011 15:00:00 -1.6 C 3.16 g/m*3 -1.6 C 0 km/h
449 29-01-2011 16:00:00 -2.3 C 2.9 g/m*3 -2.3 C 0 km/h
450 29-01-2011 17:00:00 -3.32 C 2.6 g/m*3 -3.32 C 0 km/h
Sensor: Nr:Datum:Temp:Abs-Feuchte:Windchill:Wind:
Aussen-T/F 451 29-01-2011 18:00:00 -4.22 C 2.51 g/m*3 -4.22 C 0 km/h
452 29-01-2011 19:00:00 -4.52 C 2.57 g/m*3 -4.52 C 0 km/h
453 29-01-2011 20:00:00 -5.08 C 2.55 g/m*3 -5.08 C 0 km/h
454 29-01-2011 21:00:00 -5.96 C 2.45 g/m*3 -5.96 C 0 km/h
455 29-01-2011 22:00:00 -6.2 C 2.43 g/m*3 -6.2 C 0 km/h
456 29-01-2011 23:00:00 -6.22 C 2.46 g/m*3 -6.22 C 0 km/h
457 30-01-2011 00:00:00 -6.72 C 2.39 g/m*3 -6.72 C 0 km/h
458 30-01-2011 01:00:00 -7.12 C 2.32 g/m*3 -7.12 C 0 km/h
459 30-01-2011 02:00:00 -7.7 C 2.18 g/m*3 -7.7 C 0 km/h
460 30-01-2011 03:00:00 -7.74 C 2.21 g/m*3 -7.74 C 0 km/h
461 30-01-2011 04:00:00 -7.78 C 2.21 g/m*3 -7.78 C 0 km/h
462 30-01-2011 05:00:00 -8.24 C 2.14 g/m*3 -8.24 C 0 km/h
463 30-01-2011 06:00:00 -8.72 C 2.06 g/m*3 -8.72 C 0 km/h
464 30-01-2011 07:00:00 -7.8 C 2.23 g/m*3 -7.8 C 0 km/h
465 30-01-2011 08:00:00 -8.86 C 2.01 g/m*3 -8.86 C 0 km/h
466 30-01-2011 09:00:00 -8.06 C 2.13 g/m*3 -8.06 C 0 km/h
467 30-01-2011 10:00:00 -6.54 C 2.43 g/m*3 -6.54 C 0 km/h
468 30-01-2011 11:00:00 -5.94 C 2.53 g/m*3 -5.94 C 0 km/h
469 30-01-2011 12:00:00 -5.36 C 2.68 g/m*3 -5.36 C 0 km/h
470 30-01-2011 13:00:00 -4.42 C 2.85 g/m*3 -4.42 C 0 km/h
471 30-01-2011 14:00:00 -3.38 C 3.01 g/m*3 -3.38 C 0 km/h
472 30-01-2011 15:00:00 -2.32 C 3.06 g/m*3 -2.32 C 0 km/h
473 30-01-2011 16:00:00 -2.98 C 2.95 g/m*3 -2.98 C 0 km/h
474 30-01-2011 17:00:00 -3.96 C 2.9 g/m*3 -3.96 C 0 km/h
475 30-01-2011 18:00:00 -4.44 C 2.83 g/m*3 -4.44 C 0 km/h
Sensor: Nr:Datum:Temp:Abs-Feuchte:Windchill:Wind:
Aussen-T/F 476 30-01-2011 19:00:00 -5.12 C 2.74 g/m*3 -5.12 C 0 km/h
477 30-01-2011 20:00:00 -5.16 C 2.76 g/m*3 -5.16 C 0 km/h
478 30-01-2011 21:00:00 -5.86 C 2.63 g/m*3 -5.86 C 0 km/h
479 30-01-2011 22:00:00 -7.14 C 2.38 g/m*3 -7.14 C 0 km/h
480 30-01-2011 23:00:00 -7.66 C 2.26 g/m*3 -7.66 C 0 km/h
481 31-01-2011 00:00:00 -7.5 C 2.29 g/m*3 -7.5 C 0 km/h
482 31-01-2011 01:00:00 -8.24 C 2.14 g/m*3 -8.24 C 0 km/h
483 31-01-2011 02:00:00 -8.58 C 2.05 g/m*3 -8.58 C 0 km/h
484 31-01-2011 03:00:00 -8.18 C 2.14 g/m*3 -8.18 C 0 km/h
485 31-01-2011 04:00:00 -9.08 C 1.97 g/m*3 -9.08 C 0 km/h
486 31-01-2011 05:00:00 -8.26 C 2.12 g/m*3 -8.26 C 0 km/h
487 31-01-2011 06:00:00 -7.14 C 2.37 g/m*3 -7.14 C 0 km/h
488 31-01-2011 07:00:00 -7.1 C 2.4 g/m*3 -7.1 C 0 km/h
489 31-01-2011 08:00:00 -6.98 C 2.44 g/m*3 -6.98 C 0 km/h
490 31-01-2011 09:00:00 -6.72 C 2.49 g/m*3 -6.72 C 0 km/h
491 31-01-2011 10:00:00 -5.96 C 2.62 g/m*3 -5.96 C 0 km/h
492 31-01-2011 11:00:00 -5.32 C 2.73 g/m*3 -5.32 C 0 km/h
493 31-01-2011 12:00:00 -4.68 C 2.84 g/m*3 -4.68 C 0 km/h
494 31-01-2011 13:00:00 -4.06 C 2.9 g/m*3 -4.06 C 0 km/h
495 31-01-2011 14:00:00 -3.72 C 2.87 g/m*3 -3.72 C 0 km/h
496 31-01-2011 15:00:00 -3.6 C 2.89 g/m*3 -3.6 C 0 km/h
497 31-01-2011 16:00:00 -3.98 C 2.86 g/m*3 -3.98 C 0 km/h
498 31-01-2011 17:00:00 -4.12 C 2.92 g/m*3 -4.12 C 0 km/h
499 31-01-2011 18:00:00 -3.9 C 3.01 g/m*3 -3.9 C 0 km/h
500 31-01-2011 19:00:00 -3.7 C 3.05 g/m*3 -3.7 C 0 km/h
Sensor: Nr:Datum:Temp:Abs-Feuchte:Windchill:Wind:
Aussen-T/F 501 31-01-2011 20:00:00 -3.96 C 2.94 g/m*3 -3.96 C 0 km/h
502 31-01-2011 21:00:00 -4.14 C 2.9 g/m*3 -4.14 C 0 km/h
503 31-01-2011 22:00:00 -4.32 C 2.86 g/m*3 -4.32 C 0 km/h
504 31-01-2011 23:00:00 -4.48 C 2.83 g/m*3 -4.48 C 0 km/h
505 01-02-2011 00:00:00 -4.44 C 2.84 g/m*3 -4.44 C 0 km/h
506 01-02-2011 01:00:00 -4.52 C 2.81 g/m*3 -4.52 C 0 km/h
507 01-02-2011 02:00:00 -4.74 C 2.71 g/m*3 -4.74 C 0 km/h
508 01-02-2011 03:00:00 -4.78 C 2.64 g/m*3 -4.78 C 0 km/h
509 01-02-2011 04:00:00 -4.9 C 2.61 g/m*3 -4.9 C 0 km/h
510 01-02-2011 05:00:00 -5.1 C 2.53 g/m*3 -5.1 C 0 km/h
511 01-02-2011 06:00:00 -5.2 C 2.51 g/m*3 -5.2 C 0 km/h
512 01-02-2011 07:00:00 -5.3 C 2.49 g/m*3 -5.3 C 0 km/h
513 01-02-2011 08:00:00 -5.2 C 2.52 g/m*3 -5.2 C 0 km/h
514 01-02-2011 09:00:00 -4.84 C 2.56 g/m*3 -4.84 C 0 km/h
515 01-02-2011 10:00:00 -4.5 C 2.56 g/m*3 -4.5 C 0 km/h
516 01-02-2011 11:00:00 -3.98 C 2.56 g/m*3 -3.98 C 0 km/h
517 01-02-2011 12:00:00 -3 C 2.62 g/m*3 -3 C 0 km/h
518 01-02-2011 13:00:00 -2.5 C 2.69 g/m*3 -2.5 C 0 km/h
519 01-02-2011 14:00:00 -2.4 C 2.74 g/m*3 -2.4 C 0 km/h
520 01-02-2011 15:00:00 -2.66 C 2.7 g/m*3 -2.66 C 0 km/h
521 01-02-2011 16:00:00 -3.62 C 2.62 g/m*3 -3.62 C 0 km/h
522 01-02-2011 17:00:00 -4.1 C 2.68 g/m*3 -4.1 C 0 km/h
523 01-02-2011 18:00:00 -3.6 C 2.77 g/m*3 -3.6 C 0 km/h
524 01-02-2011 19:00:00 -3.38 C 2.75 g/m*3 -3.38 C 0 km/h
525 01-02-2011 20:00:00 -3.3 C 2.76 g/m*3 -3.3 C 0 km/h
Sensor: Nr:Datum:Temp:Abs-Feuchte:Windchill:Wind:
Aussen-T/F 526 01-02-2011 21:00:00 -3.56 C 2.63 g/m*3 -3.56 C 0 km/h
527 01-02-2011 22:00:00 -3.6 C 2.61 g/m*3 -3.6 C 0 km/h
528 01-02-2011 23:00:00 -3.72 C 2.89 g/m*3 -3.72 C 0 km/h
529 02-02-2011 00:00:00 -3.84 C 3.02 g/m*3 -3.84 C 0 km/h
530 02-02-2011 01:00:00 -3.66 C 3.05 g/m*3 -3.66 C 0 km/h
531 02-02-2011 02:00:00 -3.38 C 3.02 g/m*3 -3.38 C 0 km/h
532 02-02-2011 03:00:00 -3.28 C 3.04 g/m*3 -3.28 C 0 km/h
533 02-02-2011 04:00:00 -3.12 C 3.09 g/m*3 -3.12 C 0 km/h
534 02-02-2011 05:00:00 -2.98 C 3.15 g/m*3 -2.98 C 0 km/h
535 02-02-2011 06:00:00 -2.84 C 3.18 g/m*3 -2.84 C 0 km/h
536 02-02-2011 07:00:00 -2.68 C 3.21 g/m*3 -2.68 C 0 km/h
537 02-02-2011 08:00:00 -2.28 C 3.3 g/m*3 -2.28 C 0 km/h
538 02-02-2011 09:00:00 -1.54 C 3.33 g/m*3 -1.54 C 0 km/h
539 02-02-2011 10:00:00 -0.94 C 3.33 g/m*3 -0.94 C 0 km/h
540 02-02-2011 11:00:00 -0.46 C 3.38 g/m*3 -0.46 C 0 km/h
541 02-02-2011 12:00:00 1.26 C 3.51 g/m*3 1.26 C 0 km/h
542 02-02-2011 13:00:00 1.94 C 3.65 g/m*3 1.94 C 0 km/h
543 02-02-2011 14:00:00 1.92 C 3.79 g/m*3 1.92 C 0 km/h
544 02-02-2011 15:00:00 1.42 C 3.79 g/m*3 1.42 C 0 km/h
545 02-02-2011 16:00:00 1.16 C 3.8 g/m*3 1.16 C 0 km/h
546 02-02-2011 17:00:00 0.64 C 3.84 g/m*3 0.64 C 0 km/h
547 02-02-2011 18:00:00 0.52 C 3.81 g/m*3 0.52 C 0 km/h
548 02-02-2011 19:00:00 0.32 C 3.81 g/m*3 0.32 C 0 km/h
549 02-02-2011 20:00:00 0.28 C 3.81 g/m*3 0.28 C 0 km/h
550 02-02-2011 21:00:00 0.26 C 3.8 g/m*3 0.26 C 0 km/h
Sensor: Nr:Datum:Temp:Abs-Feuchte:Windchill:Wind:
Aussen-T/F 551 02-02-2011 22:00:00 0.2 C 3.78 g/m*3 0.2 C 0 km/h
552 02-02-2011 23:00:00 0.32 C 3.81 g/m*3 0.32 C 0 km/h
553 03-02-2011 00:00:00 0.34 C 3.78 g/m*3 0.34 C 0 km/h
554 03-02-2011 01:00:00 0.48 C 3.82 g/m*3 0.48 C 0 km/h
555 03-02-2011 02:00:00 0.64 C 3.99 g/m*3 0.64 C 0 km/h
556 03-02-2011 03:00:00 0.44 C 4.2 g/m*3 0.44 C 0 km/h
557 03-02-2011 04:00:00 0.6 C 4.42 g/m*3 0.6 C 0 km/h
558 03-02-2011 05:00:00 0.9 C 4.56 g/m*3 0.9 C 0 km/h
559 03-02-2011 06:00:00 1.16 C 4.6 g/m*3 1.16 C 0 km/h
560 03-02-2011 07:00:00 1.4 C 4.66 g/m*3 1.4 C 0 km/h
561 03-02-2011 08:00:00 1.52 C 4.68 g/m*3 1.52 C 0 km/h
562 03-02-2011 09:00:00 1.88 C 4.67 g/m*3 1.88 C 0 km/h
563 03-02-2011 10:00:00 2.3 C 4.64 g/m*3 2.3 C 0 km/h
564 03-02-2011 11:00:00 2.82 C 4.64 g/m*3 2.82 C 0 km/h
565 03-02-2011 12:00:00 3.38 C 4.66 g/m*3 3.38 C 0 km/h
566 03-02-2011 13:00:00 3.52 C 4.68 g/m*3 3.52 C 0 km/h
567 03-02-2011 14:00:00 3.64 C 4.78 g/m*3 3.64 C 0 km/h
568 03-02-2011 15:00:00 3.42 C 4.76 g/m*3 3.42 C 0 km/h
569 03-02-2011 16:00:00 3.22 C 4.71 g/m*3 3.22 C 0 km/h
570 03-02-2011 17:00:00 2.76 C 4.68 g/m*3 2.76 C 0 km/h
571 03-02-2011 18:00:00 2.64 C 4.57 g/m*3 2.64 C 0 km/h
572 03-02-2011 19:00:00 1.8 C 4.46 g/m*3 1.8 C 0 km/h
573 03-02-2011 20:00:00 1.62 C 4.41 g/m*3 1.62 C 0 km/h
574 03-02-2011 21:00:00 1.68 C 4.35 g/m*3 1.68 C 0 km/h
575 03-02-2011 22:00:00 2.15 C 4.34 g/m*3 2.15 C 0 km/h
Sensor: Nr:Datum:Temp:Abs-Feuchte:Windchill:Wind:
Aussen-T/F 576 03-02-2011 23:00:00 2.4 C 4.43 g/m*3 2.4 C 0 km/h
577 04-02-2011 00:00:00 3.02 C 4.36 g/m*3 3.02 C 0 km/h
578 04-02-2011 01:00:00 3.12 C 4.32 g/m*3 3.12 C 0 km/h
579 04-02-2011 02:00:00 2.64 C 4.42 g/m*3 2.64 C 0 km/h
580 04-02-2011 03:00:00 2.68 C 4.39 g/m*3 2.68 C 0 km/h
581 04-02-2011 04:00:00 2.86 C 4.5 g/m*3 2.86 C 0 km/h
582 04-02-2011 05:00:00 3.34 C 4.77 g/m*3 3.34 C 0 km/h
583 04-02-2011 06:00:00 4.08 C 4.92 g/m*3 4.08 C 0 km/h
584 04-02-2011 07:00:00 4.66 C 5 g/m*3 4.66 C 0 km/h
585 04-02-2011 08:00:00 5.46 C 5.11 g/m*3 5.46 C 0 km/h
586 04-02-2011 09:00:00 6.12 C 5.05 g/m*3 6.12 C 0 km/h
587 04-02-2011 10:00:00 6.6 C 5.07 g/m*3 6.6 C 0 km/h
588 04-02-2011 11:00:00 7.26 C 5.09 g/m*3 7.26 C 0 km/h
589 04-02-2011 12:00:00 7.5 C 5.22 g/m*3 7.5 C 0 km/h
590 04-02-2011 13:00:00 7.46 C 5.3 g/m*3 7.46 C 0 km/h
591 04-02-2011 14:00:00 7.52 C 5.4 g/m*3 7.52 C 0 km/h
592 04-02-2011 15:00:00 7.82 C 5.48 g/m*3 7.82 C 0 km/h
593 04-02-2011 16:00:00 7.82 C 5.56 g/m*3 7.82 C 0 km/h
594 04-02-2011 17:00:00 7.8 C 5.6 g/m*3 7.8 C 0 km/h
595 04-02-2011 18:00:00 8.08 C 5.58 g/m*3 8.08 C 0 km/h
596 04-02-2011 19:00:00 8.32 C 5.65 g/m*3 8.32 C 0 km/h
597 04-02-2011 20:00:00 8.42 C 5.74 g/m*3 8.42 C 0 km/h
598 04-02-2011 21:00:00 8.44 C 5.73 g/m*3 8.44 C 0 km/h
599 04-02-2011 22:00:00 8.6 C 5.72 g/m*3 8.6 C 0 km/h
600 04-02-2011 23:00:00 8.84 C 5.72 g/m*3 8.84 C 0 km/h
Sensor: Nr:Datum:Temp:Abs-Feuchte:Windchill:Wind:
Aussen-T/F 601 05-02-2011 00:00:00 8.76 C 5.64 g/m*3 8.76 C 0 km/h
602 05-02-2011 01:00:00 8.56 C 5.69 g/m*3 8.56 C 0 km/h
603 05-02-2011 02:00:00 8.8 C 5.61 g/m*3 8.8 C 0 km/h
604 05-02-2011 03:00:00 9.1 C 5.45 g/m*3 9.1 C 0 km/h
605 05-02-2011 04:00:00 8.92 C 5.47 g/m*3 8.92 C 0 km/h
606 05-02-2011 05:00:00 8.72 C 5.49 g/m*3 8.72 C 0 km/h
607 05-02-2011 06:00:00 8.7 C 5.5 g/m*3 8.7 C 0 km/h
608 05-02-2011 07:00:00 8.96 C 5.5 g/m*3 8.96 C 0 km/h
609 05-02-2011 08:00:00 8.84 C 5.55 g/m*3 8.84 C 0 km/h
610 05-02-2011 09:00:00 9.2 C 5.46 g/m*3 9.2 C 0 km/h
611 05-02-2011 10:00:00 9.66 C 5.43 g/m*3 9.66 C 0 km/h
612 05-02-2011 11:00:00 10.04 C 5.37 g/m*3 10.04 C 0 km/h
613 05-02-2011 12:00:00 10.16 C 5.39 g/m*3 10.16 C 0 km/h
614 05-02-2011 13:00:00 10.22 C 5.41 g/m*3 10.22 C 0 km/h
615 05-02-2011 14:00:00 10.02 C 5.36 g/m*3 10.02 C 0 km/h
616 05-02-2011 15:00:00 9.74 C 5.36 g/m*3 9.74 C 0 km/h
617 05-02-2011 16:00:00 9.44 C 5.44 g/m*3 9.44 C 0 km/h
618 05-02-2011 17:00:00 9.16 C 5.54 g/m*3 9.16 C 0 km/h
619 05-02-2011 18:00:00 9.18 C 5.62 g/m*3 9.18 C 0 km/h
620 05-02-2011 19:00:00 9.1 C 5.61 g/m*3 9.1 C 0 km/h
621 05-02-2011 20:00:00 9.22 C 5.74 g/m*3 9.22 C 0 km/h
622 05-02-2011 21:00:00 9.18 C 5.8 g/m*3 9.18 C 0 km/h
623 05-02-2011 22:00:00 9.18 C 5.9 g/m*3 9.18 C 0 km/h
624 05-02-2011 23:00:00 9.34 C 5.91 g/m*3 9.34 C 0 km/h
625 06-02-2011 00:00:00 9.54 C 5.95 g/m*3 9.54 C 0 km/h
Sensor: Nr:Datum:Temp:Abs-Feuchte:Windchill:Wind:
Aussen-T/F 626 06-02-2011 01:00:00 9.52 C 6 g/m*3 9.52 C 0 km/h
627 06-02-2011 02:00:00 9.4 C 5.97 g/m*3 9.4 C 0 km/h
628 06-02-2011 03:00:00 9.44 C 5.88 g/m*3 9.44 C 0 km/h
629 06-02-2011 04:00:00 9.58 C 5.82 g/m*3 9.58 C 0 km/h
630 06-02-2011 05:00:00 9.5 C 5.63 g/m*3 9.5 C 0 km/h
631 06-02-2011 06:00:00 9.42 C 5.54 g/m*3 9.42 C 0 km/h
632 06-02-2011 07:00:00 9.3 C 5.43 g/m*3 9.3 C 0 km/h
633 06-02-2011 08:00:00 9.14 C 5.36 g/m*3 9.14 C 0 km/h
634 06-02-2011 09:00:00 9.22 C 5.33 g/m*3 9.22 C 0 km/h
635 06-02-2011 10:00:00 9.5 C 5.19 g/m*3 9.5 C 0 km/h
636 06-02-2011 11:00:00 9.72 C 5.11 g/m*3 9.72 C 0 km/h
637 06-02-2011 12:00:00 9.82 C 5.02 g/m*3 9.82 C 0 km/h
638 06-02-2011 13:00:00 9.86 C 4.86 g/m*3 9.86 C 0 km/h
639 06-02-2011 14:00:00 10.42 C 4.84 g/m*3 10.42 C 0 km/h
640 06-02-2011 15:00:00 9.7 C 4.72 g/m*3 9.7 C 0 km/h
641 06-02-2011 16:00:00 8.44 C 4.66 g/m*3 8.44 C 0 km/h
642 06-02-2011 17:00:00 7.5 C 4.72 g/m*3 7.5 C 0 km/h
643 06-02-2011 18:00:00 6.86 C 4.64 g/m*3 6.86 C 0 km/h
644 06-02-2011 19:00:00 6.88 C 4.61 g/m*3 6.88 C 0 km/h
645 06-02-2011 20:00:00 6.52 C 4.6 g/m*3 6.52 C 0 km/h
646 06-02-2011 21:00:00 6.14 C 4.63 g/m*3 6.14 C 0 km/h
647 06-02-2011 22:00:00 5.8 C 4.74 g/m*3 5.8 C 0 km/h
648 06-02-2011 23:00:00 5.66 C 4.74 g/m*3 5.66 C 0 km/h
649 07-02-2011 00:00:00 5.28 C 4.79 g/m*3 5.28 C 0 km/h
650 07-02-2011 01:00:00 5.48 C 4.7 g/m*3 5.48 C 0 km/h
Sensor: Nr:Datum:Temp:Abs-Feuchte:Windchill:Wind:
Aussen-T/F 651 07-02-2011 02:00:00 5.7 C 4.5 g/m*3 5.7 C 0 km/h
652 07-02-2011 03:00:00 5.56 C 4.44 g/m*3 5.56 C 0 km/h
653 07-02-2011 04:00:00 5.34 C 4.43 g/m*3 5.34 C 0 km/h
654 07-02-2011 05:00:00 5.12 C 4.37 g/m*3 5.12 C 0 km/h
655 07-02-2011 06:00:00 4.8 C 4.37 g/m*3 4.8 C 0 km/h
656 07-02-2011 07:00:00 4.48 C 4.31 g/m*3 4.48 C 0 km/h
657 07-02-2011 08:00:00 4.42 C 4.29 g/m*3 4.42 C 0 km/h
658 07-02-2011 09:00:00 3.92 C 4.29 g/m*3 3.92 C 0 km/h
659 07-02-2011 10:00:00 3.2 C 4.47 g/m*3 3.2 C 0 km/h
660 07-02-2011 11:00:00 4.52 C 4.62 g/m*3 4.52 C 0 km/h
661 07-02-2011 12:00:00 6.06 C 4.62 g/m*3 6.06 C 0 km/h
662 07-02-2011 13:00:00 7.18 C 4.78 g/m*3 7.18 C 0 km/h
663 07-02-2011 14:00:00 9.68 C 4.12 g/m*3 9.68 C 0 km/h
664 07-02-2011 15:00:00 11.94 C 2.78 g/m*3 11.94 C 0 km/h
665 07-02-2011 16:00:00 12.1 C 2.53 g/m*3 12.1 C 0 km/h
666 07-02-2011 17:00:00 8.82 C 3 g/m*3 8.82 C 0 km/h
667 07-02-2011 18:00:00 8.3 C 3.15 g/m*3 8.3 C 0 km/h
668 07-02-2011 19:00:00 7.06 C 3.38 g/m*3 7.06 C 0 km/h
669 07-02-2011 20:00:00 6.06 C 3.47 g/m*3 6.06 C 0 km/h
670 07-02-2011 21:00:00 6.06 C 3.67 g/m*3 6.06 C 0 km/h
671 07-02-2011 22:00:00 6.6 C 3.73 g/m*3 6.6 C 0 km/h
672 07-02-2011 23:00:00 7.86 C 3.59 g/m*3 7.86 C 0 km/h
673 08-02-2011 00:00:00 7.66 C 3.75 g/m*3 7.66 C 0 km/h
674 08-02-2011 01:00:00 7.8 C 4.34 g/m*3 7.8 C 0 km/h
675 08-02-2011 02:00:00 8.04 C 4.39 g/m*3 8.04 C 0 km/h
Sensor: Nr:Datum:Temp:Abs-Feuchte:Windchill:Wind:
Aussen-T/F 676 08-02-2011 03:00:00 7.96 C 4.55 g/m*3 7.96 C 0 km/h
677 08-02-2011 04:00:00 7.3 C 4.85 g/m*3 7.3 C 0 km/h
678 08-02-2011 05:00:00 7.46 C 5 g/m*3 7.46 C 0 km/h
679 08-02-2011 06:00:00 6.86 C 5.05 g/m*3 6.86 C 0 km/h
680 08-02-2011 07:00:00 6.04 C 5.37 g/m*3 6.04 C 0 km/h
681 08-02-2011 08:00:00 4.52 C 5.11 g/m*3 4.52 C 0 km/h
682 08-02-2011 09:00:00 4.2 C 5.05 g/m*3 4.2 C 0 km/h
683 08-02-2011 10:00:00 5.66 C 5.18 g/m*3 5.66 C 0 km/h
684 08-02-2011 11:00:00 7.28 C 4.96 g/m*3 7.28 C 0 km/h
685 08-02-2011 12:00:00 8.38 C 4.61 g/m*3 8.38 C 0 km/h
686 08-02-2011 13:00:00 9.5 C 4.42 g/m*3 9.5 C 0 km/h
687 08-02-2011 14:00:00 9.42 C 4.49 g/m*3 9.42 C 0 km/h
688 08-02-2011 15:00:00 9.24 C 4.4 g/m*3 9.24 C 0 km/h
689 08-02-2011 16:00:00 10.18 C 4.37 g/m*3 10.18 C 0 km/h
690 08-02-2011 17:00:00 4.78 C 4.42 g/m*3 4.78 C 0 km/h
691 08-02-2011 18:00:00 3 C 4.26 g/m*3 3 C 0 km/h
692 08-02-2011 19:00:00 1.48 C 4.16 g/m*3 1.48 C 0 km/h
693 08-02-2011 20:00:00 -0.02 C 3.97 g/m*3 -0.02 C 0 km/h
694 08-02-2011 21:00:00 -0.9 C 3.8 g/m*3 -0.9 C 0 km/h
695 08-02-2011 22:00:00 -1.78 C 3.61 g/m*3 -1.78 C 0 km/h
696 08-02-2011 23:00:00 -2.34 C 3.5 g/m*3 -2.34 C 0 km/h
697 09-02-2011 00:00:00 -2.74 C 3.43 g/m*3 -2.74 C 0 km/h
698 09-02-2011 01:00:00 -3.2 C 3.33 g/m*3 -3.2 C 0 km/h
699 09-02-2011 02:00:00 -3.38 C 3.31 g/m*3 -3.38 C 0 km/h
700 09-02-2011 03:00:00 -3.78 C 3.23 g/m*3 -3.78 C 0 km/h
Sensor: Nr:Datum:Temp:Abs-Feuchte:Windchill:Wind:
Aussen-T/F 701 09-02-2011 04:00:00 -4.04 C 3.18 g/m*3 -4.04 C 0 km/h
702 09-02-2011 05:00:00 -4.26 C 3.12 g/m*3 -4.26 C 0 km/h
703 09-02-2011 06:00:00 -4.06 C 3.17 g/m*3 -4.06 C 0 km/h
704 09-02-2011 07:00:00 -3.42 C 3.32 g/m*3 -3.42 C 0 km/h
705 09-02-2011 08:00:00 -3.2 C 3.41 g/m*3 -3.2 C 0 km/h
706 09-02-2011 09:00:00 -2.76 C 3.52 g/m*3 -2.76 C 0 km/h
707 09-02-2011 10:00:00 -2 C 3.71 g/m*3 -2 C 0 km/h
708 09-02-2011 11:00:00 -0.58 C 4.05 g/m*3 -0.58 C 0 km/h
709 09-02-2011 12:00:00 0.9 C 4.34 g/m*3 0.9 C 0 km/h
710 09-02-2011 13:00:00 2.48 C 4.5 g/m*3 2.48 C 0 km/h
711 09-02-2011 14:00:00 3.6 C 4.87 g/m*3 3.6 C 0 km/h
712 09-02-2011 15:00:00 5.22 C 4.87 g/m*3 5.22 C 0 km/h
713 09-02-2011 16:00:00 8.16 C 4.38 g/m*3 8.16 C 0 km/h
714 09-02-2011 17:00:00 3.66 C 4.41 g/m*3 3.66 C 0 km/h
715 09-02-2011 18:00:00 3.04 C 4.61 g/m*3 3.04 C 0 km/h
716 09-02-2011 19:00:00 2.4 C 4.61 g/m*3 2.4 C 0 km/h
717 09-02-2011 20:00:00 1.5 C 4.55 g/m*3 1.5 C 0 km/h
718 09-02-2011 21:00:00 0.92 C 4.51 g/m*3 0.92 C 0 km/h
719 09-02-2011 22:00:00 0.08 C 4.29 g/m*3 0.08 C 0 km/h
720 09-02-2011 23:00:00 -0.14 C 4.26 g/m*3 -0.14 C 0 km/h
721 10-02-2011 00:00:00 -0.28 C 4.24 g/m*3 -0.28 C 0 km/h
722 10-02-2011 01:00:00 -0.82 C 4.11 g/m*3 -0.82 C 0 km/h
723 10-02-2011 02:00:00 -1.22 C 4.01 g/m*3 -1.22 C 0 km/h
724 10-02-2011 03:00:00 -1.26 C 4 g/m*3 -1.26 C 0 km/h
725 10-02-2011 04:00:00 -0.22 C 4.34 g/m*3 -0.22 C 0 km/h
Sensor: Nr:Datum:Temp:Abs-Feuchte:Windchill:Wind:
Aussen-T/F 726 10-02-2011 05:00:00 0.56 C 4.63 g/m*3 0.56 C 0 km/h
727 10-02-2011 06:00:00 0.96 C 4.76 g/m*3 0.96 C 0 km/h
728 10-02-2011 07:00:00 1.1 C 4.81 g/m*3 1.1 C 0 km/h
729 10-02-2011 08:00:00 1.34 C 4.89 g/m*3 1.34 C 0 km/h
730 10-02-2011 09:00:00 1.64 C 4.88 g/m*3 1.64 C 0 km/h
731 10-02-2011 10:00:00 3.02 C 4.8 g/m*3 3.02 C 0 km/h
732 10-02-2011 11:00:00 4.78 C 4.54 g/m*3 4.78 C 0 km/h
733 10-02-2011 12:00:00 5.76 C 4.5 g/m*3 5.76 C 0 km/h
734 10-02-2011 13:00:00 6.26 C 4.46 g/m*3 6.26 C 0 km/h
735 10-02-2011 14:00:00 7.64 C 4.6 g/m*3 7.64 C 0 km/h
736 10-02-2011 15:00:00 7.72 C 4.81 g/m*3 7.72 C 0 km/h
737 10-02-2011 16:00:00 6.88 C 5.03 g/m*3 6.88 C 0 km/h
738 10-02-2011 17:00:00 6 C 5.4 g/m*3 6 C 0 km/h
739 10-02-2011 18:00:00 5.58 C 5.79 g/m*3 5.58 C 0 km/h
740 10-02-2011 19:00:00 5.72 C 5.89 g/m*3 5.72 C 0 km/h
741 10-02-2011 20:00:00 7.28 C 5.87 g/m*3 7.28 C 0 km/h
742 10-02-2011 21:00:00 8.32 C 6.03 g/m*3 8.32 C 0 km/h
743 10-02-2011 22:00:00 8.52 C 6.24 g/m*3 8.52 C 0 km/h
744 10-02-2011 23:00:00 9.34 C 6.29 g/m*3 9.34 C 0 km/h
745 11-02-2011 00:00:00 9.46 C 6.39 g/m*3 9.46 C 0 km/h
746 11-02-2011 01:00:00 9.44 C 6.53 g/m*3 9.44 C 0 km/h
747 11-02-2011 02:00:00 9.46 C 6.63 g/m*3 9.46 C 0 km/h
748 11-02-2011 03:00:00 9 C 6.82 g/m*3 9 C 0 km/h
749 11-02-2011 04:00:00 9.16 C 6.79 g/m*3 9.16 C 0 km/h
750 11-02-2011 05:00:00 9.3 C 6.69 g/m*3 9.3 C 0 km/h
Sensor: Nr:Datum:Temp:Abs-Feuchte:Windchill:Wind:
Aussen-T/F 751 11-02-2011 06:00:00 9.1 C 6.9 g/m*3 9.1 C 0 km/h
752 11-02-2011 07:00:00 9.14 C 6.94 g/m*3 9.14 C 0 km/h
753 11-02-2011 08:00:00 9.28 C 6.93 g/m*3 9.28 C 0 km/h
754 11-02-2011 09:00:00 9.92 C 6.88 g/m*3 9.92 C 0 km/h
755 11-02-2011 10:00:00 10.82 C 6.95 g/m*3 10.82 C 0 km/h
756 11-02-2011 11:00:00 11.28 C 6.99 g/m*3 11.28 C 0 km/h
757 11-02-2011 12:00:00 12.42 C 7.02 g/m*3 12.42 C 0 km/h
758 11-02-2011 13:00:00 11.28 C 7.27 g/m*3 11.28 C 0 km/h
759 11-02-2011 14:00:00 10.88 C 7.49 g/m*3 10.88 C 0 km/h
760 11-02-2011 15:00:00 11.12 C 7.52 g/m*3 11.12 C 0 km/h
761 11-02-2011 16:00:00 11.44 C 7.47 g/m*3 11.44 C 0 km/h
762 11-02-2011 17:00:00 11.24 C 7.36 g/m*3 11.24 C 0 km/h
763 11-02-2011 18:00:00 10.38 C 7.62 g/m*3 10.38 C 0 km/h
764 11-02-2011 19:00:00 10.52 C 7.57 g/m*3 10.52 C 0 km/h
765 11-02-2011 20:00:00 10.58 C 7.43 g/m*3 10.58 C 0 km/h
766 11-02-2011 21:00:00 10.72 C 7.28 g/m*3 10.72 C 0 km/h
767 11-02-2011 22:00:00 10.06 C 7.13 g/m*3 10.06 C 0 km/h
768 11-02-2011 23:00:00 9.74 C 7.23 g/m*3 9.74 C 0 km/h
769 12-02-2011 00:00:00 9.96 C 7.29 g/m*3 9.96 C 0 km/h
770 12-02-2011 01:00:00 9.02 C 7.5 g/m*3 9.02 C 0 km/h
771 12-02-2011 02:00:00 8.6 C 7.53 g/m*3 8.6 C 0 km/h
772 12-02-2011 03:00:00 8.28 C 7.46 g/m*3 8.28 C 0 km/h
773 12-02-2011 04:00:00 7.66 C 7.26 g/m*3 7.66 C 0 km/h
774 12-02-2011 05:00:00 7.6 C 7.27 g/m*3 7.6 C 0 km/h
775 12-02-2011 06:00:00 6.82 C 6.83 g/m*3 6.82 C 0 km/h
Sensor: Nr:Datum:Temp:Abs-Feuchte:Windchill:Wind:
Aussen-T/F 776 12-02-2011 07:00:00 5.72 C 5.77 g/m*3 5.72 C 0 km/h
777 12-02-2011 08:00:00 5.52 C 5.64 g/m*3 5.52 C 0 km/h
778 12-02-2011 09:00:00 6.1 C 5.65 g/m*3 6.1 C 0 km/h
779 12-02-2011 10:00:00 7.32 C 5.71 g/m*3 7.32 C 0 km/h
780 12-02-2011 11:00:00 8.3 C 5.83 g/m*3 8.3 C 0 km/h
781 12-02-2011 12:00:00 9.1 C 5.91 g/m*3 9.1 C 0 km/h
782 12-02-2011 13:00:00 7.96 C 6 g/m*3 7.96 C 0 km/h
783 12-02-2011 14:00:00 8.04 C 6.08 g/m*3 8.04 C 0 km/h
784 12-02-2011 15:00:00 8.56 C 5.93 g/m*3 8.56 C 0 km/h
785 12-02-2011 16:00:00 7.48 C 5.84 g/m*3 7.48 C 0 km/h
786 12-02-2011 17:00:00 6.3 C 5.79 g/m*3 6.3 C 0 km/h
787 12-02-2011 18:00:00 4.26 C 5.47 g/m*3 4.26 C 0 km/h
788 12-02-2011 19:00:00 3.64 C 5.47 g/m*3 3.64 C 0 km/h
789 12-02-2011 20:00:00 4.42 C 5.86 g/m*3 4.42 C 0 km/h
790 12-02-2011 21:00:00 4.68 C 5.99 g/m*3 4.68 C 0 km/h
791 12-02-2011 22:00:00 4.72 C 6.03 g/m*3 4.72 C 0 km/h
792 12-02-2011 23:00:00 5.06 C 6.15 g/m*3 5.06 C 0 km/h
793 13-02-2011 00:00:00 5.24 C 6.17 g/m*3 5.24 C 0 km/h
794 13-02-2011 01:00:00 5.06 C 6.11 g/m*3 5.06 C 0 km/h
795 13-02-2011 02:00:00 4.74 C 6.08 g/m*3 4.74 C 0 km/h
796 13-02-2011 03:00:00 4.92 C 6.15 g/m*3 4.92 C 0 km/h
797 13-02-2011 04:00:00 4.92 C 6.18 g/m*3 4.92 C 0 km/h
798 13-02-2011 05:00:00 4.24 C 5.94 g/m*3 4.24 C 0 km/h
799 13-02-2011 06:00:00 3.88 C 5.8 g/m*3 3.88 C 0 km/h
800 13-02-2011 07:00:00 2.66 C 5.36 g/m*3 2.66 C 0 km/h
Sensor: Nr:Datum:Temp:Abs-Feuchte:Windchill:Wind:
Aussen-T/F 801 13-02-2011 08:00:00 1.74 C 5.06 g/m*3 1.74 C 0 km/h
802 13-02-2011 09:00:00 2.76 C 5.41 g/m*3 2.76 C 0 km/h
803 13-02-2011 10:00:00 4.74 C 5.97 g/m*3 4.74 C 0 km/h
804 13-02-2011 11:00:00 6.14 C 5.79 g/m*3 6.14 C 0 km/h
805 13-02-2011 12:00:00 7.56 C 5.64 g/m*3 7.56 C 0 km/h
806 13-02-2011 13:00:00 7.56 C 5.13 g/m*3 7.56 C 0 km/h
807 13-02-2011 14:00:00 8.78 C 5.11 g/m*3 8.78 C 0 km/h
808 13-02-2011 15:00:00 8.9 C 4.92 g/m*3 8.9 C 0 km/h
809 13-02-2011 16:00:00 8.16 C 5.03 g/m*3 8.16 C 0 km/h
810 13-02-2011 17:00:00 5.96 C 5.47 g/m*3 5.96 C 0 km/h
811 13-02-2011 18:00:00 4.48 C 5.44 g/m*3 4.48 C 0 km/h
812 13-02-2011 19:00:00 4.36 C 5.55 g/m*3 4.36 C 0 km/h
813 13-02-2011 20:00:00 4.28 C 5.54 g/m*3 4.28 C 0 km/h
814 13-02-2011 21:00:00 4.22 C 5.55 g/m*3 4.22 C 0 km/h
815 13-02-2011 22:00:00 4.06 C 5.52 g/m*3 4.06 C 0 km/h
816 13-02-2011 23:00:00 3.86 C 5.53 g/m*3 3.86 C 0 km/h
817 14-02-2011 00:00:00 3.36 C 5.4 g/m*3 3.36 C 0 km/h
818 14-02-2011 01:00:00 2.96 C 5.3 g/m*3 2.96 C 0 km/h
819 14-02-2011 02:00:00 2.62 C 5.22 g/m*3 2.62 C 0 km/h
820 14-02-2011 03:00:00 2.26 C 5.15 g/m*3 2.26 C 0 km/h
821 14-02-2011 04:00:00 1.74 C 4.97 g/m*3 1.74 C 0 km/h
822 14-02-2011 05:00:00 1.86 C 5.04 g/m*3 1.86 C 0 km/h
823 14-02-2011 06:00:00 1.6 C 4.97 g/m*3 1.6 C 0 km/h
824 14-02-2011 07:00:00 0.96 C 4.76 g/m*3 0.96 C 0 km/h
825 14-02-2011 08:00:00 1.28 C 4.88 g/m*3 1.28 C 0 km/h
Sensor: Nr:Datum:Temp:Abs-Feuchte:Windchill:Wind:
Aussen-T/F 826 14-02-2011 09:00:00 3.22 C 5.55 g/m*3 3.22 C 0 km/h
827 14-02-2011 10:00:00 4.8 C 5.93 g/m*3 4.8 C 0 km/h
828 14-02-2011 11:00:00 6.92 C 5.81 g/m*3 6.92 C 0 km/h
829 14-02-2011 12:00:00 8.52 C 5.47 g/m*3 8.52 C 0 km/h
830 14-02-2011 13:00:00 10.08 C 5.46 g/m*3 10.08 C 0 km/h
831 14-02-2011 14:00:00 9.92 C 5.35 g/m*3 9.92 C 0 km/h
832 14-02-2011 15:00:00 10.34 C 5.51 g/m*3 10.34 C 0 km/h
833 14-02-2011 16:00:00 8.8 C 5.59 g/m*3 8.8 C 0 km/h
834 14-02-2011 17:00:00 6.46 C 5.83 g/m*3 6.46 C 0 km/h
835 14-02-2011 18:00:00 6.32 C 6.12 g/m*3 6.32 C 0 km/h
836 14-02-2011 19:00:00 6.48 C 6.23 g/m*3 6.48 C 0 km/h
837 14-02-2011 20:00:00 6.36 C 6.39 g/m*3 6.36 C 0 km/h
838 14-02-2011 21:00:00 6.26 C 6.35 g/m*3 6.26 C 0 km/h
839 14-02-2011 22:00:00 6.12 C 6.25 g/m*3 6.12 C 0 km/h
840 14-02-2011 23:00:00 5.92 C 6.21 g/m*3 5.92 C 0 km/h
841 15-02-2011 00:00:00 5.92 C 6.3 g/m*3 5.92 C 0 km/h
842 15-02-2011 01:00:00 5.88 C 6.39 g/m*3 5.88 C 0 km/h
843 15-02-2011 02:00:00 5.56 C 6.35 g/m*3 5.56 C 0 km/h
844 15-02-2011 03:00:00 4.62 C 5.96 g/m*3 4.62 C 0 km/h
845 15-02-2011 04:00:00 4.5 C 5.93 g/m*3 4.5 C 0 km/h
846 15-02-2011 05:00:00 4.28 C 5.86 g/m*3 4.28 C 0 km/h
847 15-02-2011 06:00:00 4.24 C 5.88 g/m*3 4.24 C 0 km/h
848 15-02-2011 07:00:00 3.74 C 5.7 g/m*3 3.74 C 0 km/h
849 15-02-2011 08:00:00 3.84 C 5.75 g/m*3 3.84 C 0 km/h
850 15-02-2011 09:00:00 4.6 C 5.97 g/m*3 4.6 C 0 km/h
Sensor: Nr:Datum:Temp:Abs-Feuchte:Windchill:Wind:
Aussen-T/F 851 15-02-2011 10:00:00 5.66 C 6.05 g/m*3 5.66 C 0 km/h
852 15-02-2011 11:00:00 6.98 C 5.74 g/m*3 6.98 C 0 km/h
853 15-02-2011 12:00:00 7.64 C 5.49 g/m*3 7.64 C 0 km/h
854 15-02-2011 13:00:00 7.38 C 5.4 g/m*3 7.38 C 0 km/h
855 15-02-2011 14:00:00 6.72 C 5.39 g/m*3 6.72 C 0 km/h
856 15-02-2011 15:00:00 6.32 C 5.37 g/m*3 6.32 C 0 km/h
857 15-02-2011 16:00:00 5.48 C 5.4 g/m*3 5.48 C 0 km/h
858 15-02-2011 17:00:00 4.98 C 5.29 g/m*3 4.98 C 0 km/h
859 15-02-2011 18:00:00 4.62 C 5.26 g/m*3 4.62 C 0 km/h
860 15-02-2011 19:00:00 4.18 C 5.19 g/m*3 4.18 C 0 km/h
861 15-02-2011 20:00:00 3.42 C 5.25 g/m*3 3.42 C 0 km/h
862 15-02-2011 21:00:00 4.24 C 5.57 g/m*3 4.24 C 0 km/h
863 15-02-2011 22:00:00 4.25 C 5.46 g/m*3 4.25 C 0 km/h
864 15-02-2011 23:00:00 4.36 C 5.65 g/m*3 4.36 C 0 km/h
865 16-02-2011 00:00:00 4.78 C 5.69 g/m*3 4.78 C 0 km/h
866 16-02-2011 01:00:00 3.52 C 5.33 g/m*3 3.52 C 0 km/h
867 16-02-2011 02:00:00 4.22 C 5.74 g/m*3 4.22 C 0 km/h
868 16-02-2011 03:00:00 4.42 C 5.82 g/m*3 4.42 C 0 km/h
869 16-02-2011 04:00:00 3.78 C 5.51 g/m*3 3.78 C 0 km/h
870 16-02-2011 05:00:00 2.58 C 5.16 g/m*3 2.58 C 0 km/h
871 16-02-2011 06:00:00 3.74 C 5.61 g/m*3 3.74 C 0 km/h
872 16-02-2011 07:00:00 4.1 C 5.56 g/m*3 4.1 C 0 km/h
873 16-02-2011 08:00:00 4.2 C 5.49 g/m*3 4.2 C 0 km/h
874 16-02-2011 09:00:00 5.44 C 5.69 g/m*3 5.44 C 0 km/h
875 16-02-2011 10:00:00 6.98 C 5.43 g/m*3 6.98 C 0 km/h
Sensor: Nr:Datum:Temp:Abs-Feuchte:Windchill:Wind:
Aussen-T/F 876 16-02-2011 11:00:00 7.66 C 5.37 g/m*3 7.66 C 0 km/h
877 16-02-2011 12:00:00 7.92 C 5.33 g/m*3 7.92 C 0 km/h
878 16-02-2011 13:00:00 9.06 C 5.29 g/m*3 9.06 C 0 km/h
879 16-02-2011 14:00:00 9.04 C 5.29 g/m*3 9.04 C 0 km/h
880 16-02-2011 15:00:00 9.02 C 5.37 g/m*3 9.02 C 0 km/h
881 16-02-2011 16:00:00 10.1 C 5.35 g/m*3 10.1 C 0 km/h
882 16-02-2011 17:00:00 6.42 C 5.46 g/m*3 6.42 C 0 km/h
883 16-02-2011 18:00:00 3.88 C 5.3 g/m*3 3.88 C 0 km/h
884 16-02-2011 19:00:00 2.9 C 5.16 g/m*3 2.9 C 0 km/h
885 16-02-2011 20:00:00 2.04 C 4.94 g/m*3 2.04 C 0 km/h
886 16-02-2011 21:00:00 1.5 C 4.82 g/m*3 1.5 C 0 km/h
887 16-02-2011 22:00:00 0.66 C 4.6 g/m*3 0.66 C 0 km/h
888 16-02-2011 23:00:00 -0.26 C 4.33 g/m*3 -0.26 C 0 km/h
889 17-02-2011 00:00:00 -0.94 C 4.09 g/m*3 -0.94 C 0 km/h
890 17-02-2011 01:00:00 -0.72 C 4.19 g/m*3 -0.72 C 0 km/h
891 17-02-2011 02:00:00 -0.44 C 4.29 g/m*3 -0.44 C 0 km/h
892 17-02-2011 03:00:00 -0.24 C 4.38 g/m*3 -0.24 C 0 km/h
893 17-02-2011 04:00:00 0.12 C 4.5 g/m*3 0.12 C 0 km/h
894 17-02-2011 05:00:00 0.52 C 4.67 g/m*3 0.52 C 0 km/h
895 17-02-2011 06:00:00 0.94 C 4.81 g/m*3 0.94 C 0 km/h
896 17-02-2011 07:00:00 1.22 C 4.9 g/m*3 1.22 C 0 km/h
897 17-02-2011 08:00:00 1.52 C 5 g/m*3 1.52 C 0 km/h
898 17-02-2011 09:00:00 2.32 C 5.26 g/m*3 2.32 C 0 km/h
899 17-02-2011 10:00:00 3.78 C 5.15 g/m*3 3.78 C 0 km/h
900 17-02-2011 11:00:00 4 C 4.23 g/m*3 4 C 0 km/h
Sensor: Nr:Datum:Temp:Abs-Feuchte:Windchill:Wind:
Aussen-T/F 901 17-02-2011 12:00:00 6.12 C 3.95 g/m*3 6.12 C 0 km/h
902 17-02-2011 13:00:00 6.42 C 3.76 g/m*3 6.42 C 0 km/h
903 17-02-2011 14:00:00 5.5 C 3.86 g/m*3 5.5 C 0 km/h
904 17-02-2011 15:00:00 5.8 C 3.8 g/m*3 5.8 C 0 km/h
905 17-02-2011 16:00:00 4.16 C 3.78 g/m*3 4.16 C 0 km/h
906 17-02-2011 17:00:00 2.78 C 3.7 g/m*3 2.78 C 0 km/h
907 17-02-2011 18:00:00 0.96 C 3.72 g/m*3 0.96 C 0 km/h
908 17-02-2011 19:00:00 -0.5 C 3.68 g/m*3 -0.5 C 0 km/h
909 17-02-2011 20:00:00 0.2 C 4.05 g/m*3 0.2 C 0 km/h
910 17-02-2011 21:00:00 0.94 C 4.02 g/m*3 0.94 C 0 km/h
911 17-02-2011 22:00:00 1.3 C 3.83 g/m*3 1.3 C 0 km/h
912 17-02-2011 23:00:00 1.36 C 3.81 g/m*3 1.36 C 0 km/h
913 18-02-2011 00:00:00 1.28 C 3.83 g/m*3 1.28 C 0 km/h
914 18-02-2011 01:00:00 1.22 C 3.8 g/m*3 1.22 C 0 km/h
915 18-02-2011 02:00:00 1.22 C 3.89 g/m*3 1.22 C 0 km/h
916 18-02-2011 03:00:00 1.26 C 3.87 g/m*3 1.26 C 0 km/h
917 18-02-2011 04:00:00 1.3 C 3.84 g/m*3 1.3 C 0 km/h
918 18-02-2011 05:00:00 1.18 C 3.83 g/m*3 1.18 C 0 km/h
919 18-02-2011 06:00:00 1.18 C 3.9 g/m*3 1.18 C 0 km/h
920 18-02-2011 07:00:00 1.24 C 3.93 g/m*3 1.24 C 0 km/h
921 18-02-2011 08:00:00 1.52 C 3.99 g/m*3 1.52 C 0 km/h
922 18-02-2011 09:00:00 2.12 C 3.96 g/m*3 2.12 C 0 km/h
923 18-02-2011 10:00:00 2.52 C 3.95 g/m*3 2.52 C 0 km/h
924 18-02-2011 11:00:00 2.92 C 4 g/m*3 2.92 C 0 km/h
925 18-02-2011 12:00:00 3.18 C 4.03 g/m*3 3.18 C 0 km/h
Sensor: Nr:Datum:Temp:Abs-Feuchte:Windchill:Wind:
Aussen-T/F 926 18-02-2011 13:00:00 3.38 C 4.1 g/m*3 3.38 C 0 km/h
927 18-02-2011 14:00:00 3.56 C 4.15 g/m*3 3.56 C 0 km/h
928 18-02-2011 15:00:00 3.66 C 4.15 g/m*3 3.66 C 0 km/h
929 18-02-2011 16:00:00 3.36 C 4.17 g/m*3 3.36 C 0 km/h
930 18-02-2011 17:00:00 2.9 C 4.28 g/m*3 2.9 C 0 km/h
931 18-02-2011 18:00:00 2.72 C 4.38 g/m*3 2.72 C 0 km/h
932 18-02-2011 19:00:00 2.64 C 4.43 g/m*3 2.64 C 0 km/h
933 18-02-2011 20:00:00 2.48 C 4.44 g/m*3 2.48 C 0 km/h
934 18-02-2011 21:00:00 2.38 C 4.5 g/m*3 2.38 C 0 km/h
935 18-02-2011 22:00:00 2.24 C 4.48 g/m*3 2.24 C 0 km/h
936 18-02-2011 23:00:00 2.22 C 4.56 g/m*3 2.22 C 0 km/h
937 19-02-2011 00:00:00 2.16 C 4.57 g/m*3 2.16 C 0 km/h
938 19-02-2011 01:00:00 2.08 C 4.58 g/m*3 2.08 C 0 km/h
939 19-02-2011 02:00:00 1.98 C 4.56 g/m*3 1.98 C 0 km/h
940 19-02-2011 03:00:00 1.94 C 4.59 g/m*3 1.94 C 0 km/h
941 19-02-2011 04:00:00 1.86 C 4.62 g/m*3 1.86 C 0 km/h
942 19-02-2011 05:00:00 1.88 C 4.54 g/m*3 1.88 C 0 km/h
943 19-02-2011 06:00:00 1.8 C 4.39 g/m*3 1.8 C 0 km/h
944 19-02-2011 07:00:00 1.68 C 4.36 g/m*3 1.68 C 0 km/h
945 19-02-2011 08:00:00 1.78 C 4.28 g/m*3 1.78 C 0 km/h
946 19-02-2011 09:00:00 2.08 C 4.11 g/m*3 2.08 C 0 km/h
947 19-02-2011 10:00:00 2.82 C 4.15 g/m*3 2.82 C 0 km/h
948 19-02-2011 11:00:00 3.82 C 4.05 g/m*3 3.82 C 0 km/h
949 19-02-2011 12:00:00 4.94 C 3.98 g/m*3 4.94 C 0 km/h
950 19-02-2011 13:00:00 5.14 C 4.06 g/m*3 5.14 C 0 km/h
Sensor: Nr:Datum:Temp:Abs-Feuchte:Windchill:Wind:
Aussen-T/F 951 19-02-2011 14:00:00 4.74 C 4.01 g/m*3 4.74 C 0 km/h
952 19-02-2011 15:00:00 4.66 C 4.07 g/m*3 4.66 C 0 km/h
953 19-02-2011 16:00:00 4.4 C 4.14 g/m*3 4.4 C 0 km/h
954 19-02-2011 17:00:00 3.74 C 4.27 g/m*3 3.74 C 0 km/h
955 19-02-2011 18:00:00 3.02 C 4.31 g/m*3 3.02 C 0 km/h
956 19-02-2011 19:00:00 2.9 C 4.37 g/m*3 2.9 C 0 km/h
957 19-02-2011 20:00:00 2.14 C 4.23 g/m*3 2.14 C 0 km/h
958 19-02-2011 21:00:00 2.36 C 4.4 g/m*3 2.36 C 0 km/h
959 19-02-2011 22:00:00 2.16 C 4.16 g/m*3 2.16 C 0 km/h
960 19-02-2011 23:00:00 1.8 C 4.12 g/m*3 1.8 C 0 km/h
961 20-02-2011 00:00:00 1.58 C 3.92 g/m*3 1.58 C 0 km/h
962 20-02-2011 01:00:00 0.9 C 3.79 g/m*3 0.9 C 0 km/h
963 20-02-2011 02:00:00 0.56 C 3.82 g/m*3 0.56 C 0 km/h
964 20-02-2011 03:00:00 0.7 C 3.7 g/m*3 0.7 C 0 km/h
965 20-02-2011 04:00:00 0.52 C 3.62 g/m*3 0.52 C 0 km/h
966 20-02-2011 05:00:00 0.34 C 3.56 g/m*3 0.34 C 0 km/h
967 20-02-2011 06:00:00 0.36 C 3.53 g/m*3 0.36 C 0 km/h
968 20-02-2011 07:00:00 0.42 C 3.47 g/m*3 0.42 C 0 km/h
969 20-02-2011 08:00:00 0.54 C 3.38 g/m*3 0.54 C 0 km/h
970 20-02-2011 09:00:00 1.1 C 3.31 g/m*3 1.1 C 0 km/h
971 20-02-2011 10:00:00 1.62 C 3.21 g/m*3 1.62 C 0 km/h
972 20-02-2011 11:00:00 2.14 C 3.15 g/m*3 2.14 C 0 km/h
973 20-02-2011 12:00:00 2.42 C 3.1 g/m*3 2.42 C 0 km/h
974 20-02-2011 13:00:00 2.22 C 3.05 g/m*3 2.22 C 0 km/h
975 20-02-2011 14:00:00 2.14 C 2.98 g/m*3 2.14 C 0 km/h
Sensor: Nr:Datum:Temp:Abs-Feuchte:Windchill:Wind:
Aussen-T/F 976 20-02-2011 15:00:00 2.48 C 2.88 g/m*3 2.48 C 0 km/h
977 20-02-2011 16:00:00 1.34 C 2.89 g/m*3 1.34 C 0 km/h
978 20-02-2011 17:00:00 0.6 C 2.91 g/m*3 0.6 C 0 km/h
979 20-02-2011 18:00:00 0 C 2.81 g/m*3 0 C 0 km/h
980 20-02-2011 19:00:00 -0.32 C 2.75 g/m*3 -0.32 C 0 km/h
981 20-02-2011 20:00:00 -0.78 C 2.63 g/m*3 -0.78 C 0 km/h
982 20-02-2011 21:00:00 -1.04 C 2.55 g/m*3 -1.04 C 0 km/h
983 20-02-2011 22:00:00 -1.4 C 2.51 g/m*3 -1.4 C 0 km/h
984 20-02-2011 23:00:00 -1.64 C 2.46 g/m*3 -1.64 C 0 km/h
985 21-02-2011 00:00:00 -1.84 C 2.4 g/m*3 -1.84 C 0 km/h
986 21-02-2011 01:00:00 -2.02 C 2.35 g/m*3 -2.02 C 0 km/h
987 21-02-2011 02:00:00 -2.24 C 2.32 g/m*3 -2.24 C 0 km/h
988 21-02-2011 03:00:00 -2.4 C 2.28 g/m*3 -2.4 C 0 km/h
989 21-02-2011 04:00:00 -2.64 C 2.21 g/m*3 -2.64 C 0 km/h
990 21-02-2011 05:00:00 -2.72 C 2.2 g/m*3 -2.72 C 0 km/h
991 21-02-2011 06:00:00 -2.92 C 2.17 g/m*3 -2.92 C 0 km/h
992 21-02-2011 07:00:00 -3.22 C 2.11 g/m*3 -3.22 C 0 km/h
993 21-02-2011 08:00:00 -3.32 C 2.07 g/m*3 -3.32 C 0 km/h
994 21-02-2011 09:00:00 -2.92 C 2.07 g/m*3 -2.92 C 0 km/h
995 21-02-2011 10:00:00 -2.04 C 2.08 g/m*3 -2.04 C 0 km/h
996 21-02-2011 11:00:00 -1.52 C 2.04 g/m*3 -1.52 C 0 km/h
997 21-02-2011 12:00:00 -1.14 C 2.05 g/m*3 -1.14 C 0 km/h
998 21-02-2011 13:00:00 -0.88 C 2.12 g/m*3 -0.88 C 0 km/h
999 21-02-2011 14:00:00 -0.46 C 2.17 g/m*3 -0.46 C 0 km/h
1000 21-02-2011 15:00:00 -0.16 C 2.22 g/m*3 -0.16 C 0 km/h
Sensor: Nr:Datum:Temp:Abs-Feuchte:Windchill:Wind:
Aussen-T/F 1001 21-02-2011 16:00:00 -0.64 C 2.25 g/m*3 -0.64 C 0 km/h
1002 21-02-2011 17:00:00 -1 C 2.29 g/m*3 -1 C 0 km/h
1003 21-02-2011 18:00:00 -1.16 C 2.3 g/m*3 -1.16 C 0 km/h
1004 21-02-2011 19:00:00 -1.14 C 2.28 g/m*3 -1.14 C 0 km/h
1005 21-02-2011 20:00:00 -1.12 C 2.3 g/m*3 -1.12 C 0 km/h
1006 21-02-2011 21:00:00 -1.3 C 2.29 g/m*3 -1.3 C 0 km/h
1007 21-02-2011 22:00:00 -1.72 C 2.14 g/m*3 -1.72 C 0 km/h
1008 21-02-2011 23:00:00 -2.98 C 2.09 g/m*3 -2.98 C 0 km/h
1009 22-02-2011 00:00:00 -3.56 C 2.11 g/m*3 -3.56 C 0 km/h
1010 22-02-2011 01:00:00 -3.18 C 2.06 g/m*3 -3.18 C 0 km/h
1011 22-02-2011 02:00:00 -3.34 C 2.02 g/m*3 -3.34 C 0 km/h
1012 22-02-2011 03:00:00 -4.02 C 1.96 g/m*3 -4.02 C 0 km/h
1013 22-02-2011 04:00:00 -4.96 C 1.89 g/m*3 -4.96 C 0 km/h
1014 22-02-2011 05:00:00 -6.06 C 1.85 g/m*3 -6.06 C 0 km/h
1015 22-02-2011 06:00:00 -7.78 C 1.83 g/m*3 -7.78 C 0 km/h
1016 22-02-2011 07:00:00 -8.32 C 1.86 g/m*3 -8.32 C 0 km/h
1017 22-02-2011 08:00:00 -7.72 C 1.89 g/m*3 -7.72 C 0 km/h
1018 22-02-2011 09:00:00 -6.96 C 1.86 g/m*3 -6.96 C 0 km/h
1019 22-02-2011 10:00:00 -5.72 C 1.87 g/m*3 -5.72 C 0 km/h
1020 22-02-2011 11:00:00 -3.54 C 1.84 g/m*3 -3.54 C 0 km/h
1021 22-02-2011 12:00:00 -0.04 C 1.9 g/m*3 -0.04 C 0 km/h
1022 22-02-2011 13:00:00 1.94 C 1.59 g/m*3 1.94 C 0 km/h
1023 22-02-2011 14:00:00 1.62 C 1.84 g/m*3 1.62 C 0 km/h
1024 22-02-2011 15:00:00 3.48 C 1.62 g/m*3 3.48 C 0 km/h
1025 22-02-2011 16:00:00 5.9 C 1.44 g/m*3 5.9 C 0 km/h
Sensor: Nr:Datum:Temp:Abs-Feuchte:Windchill:Wind:
Aussen-T/F 1026 22-02-2011 17:00:00 1.3 C 1.74 g/m*3 1.3 C 0 km/h
1027 22-02-2011 18:00:00 -3.76 C 2.08 g/m*3 -3.76 C 0 km/h
1028 22-02-2011 19:00:00 -4.52 C 2.11 g/m*3 -4.52 C 0 km/h
1029 22-02-2011 20:00:00 -5.14 C 2.1 g/m*3 -5.14 C 0 km/h
1030 22-02-2011 21:00:00 -5.36 C 2.07 g/m*3 -5.36 C 0 km/h
1031 22-02-2011 22:00:00 -5.56 C 2.04 g/m*3 -5.56 C 0 km/h
1032 22-02-2011 23:00:00 -6.1 C 1.91 g/m*3 -6.1 C 0 km/h
1033 23-02-2011 00:00:00 -6.7 C 1.91 g/m*3 -6.7 C 0 km/h
1034 23-02-2011 01:00:00 -7.2 C 1.89 g/m*3 -7.2 C 0 km/h
1035 23-02-2011 02:00:00 -7.9 C 1.81 g/m*3 -7.9 C 0 km/h
1036 23-02-2011 03:00:00 -8.14 C 1.84 g/m*3 -8.14 C 0 km/h
1037 23-02-2011 04:00:00 -8.76 C 1.82 g/m*3 -8.76 C 0 km/h
1038 23-02-2011 05:00:00 -8.8 C 1.87 g/m*3 -8.8 C 0 km/h
1039 23-02-2011 06:00:00 -9.36 C 1.78 g/m*3 -9.36 C 0 km/h
1040 23-02-2011 07:00:00 -9.18 C 1.83 g/m*3 -9.18 C 0 km/h
1041 23-02-2011 08:00:00 -7.5 C 2.12 g/m*3 -7.5 C 0 km/h
1042 23-02-2011 09:00:00 -4.84 C 2.31 g/m*3 -4.84 C 0 km/h
1043 23-02-2011 10:00:00 -2.28 C 2.3 g/m*3 -2.28 C 0 km/h
1044 23-02-2011 11:00:00 -0.3 C 1.97 g/m*3 -0.3 C 0 km/h
1045 23-02-2011 12:00:00 1.72 C 1.54 g/m*3 1.72 C 0 km/h
1046 23-02-2011 13:00:00 3.66 C 1.24 g/m*3 3.66 C 0 km/h
1047 23-02-2011 14:00:00 3.96 C 1.27 g/m*3 3.96 C 0 km/h
1048 23-02-2011 15:00:00 3.74 C 1.25 g/m*3 3.74 C 0 km/h
1049 23-02-2011 16:00:00 3 C 1.19 g/m*3 3 C 0 km/h
1050 23-02-2011 17:00:00 1.26 C 1.65 g/m*3 1.26 C 0 km/h
Sensor: Nr:Datum:Temp:Abs-Feuchte:Windchill:Wind:
Aussen-T/F 1051 23-02-2011 18:00:00 -0.3 C 2.17 g/m*3 -0.3 C 0 km/h
1052 23-02-2011 19:00:00 0.26 C 2.09 g/m*3 0.26 C 0 km/h
1053 23-02-2011 20:00:00 0.08 C 2.09 g/m*3 0.08 C 0 km/h
1054 23-02-2011 21:00:00 -0.06 C 2.25 g/m*3 -0.06 C 0 km/h
1055 23-02-2011 22:00:00 -0.08 C 2.32 g/m*3 -0.08 C 0 km/h
1056 23-02-2011 23:00:00 -0.26 C 2.51 g/m*3 -0.26 C 0 km/h
1057 24-02-2011 00:00:00 -0.44 C 2.58 g/m*3 -0.44 C 0 km/h
1058 24-02-2011 01:00:00 -0.74 C 2.68 g/m*3 -0.74 C 0 km/h
1059 24-02-2011 02:00:00 -0.48 C 2.61 g/m*3 -0.48 C 0 km/h
1060 24-02-2011 03:00:00 -0.12 C 2.72 g/m*3 -0.12 C 0 km/h
1061 24-02-2011 04:00:00 0.12 C 2.88 g/m*3 0.12 C 0 km/h
1062 24-02-2011 05:00:00 -0.84 C 3.4 g/m*3 -0.84 C 0 km/h
1063 24-02-2011 06:00:00 -0.88 C 3.58 g/m*3 -0.88 C 0 km/h
1064 24-02-2011 07:00:00 -0.76 C 3.66 g/m*3 -0.76 C 0 km/h
1065 24-02-2011 08:00:00 -0.4 C 3.87 g/m*3 -0.4 C 0 km/h
1066 24-02-2011 09:00:00 0.12 C 4.01 g/m*3 0.12 C 0 km/h
1067 24-02-2011 10:00:00 0.76 C 4.15 g/m*3 0.76 C 0 km/h
1068 24-02-2011 11:00:00 1.58 C 4.19 g/m*3 1.58 C 0 km/h
1069 24-02-2011 12:00:00 2.66 C 4.29 g/m*3 2.66 C 0 km/h
1070 24-02-2011 13:00:00 3.38 C 4.17 g/m*3 3.38 C 0 km/h
1071 24-02-2011 14:00:00 2.62 C 4.3 g/m*3 2.62 C 0 km/h
1072 24-02-2011 15:00:00 3.18 C 4.33 g/m*3 3.18 C 0 km/h
1073 24-02-2011 16:00:00 2.52 C 4.34 g/m*3 2.52 C 0 km/h
1074 24-02-2011 17:00:00 1.64 C 4.45 g/m*3 1.64 C 0 km/h
1075 24-02-2011 18:00:00 1.28 C 4.52 g/m*3 1.28 C 0 km/h
Sensor: Nr:Datum:Temp:Abs-Feuchte:Windchill:Wind:
Aussen-T/F 1076 24-02-2011 19:00:00 1.26 C 4.61 g/m*3 1.26 C 0 km/h
1077 24-02-2011 20:00:00 1.28 C 4.66 g/m*3 1.28 C 0 km/h
1078 24-02-2011 21:00:00 1.32 C 4.7 g/m*3 1.32 C 0 km/h
1079 24-02-2011 22:00:00 1.4 C 4.75 g/m*3 1.4 C 0 km/h
1080 24-02-2011 23:00:00 1.4 C 4.75 g/m*3 1.4 C 0 km/h
1081 25-02-2011 00:00:00 1.44 C 4.76 g/m*3 1.44 C 0 km/h
1082 25-02-2011 01:00:00 1.44 C 4.79 g/m*3 1.44 C 0 km/h
1083 25-02-2011 02:00:00 1.42 C 4.81 g/m*3 1.42 C 0 km/h
1084 25-02-2011 03:00:00 1.5 C 4.83 g/m*3 1.5 C 0 km/h
1085 25-02-2011 04:00:00 1.48 C 4.83 g/m*3 1.48 C 0 km/h
1086 25-02-2011 05:00:00 1.64 C 4.93 g/m*3 1.64 C 0 km/h
1087 25-02-2011 06:00:00 1.7 C 4.95 g/m*3 1.7 C 0 km/h
1088 25-02-2011 07:00:00 1.82 C 5 g/m*3 1.82 C 0 km/h
1089 25-02-2011 08:00:00 2.2 C 5.1 g/m*3 2.2 C 0 km/h
1090 25-02-2011 09:00:00 2.92 C 5.31 g/m*3 2.92 C 0 km/h
1091 25-02-2011 10:00:00 3.68 C 5.38 g/m*3 3.68 C 0 km/h
1092 25-02-2011 11:00:00 4.56 C 5.35 g/m*3 4.56 C 0 km/h
1093 25-02-2011 12:00:00 5.32 C 5.16 g/m*3 5.32 C 0 km/h
1094 25-02-2011 13:00:00 6.12 C 5.22 g/m*3 6.12 C 0 km/h
1095 25-02-2011 14:00:00 6.06 C 5.2 g/m*3 6.06 C 0 km/h
1096 25-02-2011 15:00:00 6.14 C 5.24 g/m*3 6.14 C 0 km/h
1097 25-02-2011 16:00:00 5.38 C 5.39 g/m*3 5.38 C 0 km/h
1098 25-02-2011 17:00:00 4.66 C 5.31 g/m*3 4.66 C 0 km/h
1099 25-02-2011 18:00:00 4.22 C 5.28 g/m*3 4.22 C 0 km/h
1100 25-02-2011 19:00:00 3.94 C 5.26 g/m*3 3.94 C 0 km/h
Sensor: Nr:Datum:Temp:Abs-Feuchte:Windchill:Wind:
Aussen-T/F 1101 25-02-2011 20:00:00 3.82 C 5.3 g/m*3 3.82 C 0 km/h
1102 25-02-2011 21:00:00 3.64 C 5.3 g/m*3 3.64 C 0 km/h
1103 25-02-2011 22:00:00 3.78 C 5.4 g/m*3 3.78 C 0 km/h
1104 25-02-2011 23:00:00 3.8 C 5.38 g/m*3 3.8 C 0 km/h
1105 26-02-2011 00:00:00 3.6 C 5.34 g/m*3 3.6 C 0 km/h
1106 26-02-2011 01:00:00 3.52 C 5.36 g/m*3 3.52 C 0 km/h
1107 26-02-2011 02:00:00 3.5 C 5.35 g/m*3 3.5 C 0 km/h
1108 26-02-2011 03:00:00 3.42 C 5.26 g/m*3 3.42 C 0 km/h
1109 26-02-2011 04:00:00 3.38 C 5.25 g/m*3 3.38 C 0 km/h
1110 26-02-2011 05:00:00 3.74 C 5.22 g/m*3 3.74 C 0 km/h
1111 26-02-2011 06:00:00 3.62 C 4.87 g/m*3 3.62 C 0 km/h
1112 26-02-2011 07:00:00 2.9 C 4.96 g/m*3 2.9 C 0 km/h
1113 26-02-2011 08:00:00 3.94 C 4.89 g/m*3 3.94 C 0 km/h
1114 26-02-2011 09:00:00 4.1 C 4.67 g/m*3 4.1 C 0 km/h
1115 26-02-2011 10:00:00 4.8 C 4.61 g/m*3 4.8 C 0 km/h
1116 26-02-2011 11:00:00 5.88 C 4.45 g/m*3 5.88 C 0 km/h
1117 26-02-2011 12:00:00 7.6 C 4.5 g/m*3 7.6 C 0 km/h
1118 26-02-2011 13:00:00 8.4 C 4.55 g/m*3 8.4 C 0 km/h
1119 26-02-2011 14:00:00 8.76 C 4.62 g/m*3 8.76 C 0 km/h
1120 26-02-2011 15:00:00 7.98 C 4.71 g/m*3 7.98 C 0 km/h
1121 26-02-2011 16:00:00 7.14 C 4.83 g/m*3 7.14 C 0 km/h
1122 26-02-2011 17:00:00 6.4 C 5.08 g/m*3 6.4 C 0 km/h
1123 26-02-2011 18:00:00 5.56 C 5.39 g/m*3 5.56 C 0 km/h
1124 26-02-2011 19:00:00 4.96 C 5.73 g/m*3 4.96 C 0 km/h
1125 26-02-2011 20:00:00 4.74 C 5.78 g/m*3 4.74 C 0 km/h
Sensor: Nr:Datum:Temp:Abs-Feuchte:Windchill:Wind:
Aussen-T/F 1126 26-02-2011 21:00:00 4.6 C 5.82 g/m*3 4.6 C 0 km/h
1127 26-02-2011 22:00:00 4.48 C 5.83 g/m*3 4.48 C 0 km/h
1128 26-02-2011 23:00:00 4.7 C 5.94 g/m*3 4.7 C 0 km/h
1129 27-02-2011 00:00:00 4.68 C 5.99 g/m*3 4.68 C 0 km/h
1130 27-02-2011 01:00:00 4.54 C 5.97 g/m*3 4.54 C 0 km/h
1131 27-02-2011 02:00:00 4.66 C 6.05 g/m*3 4.66 C 0 km/h
1132 27-02-2011 03:00:00 4.78 C 6.03 g/m*3 4.78 C 0 km/h
1133 27-02-2011 04:00:00 4.62 C 5.96 g/m*3 4.62 C 0 km/h
1134 27-02-2011 05:00:00 4.46 C 5.9 g/m*3 4.46 C 0 km/h
1135 27-02-2011 06:00:00 4.3 C 5.84 g/m*3 4.3 C 0 km/h
1136 27-02-2011 07:00:00 4.3 C 5.86 g/m*3 4.3 C 0 km/h
1137 27-02-2011 08:00:00 4.62 C 5.78 g/m*3 4.62 C 0 km/h
1138 27-02-2011 09:00:00 5.42 C 5.6 g/m*3 5.42 C 0 km/h
1139 27-02-2011 10:00:00 6.32 C 5.53 g/m*3 6.32 C 0 km/h
1140 27-02-2011 11:00:00 7.24 C 5.04 g/m*3 7.24 C 0 km/h
1141 27-02-2011 12:00:00 7.54 C 4.59 g/m*3 7.54 C 0 km/h
1142 27-02-2011 13:00:00 7.5 C 4.45 g/m*3 7.5 C 0 km/h
1143 27-02-2011 14:00:00 7.4 C 4.36 g/m*3 7.4 C 0 km/h
1144 27-02-2011 15:00:00 7.3 C 4.35 g/m*3 7.3 C 0 km/h
1145 27-02-2011 16:00:00 6.78 C 4.46 g/m*3 6.78 C 0 km/h
1146 27-02-2011 17:00:00 6.52 C 4.28 g/m*3 6.52 C 0 km/h
1147 27-02-2011 18:00:00 5.78 C 4.36 g/m*3 5.78 C 0 km/h
1148 27-02-2011 19:00:00 5.2 C 4.63 g/m*3 5.2 C 0 km/h
1149 27-02-2011 20:00:00 4.5 C 4.75 g/m*3 4.5 C 0 km/h
1150 27-02-2011 21:00:00 4.7 C 4.36 g/m*3 4.7 C 0 km/h
Sensor: Nr:Datum:Temp:Abs-Feuchte:Windchill:Wind:
Aussen-T/F 1151 27-02-2011 22:00:00 4.25 C 4.36 g/m*3 4.25 C 0 km/h
1152 27-02-2011 23:00:00 3.8 C 4.25 g/m*3 3.8 C 0 km/h
1153 28-02-2011 00:00:00 3.14 C 4.31 g/m*3 3.14 C 0 km/h
1154 28-02-2011 01:00:00 2.12 C 4.37 g/m*3 2.12 C 0 km/h
1155 28-02-2011 02:00:00 1.16 C 4.38 g/m*3 1.16 C 0 km/h
1156 28-02-2011 03:00:00 1.82 C 4.61 g/m*3 1.82 C 0 km/h
1157 28-02-2011 04:00:00 2.26 C 4.52 g/m*3 2.26 C 0 km/h
1158 28-02-2011 05:00:00 2.68 C 4.47 g/m*3 2.68 C 0 km/h
1159 28-02-2011 06:00:00 2.74 C 4.51 g/m*3 2.74 C 0 km/h
1160 28-02-2011 07:00:00 2.6 C 4.57 g/m*3 2.6 C 0 km/h
1161 28-02-2011 08:00:00 3.24 C 4.59 g/m*3 3.24 C 0 km/h
1162 28-02-2011 09:00:00 4.22 C 4.52 g/m*3 4.22 C 0 km/h
1163 28-02-2011 10:00:00 4.14 C 4.63 g/m*3 4.14 C 0 km/h
1164 28-02-2011 11:00:00 7.46 C 4.22 g/m*3 7.46 C 0 km/h
1165 28-02-2011 12:00:00 8.46 C 3.93 g/m*3 8.46 C 0 km/h
1166 28-02-2011 13:00:00 9.02 C 3.8 g/m*3 9.02 C 0 km/h
1167 28-02-2011 14:00:00 10.34 C 3.86 g/m*3 10.34 C 0 km/h
1168 28-02-2011 15:00:00 10.34 C 3.82 g/m*3 10.34 C 0 km/h
1169 28-02-2011 16:00:00 11.96 C 3.72 g/m*3 11.96 C 0 km/h
1170 28-02-2011 17:00:00 7.84 C 3.86 g/m*3 7.84 C 0 km/h
1171 28-02-2011 18:00:00 5.12 C 4.21 g/m*3 5.12 C 0 km/h
1172 28-02-2011 19:00:00 2.82 C 4.39 g/m*3 2.82 C 0 km/h
1173 28-02-2011 20:00:00 1.8 C 4.48 g/m*3 1.8 C 0 km/h
1174 28-02-2011 21:00:00 1.32 C 4.52 g/m*3 1.32 C 0 km/h
1175 28-02-2011 22:00:00 1.04 C 4.5 g/m*3 1.04 C 0 km/h
Sensor: Nr:Datum:Temp:Abs-Feuchte:Windchill:Wind:
Aussen-T/F 1176 28-02-2011 23:00:00 0.92 C 4.52 g/m*3 0.92 C 0 km/h
1177 01-03-2011 00:00:00 0.54 C 4.43 g/m*3 0.54 C 0 km/h
1178 01-03-2011 01:00:00 -0.1 C 4.21 g/m*3 -0.1 C 0 km/h
1179 01-03-2011 02:00:00 -0.1 C 4.25 g/m*3 -0.1 C 0 km/h
1180 01-03-2011 03:00:00 -0.76 C 4.09 g/m*3 -0.76 C 0 km/h
1181 01-03-2011 04:00:00 -1.04 C 4.01 g/m*3 -1.04 C 0 km/h
1182 01-03-2011 05:00:00 0.34 C 4.5 g/m*3 0.34 C 0 km/h
1183 01-03-2011 06:00:00 0.52 C 4.57 g/m*3 0.52 C 0 km/h
1184 01-03-2011 07:00:00 0.62 C 4.64 g/m*3 0.62 C 0 km/h
1185 01-03-2011 08:00:00 1.08 C 4.76 g/m*3 1.08 C 0 km/h
1186 01-03-2011 09:00:00 1.84 C 4.94 g/m*3 1.84 C 0 km/h
1187 01-03-2011 10:00:00 2.44 C 4.76 g/m*3 2.44 C 0 km/h
1188 01-03-2011 11:00:00 4.54 C 4.84 g/m*3 4.54 C 0 km/h
1189 01-03-2011 12:00:00 7.7 C 4.93 g/m*3 7.7 C 0 km/h
1190 01-03-2011 13:00:00 9.98 C 4.65 g/m*3 9.98 C 0 km/h
1191 01-03-2011 14:00:00 10.64 C 4.76 g/m*3 10.64 C 0 km/h
1192 01-03-2011 15:00:00 12.7 C 4.63 g/m*3 12.7 C 0 km/h
1193 01-03-2011 16:00:00 15.02 C 3.36 g/m*3 15.02 C 0 km/h
1194 01-03-2011 17:00:00 11.82 C 3.52 g/m*3 11.82 C 0 km/h
1195 01-03-2011 18:00:00 6.96 C 3.97 g/m*3 6.96 C 0 km/h
1196 01-03-2011 19:00:00 5.64 C 4.18 g/m*3 5.64 C 0 km/h
1197 01-03-2011 20:00:00 4.34 C 4.11 g/m*3 4.34 C 0 km/h
1198 01-03-2011 21:00:00 2.82 C 4.01 g/m*3 2.82 C 0 km/h
1199 01-03-2011 22:00:00 3.12 C 3.76 g/m*3 3.12 C 0 km/h
1200 01-03-2011 23:00:00 2.82 C 3.49 g/m*3 2.82 C 0 km/h
Sensor: Nr:Datum:Temp:Abs-Feuchte:Windchill:Wind:
Aussen-T/F 1201 02-03-2011 00:00:00 1.34 C 3.55 g/m*3 1.34 C 0 km/h
1202 02-03-2011 01:00:00 0.68 C 3.57 g/m*3 0.68 C 0 km/h
1203 02-03-2011 02:00:00 -0.36 C 3.58 g/m*3 -0.36 C 0 km/h
1204 02-03-2011 03:00:00 -1 C 3.5 g/m*3 -1 C 0 km/h
1205 02-03-2011 04:00:00 -1.02 C 3.34 g/m*3 -1.02 C 0 km/h
1206 02-03-2011 05:00:00 -1.5 C 3.21 g/m*3 -1.5 C 0 km/h
1207 02-03-2011 06:00:00 -2.08 C 3.21 g/m*3 -2.08 C 0 km/h
1208 02-03-2011 07:00:00 -2.22 C 3.1 g/m*3 -2.22 C 0 km/h
1209 02-03-2011 08:00:00 -2 C 3.2 g/m*3 -2 C 0 km/h
1210 02-03-2011 09:00:00 -0.84 C 3.26 g/m*3 -0.84 C 0 km/h
1211 02-03-2011 10:00:00 1.44 C 3.26 g/m*3 1.44 C 0 km/h
1212 02-03-2011 11:00:00 5.68 C 2.66 g/m*3 5.68 C 0 km/h
1213 02-03-2011 12:00:00 9.78 C 1.87 g/m*3 9.78 C 0 km/h
1214 02-03-2011 13:00:00 11.64 C 2.08 g/m*3 11.64 C 0 km/h
1215 02-03-2011 14:00:00 10.84 C 1.98 g/m*3 10.84 C 0 km/h
1216 02-03-2011 15:00:00 11.68 C 2.09 g/m*3 11.68 C 0 km/h
1217 02-03-2011 16:00:00 13.18 C 2.29 g/m*3 13.18 C 0 km/h
1218 02-03-2011 17:00:00 10.36 C 1.92 g/m*3 10.36 C 0 km/h
1219 02-03-2011 18:00:00 4.78 C 2.2 g/m*3 4.78 C 0 km/h
1220 02-03-2011 19:00:00 2.5 C 2.64 g/m*3 2.5 C 0 km/h
1221 02-03-2011 20:00:00 2.9 C 2.44 g/m*3 2.9 C 0 km/h
1222 02-03-2011 21:00:00 2.84 C 2.34 g/m*3 2.84 C 0 km/h
1223 02-03-2011 22:00:00 2.44 C 2.34 g/m*3 2.44 C 0 km/h
1224 02-03-2011 23:00:00 0.78 C 2.6 g/m*3 0.78 C 0 km/h
1225 03-03-2011 00:00:00 -0.84 C 2.68 g/m*3 -0.84 C 0 km/h
Sensor: Nr:Datum:Temp:Abs-Feuchte:Windchill:Wind:
Aussen-T/F 1226 03-03-2011 01:00:00 -1.58 C 2.71 g/m*3 -1.58 C 0 km/h
1227 03-03-2011 02:00:00 -1.94 C 2.59 g/m*3 -1.94 C 0 km/h
1228 03-03-2011 03:00:00 -2.12 C 2.58 g/m*3 -2.12 C 0 km/h
1229 03-03-2011 04:00:00 -1.76 C 2.42 g/m*3 -1.76 C 0 km/h
1230 03-03-2011 05:00:00 -2.82 C 2.51 g/m*3 -2.82 C 0 km/h
1231 03-03-2011 06:00:00 -3.42 C 2.46 g/m*3 -3.42 C 0 km/h
1232 03-03-2011 07:00:00 -3.2 C 2.54 g/m*3 -3.2 C 0 km/h
1233 03-03-2011 08:00:00 -2.64 C 2.55 g/m*3 -2.64 C 0 km/h
1234 03-03-2011 09:00:00 -1.68 C 2.63 g/m*3 -1.68 C 0 km/h
1235 03-03-2011 10:00:00 0.84 C 2.72 g/m*3 0.84 C 0 km/h
1236 03-03-2011 11:00:00 4.24 C 2.13 g/m*3 4.24 C 0 km/h
1237 03-03-2011 12:00:00 6.94 C 1.85 g/m*3 6.94 C 0 km/h
1238 03-03-2011 13:00:00 8.44 C 1.7 g/m*3 8.44 C 0 km/h
1239 03-03-2011 14:00:00 8.7 C 1.73 g/m*3 8.7 C 0 km/h
1240 03-03-2011 15:00:00 9.52 C 1.82 g/m*3 9.52 C 0 km/h
1241 03-03-2011 16:00:00 10.76 C 1.97 g/m*3 10.76 C 0 km/h
1242 03-03-2011 17:00:00 8.1 C 1.83 g/m*3 8.1 C 0 km/h
1243 03-03-2011 18:00:00 3.18 C 2.47 g/m*3 3.18 C 0 km/h
1244 03-03-2011 19:00:00 1.08 C 2.82 g/m*3 1.08 C 0 km/h
1245 03-03-2011 20:00:00 0.5 C 2.94 g/m*3 0.5 C 0 km/h
1246 03-03-2011 21:00:00 -0.28 C 3.04 g/m*3 -0.28 C 0 km/h
1247 03-03-2011 22:00:00 -0.68 C 3.08 g/m*3 -0.68 C 0 km/h
1248 03-03-2011 23:00:00 -1.3 C 3.05 g/m*3 -1.3 C 0 km/h
1249 04-03-2011 00:00:00 -1.62 C 2.96 g/m*3 -1.62 C 0 km/h
1250 04-03-2011 01:00:00 -1.88 C 2.98 g/m*3 -1.88 C 0 km/h
Sensor: Nr:Datum:Temp:Abs-Feuchte:Windchill:Wind:
Aussen-T/F 1251 04-03-2011 02:00:00 -2.24 C 2.91 g/m*3 -2.24 C 0 km/h
1252 04-03-2011 03:00:00 -2.78 C 2.87 g/m*3 -2.78 C 0 km/h
1253 04-03-2011 04:00:00 -3.54 C 2.8 g/m*3 -3.54 C 0 km/h
1254 04-03-2011 05:00:00 -4.36 C 2.75 g/m*3 -4.36 C 0 km/h
1255 04-03-2011 06:00:00 -4.64 C 2.75 g/m*3 -4.64 C 0 km/h
1256 04-03-2011 07:00:00 -4.7 C 2.74 g/m*3 -4.7 C 0 km/h
1257 04-03-2011 08:00:00 -3.98 C 2.91 g/m*3 -3.98 C 0 km/h
1258 04-03-2011 09:00:00 -2.78 C 3.14 g/m*3 -2.78 C 0 km/h
1259 04-03-2011 10:00:00 -0.1 C 3.45 g/m*3 -0.1 C 0 km/h
1260 04-03-2011 11:00:00 3.6 C 3.16 g/m*3 3.6 C 0 km/h
1261 04-03-2011 12:00:00 7.46 C 3 g/m*3 7.46 C 0 km/h
1262 04-03-2011 13:00:00 10.32 C 2.76 g/m*3 10.32 C 0 km/h
1263 04-03-2011 14:00:00 9.66 C 2.94 g/m*3 9.66 C 0 km/h
1264 04-03-2011 15:00:00 11.96 C 3.02 g/m*3 11.96 C 0 km/h
1265 04-03-2011 16:00:00 15.74 C 2.87 g/m*3 15.74 C 0 km/h
1266 04-03-2011 17:00:00 10.92 C 3.39 g/m*3 10.92 C 0 km/h
1267 04-03-2011 18:00:00 5.38 C 3.67 g/m*3 5.38 C 0 km/h
1268 04-03-2011 19:00:00 4.46 C 3.57 g/m*3 4.46 C 0 km/h
1269 04-03-2011 20:00:00 2.72 C 3.83 g/m*3 2.72 C 0 km/h
1270 04-03-2011 21:00:00 1.82 C 3.88 g/m*3 1.82 C 0 km/h
1271 04-03-2011 22:00:00 1.02 C 3.88 g/m*3 1.02 C 0 km/h
1272 04-03-2011 23:00:00 -0.06 C 3.84 g/m*3 -0.06 C 0 km/h
1273 05-03-2011 00:00:00 -1.04 C 3.74 g/m*3 -1.04 C 0 km/h
1274 05-03-2011 01:00:00 -1.88 C 3.61 g/m*3 -1.88 C 0 km/h
1275 05-03-2011 02:00:00 -3.04 C 3.33 g/m*3 -3.04 C 0 km/h
Sensor: Nr:Datum:Temp:Abs-Feuchte:Windchill:Wind:
Aussen-T/F 1276 05-03-2011 03:00:00 -3.58 C 3.22 g/m*3 -3.58 C 0 km/h
1277 05-03-2011 04:00:00 -3.74 C 3.22 g/m*3 -3.74 C 0 km/h
1278 05-03-2011 05:00:00 -3.84 C 3.22 g/m*3 -3.84 C 0 km/h
1279 05-03-2011 06:00:00 -2.78 C 3.48 g/m*3 -2.78 C 0 km/h
1280 05-03-2011 07:00:00 -2.4 C 3.59 g/m*3 -2.4 C 0 km/h
1281 05-03-2011 08:00:00 -1.56 C 3.79 g/m*3 -1.56 C 0 km/h
1282 05-03-2011 09:00:00 -0.54 C 3.92 g/m*3 -0.54 C 0 km/h
1283 05-03-2011 10:00:00 1.56 C 4.09 g/m*3 1.56 C 0 km/h
1284 05-03-2011 11:00:00 2.82 C 3.79 g/m*3 2.82 C 0 km/h
1285 05-03-2011 12:00:00 4.48 C 3.72 g/m*3 4.48 C 0 km/h
1286 05-03-2011 13:00:00 5.68 C 3.44 g/m*3 5.68 C 0 km/h
1287 05-03-2011 14:00:00 4 C 3.34 g/m*3 4 C 0 km/h
1288 05-03-2011 15:00:00 3.98 C 3.37 g/m*3 3.98 C 0 km/h
1289 05-03-2011 16:00:00 3.38 C 3.39 g/m*3 3.38 C 0 km/h
1290 05-03-2011 17:00:00 2.62 C 3.57 g/m*3 2.62 C 0 km/h
1291 05-03-2011 18:00:00 1.36 C 3.83 g/m*3 1.36 C 0 km/h
1292 05-03-2011 19:00:00 1.14 C 4.07 g/m*3 1.14 C 0 km/h
1293 05-03-2011 20:00:00 1.48 C 4.14 g/m*3 1.48 C 0 km/h
1294 05-03-2011 21:00:00 -0.5 C 3.8 g/m*3 -0.5 C 0 km/h
1295 05-03-2011 22:00:00 -1.22 C 3.73 g/m*3 -1.22 C 0 km/h
1296 05-03-2011 23:00:00 -1.62 C 3.67 g/m*3 -1.62 C 0 km/h
1297 06-03-2011 00:00:00 -1.62 C 3.74 g/m*3 -1.62 C 0 km/h
1298 06-03-2011 01:00:00 -1.94 C 3.69 g/m*3 -1.94 C 0 km/h
1299 06-03-2011 02:00:00 -0.48 C 4.15 g/m*3 -0.48 C 0 km/h
1300 06-03-2011 03:00:00 -0.02 C 4.23 g/m*3 -0.02 C 0 km/h
Sensor: Nr:Datum:Temp:Abs-Feuchte:Windchill:Wind:
Aussen-T/F 1301 06-03-2011 04:00:00 -0.08 C 3.97 g/m*3 -0.08 C 0 km/h
1302 06-03-2011 05:00:00 -1.52 C 3.31 g/m*3 -1.52 C 0 km/h
1303 06-03-2011 06:00:00 -2.82 C 3.22 g/m*3 -2.82 C 0 km/h
1304 06-03-2011 07:00:00 -1.94 C 3.38 g/m*3 -1.94 C 0 km/h
1305 06-03-2011 08:00:00 -0.34 C 3.48 g/m*3 -0.34 C 0 km/h
1306 06-03-2011 09:00:00 1.24 C 3.13 g/m*3 1.24 C 0 km/h
1307 06-03-2011 10:00:00 2.14 C 2.82 g/m*3 2.14 C 0 km/h
1308 06-03-2011 11:00:00 3.76 C 2.69 g/m*3 3.76 C 0 km/h
1309 06-03-2011 12:00:00 5.26 C 2.6 g/m*3 5.26 C 0 km/h
1310 06-03-2011 13:00:00 5.92 C 2.43 g/m*3 5.92 C 0 km/h
1311 06-03-2011 14:00:00 6.66 C 2.3 g/m*3 6.66 C 0 km/h
1312 06-03-2011 15:00:00 9.1 C 2.16 g/m*3 9.1 C 0 km/h
1313 06-03-2011 16:00:00 12.66 C 2.22 g/m*3 12.66 C 0 km/h
1314 06-03-2011 17:00:00 8.86 C 2.36 g/m*3 8.86 C 0 km/h
1315 06-03-2011 18:00:00 2.02 C 2.92 g/m*3 2.02 C 0 km/h
1316 06-03-2011 19:00:00 0.04 C 3.02 g/m*3 0.04 C 0 km/h
1317 06-03-2011 20:00:00 -0.52 C 3.02 g/m*3 -0.52 C 0 km/h
1318 06-03-2011 21:00:00 -1.1 C 2.95 g/m*3 -1.1 C 0 km/h
1319 06-03-2011 22:00:00 -1.6 C 2.88 g/m*3 -1.6 C 0 km/h
1320 06-03-2011 23:00:00 -2.1 C 2.75 g/m*3 -2.1 C 0 km/h
1321 07-03-2011 00:00:00 -2.42 C 2.7 g/m*3 -2.42 C 0 km/h
1322 07-03-2011 01:00:00 -3.02 C 2.69 g/m*3 -3.02 C 0 km/h
1323 07-03-2011 02:00:00 -3.62 C 2.62 g/m*3 -3.62 C 0 km/h
1324 07-03-2011 03:00:00 -4.18 C 2.56 g/m*3 -4.18 C 0 km/h
1325 07-03-2011 04:00:00 -4.64 C 2.51 g/m*3 -4.64 C 0 km/h
Sensor: Nr:Datum:Temp:Abs-Feuchte:Windchill:Wind:
Aussen-T/F 1326 07-03-2011 05:00:00 -4.64 C 2.5 g/m*3 -4.64 C 0 km/h
1327 07-03-2011 06:00:00 -4.6 C 2.44 g/m*3 -4.6 C 0 km/h
1328 07-03-2011 07:00:00 -4.62 C 2.39 g/m*3 -4.62 C 0 km/h
1329 07-03-2011 08:00:00 -3.76 C 2.34 g/m*3 -3.76 C 0 km/h
1330 07-03-2011 09:00:00 -2.92 C 2.38 g/m*3 -2.92 C 0 km/h
1331 07-03-2011 10:00:00 1.04 C 2.09 g/m*3 1.04 C 0 km/h
1332 07-03-2011 11:00:00 4.28 C 1.3 g/m*3 4.28 C 0 km/h
1333 07-03-2011 12:00:00 7.74 C 1.63 g/m*3 7.74 C 0 km/h
1334 07-03-2011 13:00:00 8.3 C 1.69 g/m*3 8.3 C 0 km/h
1335 07-03-2011 14:00:00 8.36 C 1.69 g/m*3 8.36 C 0 km/h
1336 07-03-2011 15:00:00 11 C 2 g/m*3 11 C 0 km/h
1337 07-03-2011 16:00:00 13.64 C 2.36 g/m*3 13.64 C 0 km/h
1338 07-03-2011 17:00:00 10.42 C 1.93 g/m*3 10.42 C 0 km/h
1339 07-03-2011 18:00:00 2.44 C 1.96 g/m*3 2.44 C 0 km/h
1340 07-03-2011 19:00:00 0.4 C 2.18 g/m*3 0.4 C 0 km/h
1341 07-03-2011 20:00:00 -0.44 C 2.15 g/m*3 -0.44 C 0 km/h
1342 07-03-2011 21:00:00 -0.38 C 2.14 g/m*3 -0.38 C 0 km/h
1343 07-03-2011 22:00:00 -1.28 C 2.12 g/m*3 -1.28 C 0 km/h
1344 07-03-2011 23:00:00 -1.74 C 2.14 g/m*3 -1.74 C 0 km/h
1345 08-03-2011 00:00:00 -3.42 C 2.09 g/m*3 -3.42 C 0 km/h
1346 08-03-2011 01:00:00 -4.4 C 2.1 g/m*3 -4.4 C 0 km/h
1347 08-03-2011 02:00:00 -5.04 C 2.01 g/m*3 -5.04 C 0 km/h
1348 08-03-2011 03:00:00 -5.9 C 2 g/m*3 -5.9 C 0 km/h
1349 08-03-2011 04:00:00 -6.24 C 2.07 g/m*3 -6.24 C 0 km/h
1350 08-03-2011 05:00:00 -5.76 C 2.04 g/m*3 -5.76 C 0 km/h
Sensor: Nr:Datum:Temp:Abs-Feuchte:Windchill:Wind:
Aussen-T/F 1351 08-03-2011 06:00:00 -6.36 C 1.97 g/m*3 -6.36 C 0 km/h
1352 08-03-2011 07:00:00 -5.98 C 2.1 g/m*3 -5.98 C 0 km/h
1353 08-03-2011 08:00:00 -5.08 C 2.2 g/m*3 -5.08 C 0 km/h
1354 08-03-2011 09:00:00 -3.56 C 2.34 g/m*3 -3.56 C 0 km/h
1355 08-03-2011 10:00:00 0.34 C 2.46 g/m*3 0.34 C 0 km/h
1356 08-03-2011 11:00:00 4.5 C 2.34 g/m*3 4.5 C 0 km/h
1357 08-03-2011 12:00:00 9.08 C 2.04 g/m*3 9.08 C 0 km/h
1358 08-03-2011 13:00:00 10.82 C 2 g/m*3 10.82 C 0 km/h
1359 08-03-2011 14:00:00 12.28 C 2.34 g/m*3 12.28 C 0 km/h
1360 08-03-2011 15:00:00 13.96 C 2.5 g/m*3 13.96 C 0 km/h
1361 08-03-2011 16:00:00 15.04 C 2.57 g/m*3 15.04 C 0 km/h
1362 08-03-2011 17:00:00 11.96 C 3.08 g/m*3 11.96 C 0 km/h
1363 08-03-2011 18:00:00 7.16 C 3.55 g/m*3 7.16 C 0 km/h
1364 08-03-2011 19:00:00 5.48 C 3.83 g/m*3 5.48 C 0 km/h
1365 08-03-2011 20:00:00 3.3 C 4.3 g/m*3 3.3 C 0 km/h
1366 08-03-2011 21:00:00 1.9 C 4.24 g/m*3 1.9 C 0 km/h
1367 08-03-2011 22:00:00 1.36 C 4.33 g/m*3 1.36 C 0 km/h
1368 08-03-2011 23:00:00 0.78 C 4.27 g/m*3 0.78 C 0 km/h
1369 09-03-2011 00:00:00 -0.46 C 4 g/m*3 -0.46 C 0 km/h
1370 09-03-2011 01:00:00 -0.68 C 4.02 g/m*3 -0.68 C 0 km/h
1371 09-03-2011 02:00:00 0.74 C 4.53 g/m*3 0.74 C 0 km/h
1372 09-03-2011 03:00:00 2.78 C 4.98 g/m*3 2.78 C 0 km/h
1373 09-03-2011 04:00:00 3.26 C 4.47 g/m*3 3.26 C 0 km/h
1374 09-03-2011 05:00:00 2.44 C 4.37 g/m*3 2.44 C 0 km/h
1375 09-03-2011 06:00:00 2.36 C 4.45 g/m*3 2.36 C 0 km/h
Sensor: Nr:Datum:Temp:Abs-Feuchte:Windchill:Wind:
Aussen-T/F 1376 09-03-2011 07:00:00 3 C 4.44 g/m*3 3 C 0 km/h
1377 09-03-2011 08:00:00 3.76 C 4.43 g/m*3 3.76 C 0 km/h
1378 09-03-2011 09:00:00 7.96 C 4.24 g/m*3 7.96 C 0 km/h
1379 09-03-2011 10:00:00 9.2 C 4.14 g/m*3 9.2 C 0 km/h
1380 09-03-2011 11:00:00 10.02 C 4.53 g/m*3 10.02 C 0 km/h
1381 09-03-2011 12:00:00 9.98 C 4.62 g/m*3 9.98 C 0 km/h
1382 09-03-2011 13:00:00 11.38 C 4.47 g/m*3 11.38 C 0 km/h
1383 09-03-2011 14:00:00 11.8 C 4.04 g/m*3 11.8 C 0 km/h
1384 09-03-2011 15:00:00 11.32 C 3.72 g/m*3 11.32 C 0 km/h
1385 09-03-2011 16:00:00 10.8 C 3.8 g/m*3 10.8 C 0 km/h
1386 09-03-2011 17:00:00 10.12 C 4.34 g/m*3 10.12 C 0 km/h
1387 09-03-2011 18:00:00 9.28 C 4.67 g/m*3 9.28 C 0 km/h
1388 09-03-2011 19:00:00 8.76 C 4.79 g/m*3 8.76 C 0 km/h
1389 09-03-2011 20:00:00 8.08 C 4.89 g/m*3 8.08 C 0 km/h
1390 09-03-2011 21:00:00 7.66 C 4.88 g/m*3 7.66 C 0 km/h
1391 09-03-2011 22:00:00 6.64 C 5.03 g/m*3 6.64 C 0 km/h
1392 09-03-2011 23:00:00 5.4 C 5.08 g/m*3 5.4 C 0 km/h
1393 10-03-2011 00:00:00 5.56 C 4.85 g/m*3 5.56 C 0 km/h
1394 10-03-2011 01:00:00 5.28 C 4.85 g/m*3 5.28 C 0 km/h
1395 10-03-2011 02:00:00 4.42 C 4.81 g/m*3 4.42 C 0 km/h
1396 10-03-2011 03:00:00 5.16 C 4.61 g/m*3 5.16 C 0 km/h
1397 10-03-2011 04:00:00 4.62 C 4.64 g/m*3 4.62 C 0 km/h
1398 10-03-2011 05:00:00 4.94 C 4.6 g/m*3 4.94 C 0 km/h
1399 10-03-2011 06:00:00 4.6 C 4.72 g/m*3 4.6 C 0 km/h
1400 10-03-2011 07:00:00 4.66 C 4.69 g/m*3 4.66 C 0 km/h
Sensor: Nr:Datum:Temp:Abs-Feuchte:Windchill:Wind:
Aussen-T/F 1401 10-03-2011 08:00:00 5.88 C 4.59 g/m*3 5.88 C 0 km/h
1402 10-03-2011 09:00:00 6.94 C 4.43 g/m*3 6.94 C 0 km/h
1403 10-03-2011 10:00:00 8.06 C 4.3 g/m*3 8.06 C 0 km/h
1404 10-03-2011 11:00:00 8.92 C 4.26 g/m*3 8.92 C 0 km/h
1405 10-03-2011 12:00:00 9.68 C 4.18 g/m*3 9.68 C 0 km/h
1406 10-03-2011 13:00:00 9.9 C 3.88 g/m*3 9.9 C 0 km/h
1407 10-03-2011 14:00:00 9.22 C 4.01 g/m*3 9.22 C 0 km/h
1408 10-03-2011 15:00:00 8.52 C 4.05 g/m*3 8.52 C 0 km/h
1409 10-03-2011 16:00:00 8.3 C 4.18 g/m*3 8.3 C 0 km/h
1410 10-03-2011 17:00:00 8.18 C 4.3 g/m*3 8.18 C 0 km/h
1411 10-03-2011 18:00:00 8.4 C 4.41 g/m*3 8.4 C 0 km/h
1412 10-03-2011 19:00:00 8.84 C 4.45 g/m*3 8.84 C 0 km/h
1413 10-03-2011 20:00:00 8.86 C 4.54 g/m*3 8.86 C 0 km/h
1414 10-03-2011 21:00:00 8.54 C 4.79 g/m*3 8.54 C 0 km/h
1415 10-03-2011 22:00:00 8.78 C 4.83 g/m*3 8.78 C 0 km/h
1416 10-03-2011 23:00:00 8.94 C 4.81 g/m*3 8.94 C 0 km/h
1417 11-03-2011 00:00:00 8.82 C 4.92 g/m*3 8.82 C 0 km/h
1418 11-03-2011 01:00:00 8.68 C 4.98 g/m*3 8.68 C 0 km/h
1419 11-03-2011 02:00:00 8.6 C 5.05 g/m*3 8.6 C 0 km/h
1420 11-03-2011 03:00:00 8.48 C 5.15 g/m*3 8.48 C 0 km/h
1421 11-03-2011 04:00:00 8.22 C 5.3 g/m*3 8.22 C 0 km/h
1422 11-03-2011 05:00:00 8.4 C 5.21 g/m*3 8.4 C 0 km/h
1423 11-03-2011 06:00:00 8.18 C 5.24 g/m*3 8.18 C 0 km/h
1424 11-03-2011 07:00:00 8.64 C 5.1 g/m*3 8.64 C 0 km/h
1425 11-03-2011 08:00:00 8.84 C 5.11 g/m*3 8.84 C 0 km/h
Sensor: Nr:Datum:Temp:Abs-Feuchte:Windchill:Wind:
Aussen-T/F 1426 11-03-2011 09:00:00 9.34 C 4.96 g/m*3 9.34 C 0 km/h
1427 11-03-2011 10:00:00 10.46 C 4.8 g/m*3 10.46 C 0 km/h
1428 11-03-2011 11:00:00 10.92 C 4.52 g/m*3 10.92 C 0 km/h
1429 11-03-2011 12:00:00 11.24 C 4.15 g/m*3 11.24 C 0 km/h
1430 11-03-2011 13:00:00 11.5 C 3.88 g/m*3 11.5 C 0 km/h
1431 11-03-2011 14:00:00 11.14 C 3.92 g/m*3 11.14 C 0 km/h
1432 11-03-2011 15:00:00 11.14 C 3.86 g/m*3 11.14 C 0 km/h
1433 11-03-2011 16:00:00 11.12 C 3.77 g/m*3 11.12 C 0 km/h
1434 11-03-2011 17:00:00 10.8 C 3.64 g/m*3 10.8 C 0 km/h
1435 11-03-2011 18:00:00 9.64 C 3.78 g/m*3 9.64 C 0 km/h
1436 11-03-2011 19:00:00 8.2 C 4.34 g/m*3 8.2 C 0 km/h
1437 11-03-2011 20:00:00 6.82 C 4.35 g/m*3 6.82 C 0 km/h
1438 11-03-2011 21:00:00 4.88 C 4.49 g/m*3 4.88 C 0 km/h
1439 11-03-2011 22:00:00 3.5 C 4.57 g/m*3 3.5 C 0 km/h
1440 11-03-2011 23:00:00 2.24 C 4.47 g/m*3 2.24 C 0 km/h
1441 12-03-2011 00:00:00 0.92 C 4.27 g/m*3 0.92 C 0 km/h
1442 12-03-2011 01:00:00 0.22 C 4.16 g/m*3 0.22 C 0 km/h
1443 12-03-2011 02:00:00 -0.32 C 4.09 g/m*3 -0.32 C 0 km/h
1444 12-03-2011 03:00:00 -0.74 C 4.01 g/m*3 -0.74 C 0 km/h
1445 12-03-2011 04:00:00 -1.24 C 3.9 g/m*3 -1.24 C 0 km/h
1446 12-03-2011 05:00:00 -1.62 C 3.81 g/m*3 -1.62 C 0 km/h
1447 12-03-2011 06:00:00 -1.96 C 3.73 g/m*3 -1.96 C 0 km/h
1448 12-03-2011 07:00:00 -2 C 3.75 g/m*3 -2 C 0 km/h
1449 12-03-2011 08:00:00 -0.32 C 4.26 g/m*3 -0.32 C 0 km/h
1450 12-03-2011 09:00:00 1.76 C 4.83 g/m*3 1.76 C 0 km/h
Sensor: Nr:Datum:Temp:Abs-Feuchte:Windchill:Wind:
Aussen-T/F 1451 12-03-2011 10:00:00 5.72 C 5.3 g/m*3 5.72 C 0 km/h
1452 12-03-2011 11:00:00 10.74 C 4.88 g/m*3 10.74 C 0 km/h
1453 12-03-2011 12:00:00 14.6 C 4.45 g/m*3 14.6 C 0 km/h
1454 12-03-2011 13:00:00 16.16 C 4.46 g/m*3 16.16 C 0 km/h
1455 12-03-2011 14:00:00 16.58 C 4.32 g/m*3 16.58 C 0 km/h
1456 12-03-2011 15:00:00 16.3 C 4.38 g/m*3 16.3 C 0 km/h
1457 12-03-2011 16:00:00 18.02 C 4.37 g/m*3 18.02 C 0 km/h
1458 12-03-2011 17:00:00 14.98 C 4.87 g/m*3 14.98 C 0 km/h
1459 12-03-2011 18:00:00 10.98 C 5.2 g/m*3 10.98 C 0 km/h
1460 12-03-2011 19:00:00 10.88 C 4.63 g/m*3 10.88 C 0 km/h
1461 12-03-2011 20:00:00 11.34 C 4.29 g/m*3 11.34 C 0 km/h
1462 12-03-2011 21:00:00 12.22 C 4.3 g/m*3 12.22 C 0 km/h
1463 12-03-2011 22:00:00 12.1 C 4.55 g/m*3 12.1 C 0 km/h
1464 12-03-2011 23:00:00 11.14 C 4.79 g/m*3 11.14 C 0 km/h
1465 13-03-2011 00:00:00 10.1 C 5.48 g/m*3 10.1 C 0 km/h
1466 13-03-2011 01:00:00 10.22 C 5.62 g/m*3 10.22 C 0 km/h
1467 13-03-2011 02:00:00 10.6 C 5.8 g/m*3 10.6 C 0 km/h
1468 13-03-2011 03:00:00 9.98 C 5.86 g/m*3 9.98 C 0 km/h
1469 13-03-2011 04:00:00 9.06 C 6.21 g/m*3 9.06 C 0 km/h
1470 13-03-2011 05:00:00 7.9 C 6.9 g/m*3 7.9 C 0 km/h
1471 13-03-2011 06:00:00 7.7 C 6.96 g/m*3 7.7 C 0 km/h
1472 13-03-2011 07:00:00 7.82 C 6.9 g/m*3 7.82 C 0 km/h
1473 13-03-2011 08:00:00 8.72 C 6.89 g/m*3 8.72 C 0 km/h
1474 13-03-2011 09:00:00 10.86 C 6.55 g/m*3 10.86 C 0 km/h
1475 13-03-2011 10:00:00 12.64 C 6.1 g/m*3 12.64 C 0 km/h
Sensor: Nr:Datum:Temp:Abs-Feuchte:Windchill:Wind:
Aussen-T/F 1476 13-03-2011 11:00:00 14.34 C 5.76 g/m*3 14.34 C 0 km/h
1477 13-03-2011 12:00:00 14.74 C 5.53 g/m*3 14.74 C 0 km/h
1478 13-03-2011 13:00:00 14.7 C 5.34 g/m*3 14.7 C 0 km/h
1479 13-03-2011 14:00:00 15.12 C 5.4 g/m*3 15.12 C 0 km/h
1480 13-03-2011 15:00:00 15.36 C 5.32 g/m*3 15.36 C 0 km/h
1481 13-03-2011 16:00:00 14.5 C 5.47 g/m*3 14.5 C 0 km/h
1482 13-03-2011 17:00:00 12.9 C 6.04 g/m*3 12.9 C 0 km/h
1483 13-03-2011 18:00:00 11.52 C 6.33 g/m*3 11.52 C 0 km/h
1484 13-03-2011 19:00:00 10.76 C 6.65 g/m*3 10.76 C 0 km/h
1485 13-03-2011 20:00:00 9.62 C 7.69 g/m*3 9.62 C 0 km/h
1486 13-03-2011 21:00:00 9.22 C 7.74 g/m*3 9.22 C 0 km/h
1487 13-03-2011 22:00:00 8.86 C 7.72 g/m*3 8.86 C 0 km/h
1488 13-03-2011 23:00:00 8.66 C 7.68 g/m*3 8.66 C 0 km/h
1489 14-03-2011 00:00:00 8.6 C 7.66 g/m*3 8.6 C 0 km/h
1490 14-03-2011 01:00:00 8.56 C 7.71 g/m*3 8.56 C 0 km/h
1491 14-03-2011 02:00:00 8.48 C 7.67 g/m*3 8.48 C 0 km/h
1492 14-03-2011 03:00:00 8.22 C 7.55 g/m*3 8.22 C 0 km/h
1493 14-03-2011 04:00:00 8.34 C 7.61 g/m*3 8.34 C 0 km/h
1494 14-03-2011 05:00:00 8.34 C 7.67 g/m*3 8.34 C 0 km/h
1495 14-03-2011 06:00:00 7.8 C 7.43 g/m*3 7.8 C 0 km/h
1496 14-03-2011 07:00:00 8.04 C 7.59 g/m*3 8.04 C 0 km/h
1497 14-03-2011 08:00:00 8.6 C 7.82 g/m*3 8.6 C 0 km/h
1498 14-03-2011 09:00:00 9.34 C 8.14 g/m*3 9.34 C 0 km/h
1499 14-03-2011 10:00:00 11.32 C 7.97 g/m*3 11.32 C 0 km/h
1500 14-03-2011 11:00:00 12.72 C 7.27 g/m*3 12.72 C 0 km/h
Sensor: Nr:Datum:Temp:Abs-Feuchte:Windchill:Wind:
Aussen-T/F 1501 14-03-2011 12:00:00 13.12 C 7.04 g/m*3 13.12 C 0 km/h
1502 14-03-2011 13:00:00 14.26 C 6.74 g/m*3 14.26 C 0 km/h
1503 14-03-2011 14:00:00 14 C 6.59 g/m*3 14 C 0 km/h
1504 14-03-2011 15:00:00 13.68 C 6.5 g/m*3 13.68 C 0 km/h
1505 14-03-2011 16:00:00 15.14 C 6.05 g/m*3 15.14 C 0 km/h
1506 14-03-2011 17:00:00 13.08 C 6.38 g/m*3 13.08 C 0 km/h
1507 14-03-2011 18:00:00 11.2 C 6.95 g/m*3 11.2 C 0 km/h
1508 14-03-2011 19:00:00 10.04 C 7.03 g/m*3 10.04 C 0 km/h
1509 14-03-2011 20:00:00 8.4 C 6.94 g/m*3 8.4 C 0 km/h
1510 14-03-2011 21:00:00 7.98 C 6.92 g/m*3 7.98 C 0 km/h
1511 14-03-2011 22:00:00 7.26 C 6.86 g/m*3 7.26 C 0 km/h
1512 14-03-2011 23:00:00 5.86 C 6.37 g/m*3 5.86 C 0 km/h
1513 15-03-2011 00:00:00 5.2 C 6.17 g/m*3 5.2 C 0 km/h
1514 15-03-2011 01:00:00 4.88 C 6.13 g/m*3 4.88 C 0 km/h
1515 15-03-2011 02:00:00 5.96 C 6.59 g/m*3 5.96 C 0 km/h
1516 15-03-2011 03:00:00 5.7 C 6.55 g/m*3 5.7 C 0 km/h
1517 15-03-2011 04:00:00 5.78 C 6.57 g/m*3 5.78 C 0 km/h
1518 15-03-2011 05:00:00 5.3 C 6.38 g/m*3 5.3 C 0 km/h
1519 15-03-2011 06:00:00 4.58 C 6.08 g/m*3 4.58 C 0 km/h
1520 15-03-2011 07:00:00 5 C 6.25 g/m*3 5 C 0 km/h
1521 15-03-2011 08:00:00 5.34 C 6.39 g/m*3 5.34 C 0 km/h
1522 15-03-2011 09:00:00 6.6 C 6.9 g/m*3 6.6 C 0 km/h
1523 15-03-2011 10:00:00 9.5 C 7.97 g/m*3 9.5 C 0 km/h
1524 15-03-2011 11:00:00 13.04 C 7.34 g/m*3 13.04 C 0 km/h
1525 15-03-2011 12:00:00 17.82 C 5.99 g/m*3 17.82 C 0 km/h
Sensor: Nr:Datum:Temp:Abs-Feuchte:Windchill:Wind:
Aussen-T/F 1526 15-03-2011 13:00:00 19.16 C 5.72 g/m*3 19.16 C 0 km/h
1527 15-03-2011 14:00:00 18.9 C 5.48 g/m*3 18.9 C 0 km/h
1528 15-03-2011 15:00:00 21.06 C 5.18 g/m*3 21.06 C 0 km/h
1529 15-03-2011 16:00:00 20.7 C 4.93 g/m*3 20.7 C 0 km/h
1530 15-03-2011 17:00:00 18.1 C 5.47 g/m*3 18.1 C 0 km/h
1531 15-03-2011 18:00:00 13.78 C 6.16 g/m*3 13.78 C 0 km/h
1532 15-03-2011 19:00:00 12.1 C 6.39 g/m*3 12.1 C 0 km/h
1533 15-03-2011 20:00:00 11.02 C 6.47 g/m*3 11.02 C 0 km/h
1534 15-03-2011 21:00:00 9.78 C 6.58 g/m*3 9.78 C 0 km/h
1535 15-03-2011 22:00:00 9.24 C 6.46 g/m*3 9.24 C 0 km/h
1536 15-03-2011 23:00:00 9.2 C 6.16 g/m*3 9.2 C 0 km/h
1537 16-03-2011 00:00:00 8.6 C 6.14 g/m*3 8.6 C 0 km/h
1538 16-03-2011 01:00:00 6.88 C 6.09 g/m*3 6.88 C 0 km/h
1539 16-03-2011 02:00:00 6.64 C 6.27 g/m*3 6.64 C 0 km/h
1540 16-03-2011 03:00:00 6.86 C 6.17 g/m*3 6.86 C 0 km/h
1541 16-03-2011 04:00:00 7.2 C 6 g/m*3 7.2 C 0 km/h
1542 16-03-2011 05:00:00 7.04 C 5.86 g/m*3 7.04 C 0 km/h
1543 16-03-2011 06:00:00 7.14 C 5.96 g/m*3 7.14 C 0 km/h
1544 16-03-2011 07:00:00 7.78 C 5.98 g/m*3 7.78 C 0 km/h
1545 16-03-2011 08:00:00 9.1 C 5.87 g/m*3 9.1 C 0 km/h
1546 16-03-2011 09:00:00 9.88 C 5.74 g/m*3 9.88 C 0 km/h
1547 16-03-2011 10:00:00 10.28 C 5.62 g/m*3 10.28 C 0 km/h
1548 16-03-2011 11:00:00 11.34 C 5.5 g/m*3 11.34 C 0 km/h
1549 16-03-2011 12:00:00 11.2 C 5.45 g/m*3 11.2 C 0 km/h
1550 16-03-2011 13:00:00 11.58 C 5.48 g/m*3 11.58 C 0 km/h
Sensor: Nr:Datum:Temp:Abs-Feuchte:Windchill:Wind:
Aussen-T/F 1551 16-03-2011 14:00:00 11.58 C 5.48 g/m*3 11.58 C 0 km/h
1552 16-03-2011 15:00:00 10.76 C 5.5 g/m*3 10.76 C 0 km/h
1553 16-03-2011 16:00:00 10.06 C 5.41 g/m*3 10.06 C 0 km/h
1554 16-03-2011 17:00:00 9.52 C 5.47 g/m*3 9.52 C 0 km/h
1555 16-03-2011 18:00:00 8.68 C 5.44 g/m*3 8.68 C 0 km/h
1556 16-03-2011 19:00:00 8.16 C 5.4 g/m*3 8.16 C 0 km/h
1557 16-03-2011 20:00:00 7.9 C 5.4 g/m*3 7.9 C 0 km/h
1558 16-03-2011 21:00:00 7.4 C 5.34 g/m*3 7.4 C 0 km/h
1559 16-03-2011 22:00:00 7.12 C 5.36 g/m*3 7.12 C 0 km/h
1560 16-03-2011 23:00:00 6.96 C 5.46 g/m*3 6.96 C 0 km/h
1561 17-03-2011 00:00:00 6.84 C 5.52 g/m*3 6.84 C 0 km/h
1562 17-03-2011 01:00:00 6.8 C 5.52 g/m*3 6.8 C 0 km/h
1563 17-03-2011 02:00:00 6.78 C 5.59 g/m*3 6.78 C 0 km/h
1564 17-03-2011 03:00:00 6.76 C 5.64 g/m*3 6.76 C 0 km/h
1565 17-03-2011 04:00:00 6.78 C 5.65 g/m*3 6.78 C 0 km/h
1566 17-03-2011 05:00:00 6.76 C 5.69 g/m*3 6.76 C 0 km/h
1567 17-03-2011 06:00:00 6.78 C 5.7 g/m*3 6.78 C 0 km/h
1568 17-03-2011 07:00:00 6.44 C 5.78 g/m*3 6.44 C 0 km/h
1569 17-03-2011 08:00:00 6.32 C 5.65 g/m*3 6.32 C 0 km/h
1570 17-03-2011 09:00:00 5.94 C 5.71 g/m*3 5.94 C 0 km/h
1571 17-03-2011 10:00:00 5.84 C 5.99 g/m*3 5.84 C 0 km/h
1572 17-03-2011 11:00:00 5.98 C 5.96 g/m*3 5.98 C 0 km/h
1573 17-03-2011 12:00:00 6.12 C 5.98 g/m*3 6.12 C 0 km/h
1574 17-03-2011 13:00:00 6.1 C 6.01 g/m*3 6.1 C 0 km/h
1575 17-03-2011 14:00:00 5.94 C 6.04 g/m*3 5.94 C 0 km/h
Sensor: Nr:Datum:Temp:Abs-Feuchte:Windchill:Wind:
Aussen-T/F 1576 17-03-2011 15:00:00 5.92 C 6.09 g/m*3 5.92 C 0 km/h
1577 17-03-2011 16:00:00 6 C 6.01 g/m*3 6 C 0 km/h
1578 17-03-2011 17:00:00 5.94 C 6.03 g/m*3 5.94 C 0 km/h
1579 17-03-2011 18:00:00 5.98 C 6.1 g/m*3 5.98 C 0 km/h
1580 17-03-2011 19:00:00 6.22 C 6.11 g/m*3 6.22 C 0 km/h
1581 17-03-2011 20:00:00 6.32 C 6.12 g/m*3 6.32 C 0 km/h
1582 17-03-2011 21:00:00 6.32 C 6.06 g/m*3 6.32 C 0 km/h
1583 17-03-2011 22:00:00 6.22 C 5.94 g/m*3 6.22 C 0 km/h
1584 17-03-2011 23:00:00 5.98 C 5.83 g/m*3 5.98 C 0 km/h
1585 18-03-2011 00:00:00 5.98 C 5.62 g/m*3 5.98 C 0 km/h
1586 18-03-2011 01:00:00 5.7 C 5.62 g/m*3 5.7 C 0 km/h
1587 18-03-2011 02:00:00 5.44 C 5.71 g/m*3 5.44 C 0 km/h
1588 18-03-2011 03:00:00 5.12 C 5.79 g/m*3 5.12 C 0 km/h
1589 18-03-2011 04:00:00 5.16 C 5.69 g/m*3 5.16 C 0 km/h
1590 18-03-2011 05:00:00 5.04 C 5.64 g/m*3 5.04 C 0 km/h
1591 18-03-2011 06:00:00 4.84 C 5.54 g/m*3 4.84 C 0 km/h
1592 18-03-2011 07:00:00 4.82 C 5.36 g/m*3 4.82 C 0 km/h
1593 18-03-2011 08:00:00 5.2 C 5.04 g/m*3 5.2 C 0 km/h
1594 18-03-2011 09:00:00 5.72 C 4.79 g/m*3 5.72 C 0 km/h
1595 18-03-2011 10:00:00 6.3 C 4.53 g/m*3 6.3 C 0 km/h
1596 18-03-2011 11:00:00 6.78 C 4.75 g/m*3 6.78 C 0 km/h
1597 18-03-2011 12:00:00 7.5 C 4.67 g/m*3 7.5 C 0 km/h
1598 18-03-2011 13:00:00 8.76 C 4.58 g/m*3 8.76 C 0 km/h
1599 18-03-2011 14:00:00 8.78 C 4.52 g/m*3 8.78 C 0 km/h
1600 18-03-2011 15:00:00 8.9 C 4.49 g/m*3 8.9 C 0 km/h
Sensor: Nr:Datum:Temp:Abs-Feuchte:Windchill:Wind:
Aussen-T/F 1601 18-03-2011 16:00:00 8.74 C 4.49 g/m*3 8.74 C 0 km/h
1602 18-03-2011 17:00:00 7.94 C 4.83 g/m*3 7.94 C 0 km/h
1603 18-03-2011 18:00:00 7.34 C 5.1 g/m*3 7.34 C 0 km/h
1604 18-03-2011 19:00:00 6.86 C 5.22 g/m*3 6.86 C 0 km/h
1605 18-03-2011 20:00:00 6.4 C 5.31 g/m*3 6.4 C 0 km/h
1606 18-03-2011 21:00:00 6.2 C 5.34 g/m*3 6.2 C 0 km/h
1607 18-03-2011 22:00:00 5.44 C 5.76 g/m*3 5.44 C 0 km/h
1608 18-03-2011 23:00:00 5.08 C 5.97 g/m*3 5.08 C 0 km/h
1609 19-03-2011 00:00:00 4.72 C 5.98 g/m*3 4.72 C 0 km/h
1610 19-03-2011 01:00:00 4.52 C 5.95 g/m*3 4.52 C 0 km/h
1611 19-03-2011 02:00:00 4.38 C 5.93 g/m*3 4.38 C 0 km/h
1612 19-03-2011 03:00:00 4.48 C 5.97 g/m*3 4.48 C 0 km/h
1613 19-03-2011 04:00:00 4.68 C 6.11 g/m*3 4.68 C 0 km/h
1614 19-03-2011 05:00:00 4.68 C 6.12 g/m*3 4.68 C 0 km/h
1615 19-03-2011 06:00:00 4.54 C 6.06 g/m*3 4.54 C 0 km/h
1616 19-03-2011 07:00:00 4.38 C 6 g/m*3 4.38 C 0 km/h
1617 19-03-2011 08:00:00 4.74 C 6.05 g/m*3 4.74 C 0 km/h
1618 19-03-2011 09:00:00 5.78 C 5.74 g/m*3 5.78 C 0 km/h
1619 19-03-2011 10:00:00 6.8 C 5.29 g/m*3 6.8 C 0 km/h
1620 19-03-2011 11:00:00 7.36 C 4.95 g/m*3 7.36 C 0 km/h
1621 19-03-2011 12:00:00 11.32 C 3.55 g/m*3 11.32 C 0 km/h
1622 19-03-2011 13:00:00 12.08 C 2.93 g/m*3 12.08 C 0 km/h
1623 19-03-2011 14:00:00 12.6 C 2.61 g/m*3 12.6 C 0 km/h
1624 19-03-2011 15:00:00 16 C 2.72 g/m*3 16 C 0 km/h
1625 19-03-2011 16:00:00 17.46 C 2.97 g/m*3 17.46 C 0 km/h
Sensor: Nr:Datum:Temp:Abs-Feuchte:Windchill:Wind:
Aussen-T/F 1626 19-03-2011 17:00:00 15.38 C 2.62 g/m*3 15.38 C 0 km/h
1627 19-03-2011 18:00:00 8.5 C 3.33 g/m*3 8.5 C 0 km/h
1628 19-03-2011 19:00:00 3.86 C 3.46 g/m*3 3.86 C 0 km/h
1629 19-03-2011 20:00:00 2.58 C 3.68 g/m*3 2.58 C 0 km/h
1630 19-03-2011 21:00:00 0.88 C 3.68 g/m*3 0.88 C 0 km/h
1631 19-03-2011 22:00:00 -0.76 C 3.58 g/m*3 -0.76 C 0 km/h
1632 19-03-2011 23:00:00 -1.84 C 3.38 g/m*3 -1.84 C 0 km/h
1633 20-03-2011 00:00:00 -2.44 C 3.35 g/m*3 -2.44 C 0 km/h
1634 20-03-2011 01:00:00 -2.86 C 3.32 g/m*3 -2.86 C 0 km/h
1635 20-03-2011 02:00:00 -3.3 C 3.27 g/m*3 -3.3 C 0 km/h
1636 20-03-2011 03:00:00 -3.62 C 3.23 g/m*3 -3.62 C 0 km/h
1637 20-03-2011 04:00:00 -3.86 C 3.19 g/m*3 -3.86 C 0 km/h
1638 20-03-2011 05:00:00 -3.78 C 3.25 g/m*3 -3.78 C 0 km/h
1639 20-03-2011 06:00:00 -3.72 C 3.3 g/m*3 -3.72 C 0 km/h
1640 20-03-2011 07:00:00 -3.76 C 3.3 g/m*3 -3.76 C 0 km/h
1641 20-03-2011 08:00:00 -2.52 C 3.63 g/m*3 -2.52 C 0 km/h
1642 20-03-2011 09:00:00 -0.6 C 4.13 g/m*3 -0.6 C 0 km/h
1643 20-03-2011 10:00:00 2.66 C 4.37 g/m*3 2.66 C 0 km/h
1644 20-03-2011 11:00:00 5.52 C 3.8 g/m*3 5.52 C 0 km/h
1645 20-03-2011 12:00:00 11.74 C 2.66 g/m*3 11.74 C 0 km/h
1646 20-03-2011 13:00:00 12.58 C 2.21 g/m*3 12.58 C 0 km/h
1647 20-03-2011 14:00:00 13.02 C 2.27 g/m*3 13.02 C 0 km/h
1648 20-03-2011 15:00:00 17.44 C 2.97 g/m*3 17.44 C 0 km/h
1649 20-03-2011 16:00:00 18.98 C 3.26 g/m*3 18.98 C 0 km/h
1650 20-03-2011 17:00:00 15.94 C 2.72 g/m*3 15.94 C 0 km/h
Sensor: Nr:Datum:Temp:Abs-Feuchte:Windchill:Wind:
Aussen-T/F 1651 20-03-2011 18:00:00 7.92 C 3.54 g/m*3 7.92 C 0 km/h
1652 20-03-2011 19:00:00 4.36 C 3.65 g/m*3 4.36 C 0 km/h
1653 20-03-2011 20:00:00 2.64 C 3.49 g/m*3 2.64 C 0 km/h
1654 20-03-2011 21:00:00 0.76 C 3.35 g/m*3 0.76 C 0 km/h
1655 20-03-2011 22:00:00 -0.44 C 3.25 g/m*3 -0.44 C 0 km/h
1656 20-03-2011 23:00:00 -1.26 C 3.18 g/m*3 -1.26 C 0 km/h
1657 21-03-2011 00:00:00 -1.64 C 3.21 g/m*3 -1.64 C 0 km/h
1658 21-03-2011 01:00:00 -2.5 C 3.15 g/m*3 -2.5 C 0 km/h
1659 21-03-2011 02:00:00 -2.62 C 3.28 g/m*3 -2.62 C 0 km/h
1660 21-03-2011 03:00:00 -3.08 C 3.25 g/m*3 -3.08 C 0 km/h
1661 21-03-2011 04:00:00 -3.5 C 3.2 g/m*3 -3.5 C 0 km/h
1662 21-03-2011 05:00:00 -3.86 C 3.15 g/m*3 -3.86 C 0 km/h
1663 21-03-2011 06:00:00 -3.94 C 3.16 g/m*3 -3.94 C 0 km/h
1664 21-03-2011 07:00:00 -3.22 C 3.36 g/m*3 -3.22 C 0 km/h
1665 21-03-2011 08:00:00 -2.12 C 3.63 g/m*3 -2.12 C 0 km/h
1666 21-03-2011 09:00:00 -0.64 C 3.87 g/m*3 -0.64 C 0 km/h
1667 21-03-2011 10:00:00 2.56 C 4.22 g/m*3 2.56 C 0 km/h
1668 21-03-2011 11:00:00 7.38 C 3.72 g/m*3 7.38 C 0 km/h
1669 21-03-2011 12:00:00 13.6 C 3.18 g/m*3 13.6 C 0 km/h
1670 21-03-2011 13:00:00 14.34 C 2.46 g/m*3 14.34 C 0 km/h
1671 21-03-2011 14:00:00 16.04 C 2.73 g/m*3 16.04 C 0 km/h
1672 21-03-2011 15:00:00 19.7 C 3.4 g/m*3 19.7 C 0 km/h
1673 21-03-2011 16:00:00 19.98 C 3.45 g/m*3 19.98 C 0 km/h
1674 21-03-2011 17:00:00 17.66 C 3.07 g/m*3 17.66 C 0 km/h
1675 21-03-2011 18:00:00 10.58 C 3.65 g/m*3 10.58 C 0 km/h
Sensor: Nr:Datum:Temp:Abs-Feuchte:Windchill:Wind:
Aussen-T/F 1676 21-03-2011 19:00:00 6.66 C 3.97 g/m*3 6.66 C 0 km/h
1677 21-03-2011 20:00:00 5.06 C 4.09 g/m*3 5.06 C 0 km/h
1678 21-03-2011 21:00:00 3.14 C 4.05 g/m*3 3.14 C 0 km/h
1679 21-03-2011 22:00:00 1.74 C 3.94 g/m*3 1.74 C 0 km/h
1680 21-03-2011 23:00:00 0.6 C 3.89 g/m*3 0.6 C 0 km/h
1681 22-03-2011 00:00:00 -0.16 C 3.78 g/m*3 -0.16 C 0 km/h
1682 22-03-2011 01:00:00 -0.86 C 3.75 g/m*3 -0.86 C 0 km/h
1683 22-03-2011 02:00:00 -1.36 C 3.72 g/m*3 -1.36 C 0 km/h
1684 22-03-2011 03:00:00 -1.86 C 3.62 g/m*3 -1.86 C 0 km/h
1685 22-03-2011 04:00:00 -2.24 C 3.55 g/m*3 -2.24 C 0 km/h
1686 22-03-2011 05:00:00 -2.56 C 3.53 g/m*3 -2.56 C 0 km/h
1687 22-03-2011 06:00:00 -2.22 C 3.67 g/m*3 -2.22 C 0 km/h
1688 22-03-2011 07:00:00 -2.12 C 3.72 g/m*3 -2.12 C 0 km/h
1689 22-03-2011 08:00:00 -0.94 C 4.08 g/m*3 -0.94 C 0 km/h
1690 22-03-2011 09:00:00 0.8 C 4.59 g/m*3 0.8 C 0 km/h
1691 22-03-2011 10:00:00 4.84 C 4.81 g/m*3 4.84 C 0 km/h
1692 22-03-2011 11:00:00 8.82 C 4.18 g/m*3 8.82 C 0 km/h
1693 22-03-2011 12:00:00 15.66 C 3.52 g/m*3 15.66 C 0 km/h
1694 22-03-2011 13:00:00 16.9 C 2.88 g/m*3 16.9 C 0 km/h
1695 22-03-2011 14:00:00 18.88 C 3.24 g/m*3 18.88 C 0 km/h
1696 22-03-2011 15:00:00 22.26 C 3.94 g/m*3 22.26 C 0 km/h
1697 22-03-2011 16:00:00 21.74 C 3.82 g/m*3 21.74 C 0 km/h
1698 22-03-2011 17:00:00 19.04 C 3.27 g/m*3 19.04 C 0 km/h
1699 22-03-2011 18:00:00 13.28 C 3.21 g/m*3 13.28 C 0 km/h
1700 22-03-2011 19:00:00 9.68 C 3.89 g/m*3 9.68 C 0 km/h
Sensor: Nr:Datum:Temp:Abs-Feuchte:Windchill:Wind:
Aussen-T/F 1701 22-03-2011 20:00:00 9.14 C 4.11 g/m*3 9.14 C 0 km/h
1702 22-03-2011 21:00:00 7.5 C 4.63 g/m*3 7.5 C 0 km/h
1703 22-03-2011 22:00:00 5.88 C 4.82 g/m*3 5.88 C 0 km/h
1704 22-03-2011 23:00:00 3.9 C 4.8 g/m*3 3.9 C 0 km/h
1705 23-03-2011 00:00:00 2.68 C 4.67 g/m*3 2.68 C 0 km/h
1706 23-03-2011 01:00:00 2.22 C 4.72 g/m*3 2.22 C 0 km/h
1707 23-03-2011 02:00:00 1.7 C 4.69 g/m*3 1.7 C 0 km/h
1708 23-03-2011 03:00:00 0.58 C 4.39 g/m*3 0.58 C 0 km/h
1709 23-03-2011 04:00:00 0.3 C 4.38 g/m*3 0.3 C 0 km/h
1710 23-03-2011 05:00:00 0.06 C 4.37 g/m*3 0.06 C 0 km/h
1711 23-03-2011 06:00:00 -0.1 C 4.37 g/m*3 -0.1 C 0 km/h
1712 23-03-2011 07:00:00 0.54 C 4.61 g/m*3 0.54 C 0 km/h
1713 23-03-2011 08:00:00 2.04 C 5.04 g/m*3 2.04 C 0 km/h
1714 23-03-2011 09:00:00 4.54 C 5.6 g/m*3 4.54 C 0 km/h
1715 23-03-2011 10:00:00 8.02 C 5.53 g/m*3 8.02 C 0 km/h
1716 23-03-2011 11:00:00 11.9 C 5.4 g/m*3 11.9 C 0 km/h
1717 23-03-2011 12:00:00 16.98 C 4.97 g/m*3 16.98 C 0 km/h
1718 23-03-2011 13:00:00 17.72 C 4.44 g/m*3 17.72 C 0 km/h
1719 23-03-2011 14:00:00 20.16 C 4.29 g/m*3 20.16 C 0 km/h
1720 23-03-2011 15:00:00 22.58 C 4.05 g/m*3 22.58 C 0 km/h
1721 23-03-2011 16:00:00 22.24 C 4.29 g/m*3 22.24 C 0 km/h
1722 23-03-2011 17:00:00 19.14 C 4.86 g/m*3 19.14 C 0 km/h
1723 23-03-2011 18:00:00 13.36 C 5.68 g/m*3 13.36 C 0 km/h
1724 23-03-2011 19:00:00 10.72 C 5.92 g/m*3 10.72 C 0 km/h
1725 23-03-2011 20:00:00 9.6 C 5.99 g/m*3 9.6 C 0 km/h
Sensor: Nr:Datum:Temp:Abs-Feuchte:Windchill:Wind:
Aussen-T/F 1726 23-03-2011 21:00:00 8.08 C 6 g/m*3 8.08 C 0 km/h
1727 23-03-2011 22:00:00 6.22 C 5.86 g/m*3 6.22 C 0 km/h
1728 23-03-2011 23:00:00 4.96 C 5.72 g/m*3 4.96 C 0 km/h
1729 24-03-2011 00:00:00 4.26 C 5.54 g/m*3 4.26 C 0 km/h
1730 24-03-2011 01:00:00 3.4 C 5.35 g/m*3 3.4 C 0 km/h
1731 24-03-2011 02:00:00 2.94 C 5.23 g/m*3 2.94 C 0 km/h
1732 24-03-2011 03:00:00 2.56 C 5.18 g/m*3 2.56 C 0 km/h
1733 24-03-2011 04:00:00 2.26 C 5.1 g/m*3 2.26 C 0 km/h
1734 24-03-2011 05:00:00 1.84 C 4.99 g/m*3 1.84 C 0 km/h
1735 24-03-2011 06:00:00 1.4 C 4.91 g/m*3 1.4 C 0 km/h
1736 24-03-2011 07:00:00 1.56 C 4.96 g/m*3 1.56 C 0 km/h
1737 24-03-2011 08:00:00 2.8 C 5.4 g/m*3 2.8 C 0 km/h
1738 24-03-2011 09:00:00 4.98 C 6.18 g/m*3 4.98 C 0 km/h
1739 24-03-2011 10:00:00 8.06 C 6.67 g/m*3 8.06 C 0 km/h
1740 24-03-2011 11:00:00 12.1 C 5.1 g/m*3 12.1 C 0 km/h
1741 24-03-2011 12:00:00 17.36 C 3.99 g/m*3 17.36 C 0 km/h
1742 24-03-2011 13:00:00 18.78 C 3.31 g/m*3 18.78 C 0 km/h
1743 24-03-2011 14:00:00 21.26 C 3.72 g/m*3 21.26 C 0 km/h
1744 24-03-2011 15:00:00 24.54 C 4.49 g/m*3 24.54 C 0 km/h
1745 24-03-2011 16:00:00 22.62 C 4.02 g/m*3 22.62 C 0 km/h
1746 24-03-2011 17:00:00 20.12 C 3.65 g/m*3 20.12 C 0 km/h
1747 24-03-2011 18:00:00 13.84 C 3.65 g/m*3 13.84 C 0 km/h
1748 24-03-2011 19:00:00 9.84 C 4.15 g/m*3 9.84 C 0 km/h
1749 24-03-2011 20:00:00 8 C 4.43 g/m*3 8 C 0 km/h
1750 24-03-2011 21:00:00 6.08 C 4.01 g/m*3 6.08 C 0 km/h
Sensor: Nr:Datum:Temp:Abs-Feuchte:Windchill:Wind:
Aussen-T/F 1751 24-03-2011 22:00:00 4.72 C 4 g/m*3 4.72 C 0 km/h
1752 24-03-2011 23:00:00 4.14 C 3.95 g/m*3 4.14 C 0 km/h
1753 25-03-2011 00:00:00 3.32 C 3.99 g/m*3 3.32 C 0 km/h
1754 25-03-2011 01:00:00 1.92 C 3.98 g/m*3 1.92 C 0 km/h
1755 25-03-2011 02:00:00 2.02 C 4.12 g/m*3 2.02 C 0 km/h
1756 25-03-2011 03:00:00 1.04 C 4.07 g/m*3 1.04 C 0 km/h
1757 25-03-2011 04:00:00 0.7 C 4.12 g/m*3 0.7 C 0 km/h
1758 25-03-2011 05:00:00 0.08 C 4.04 g/m*3 0.08 C 0 km/h
1759 25-03-2011 06:00:00 0.12 C 4.17 g/m*3 0.12 C 0 km/h
1760 25-03-2011 07:00:00 1 C 4.42 g/m*3 1 C 0 km/h
1761 25-03-2011 08:00:00 3.58 C 4.62 g/m*3 3.58 C 0 km/h
1762 25-03-2011 09:00:00 6.64 C 4.36 g/m*3 6.64 C 0 km/h
1763 25-03-2011 10:00:00 10.02 C 4.18 g/m*3 10.02 C 0 km/h
1764 25-03-2011 11:00:00 13.34 C 4.22 g/m*3 13.34 C 0 km/h
1765 25-03-2011 12:00:00 18.02 C 3.91 g/m*3 18.02 C 0 km/h
1766 25-03-2011 13:00:00 20.04 C 4.16 g/m*3 20.04 C 0 km/h
1767 25-03-2011 14:00:00 22.9 C 4.37 g/m*3 22.9 C 0 km/h
1768 25-03-2011 15:00:00 24.52 C 4.48 g/m*3 24.52 C 0 km/h
1769 25-03-2011 16:00:00 22.02 C 4.27 g/m*3 22.02 C 0 km/h
1770 25-03-2011 17:00:00 18.94 C 4.9 g/m*3 18.94 C 0 km/h
1771 25-03-2011 18:00:00 14.78 C 5.36 g/m*3 14.78 C 0 km/h
1772 25-03-2011 19:00:00 11.5 C 5.6 g/m*3 11.5 C 0 km/h
1773 25-03-2011 20:00:00 10.06 C 5.85 g/m*3 10.06 C 0 km/h
1774 25-03-2011 21:00:00 9.08 C 5.72 g/m*3 9.08 C 0 km/h
1775 25-03-2011 22:00:00 8.55 C 5.78 g/m*3 8.55 C 0 km/h
Sensor: Nr:Datum:Temp:Abs-Feuchte:Windchill:Wind:
Aussen-T/F 1776 25-03-2011 23:00:00 7.38 C 5.75 g/m*3 7.38 C 0 km/h
1777 26-03-2011 00:00:00 5.56 C 5.58 g/m*3 5.56 C 0 km/h
1778 26-03-2011 01:00:00 5.24 C 5.8 g/m*3 5.24 C 0 km/h
1779 26-03-2011 02:00:00 4.62 C 5.59 g/m*3 4.62 C 0 km/h
1780 26-03-2011 03:00:00 3.94 C 5.52 g/m*3 3.94 C 0 km/h
1781 26-03-2011 04:00:00 4.44 C 5.75 g/m*3 4.44 C 0 km/h
1782 26-03-2011 05:00:00 4.86 C 5.6 g/m*3 4.86 C 0 km/h
1783 26-03-2011 06:00:00 4.86 C 5.51 g/m*3 4.86 C 0 km/h
1784 26-03-2011 07:00:00 5.64 C 5.54 g/m*3 5.64 C 0 km/h
1785 26-03-2011 08:00:00 6.32 C 5.66 g/m*3 6.32 C 0 km/h
1786 26-03-2011 09:00:00 8.88 C 5.32 g/m*3 8.88 C 0 km/h
1787 26-03-2011 10:00:00 9.16 C 4.6 g/m*3 9.16 C 0 km/h
1788 26-03-2011 11:00:00 10.56 C 3.91 g/m*3 10.56 C 0 km/h
1789 26-03-2011 12:00:00 12.56 C 3.42 g/m*3 12.56 C 0 km/h
1790 26-03-2011 13:00:00 13.34 C 3.24 g/m*3 13.34 C 0 km/h
1791 26-03-2011 14:00:00 14.58 C 3.1 g/m*3 14.58 C 0 km/h
1792 26-03-2011 15:00:00 15.32 C 2.95 g/m*3 15.32 C 0 km/h
1793 26-03-2011 16:00:00 12.66 C 3.46 g/m*3 12.66 C 0 km/h
1794 26-03-2011 17:00:00 11.1 C 3.87 g/m*3 11.1 C 0 km/h
1795 26-03-2011 18:00:00 9.4 C 4.12 g/m*3 9.4 C 0 km/h
1796 26-03-2011 19:00:00 8 C 4.45 g/m*3 8 C 0 km/h
1797 26-03-2011 20:00:00 6.74 C 4.54 g/m*3 6.74 C 0 km/h
1798 26-03-2011 21:00:00 6.12 C 4.73 g/m*3 6.12 C 0 km/h
1799 26-03-2011 22:00:00 5.64 C 4.83 g/m*3 5.64 C 0 km/h
1800 26-03-2011 23:00:00 5.32 C 4.84 g/m*3 5.32 C 0 km/h
Sensor: Nr:Datum:Temp:Abs-Feuchte:Windchill:Wind:
Aussen-T/F 1801 27-03-2011 00:00:00 5.06 C 4.91 g/m*3 5.06 C 0 km/h
1802 27-03-2011 01:00:00 4.98 C 4.94 g/m*3 4.98 C 0 km/h
1803 27-03-2011 02:00:00 4.82 C 4.87 g/m*3 4.82 C 0 km/h
1804 27-03-2011 04:00:00 4.88 C 4.81 g/m*3 4.88 C 0 km/h
1805 27-03-2011 05:00:00 4.68 C 4.86 g/m*3 4.68 C 0 km/h
1806 27-03-2011 06:00:00 4.4 C 4.75 g/m*3 4.4 C 0 km/h
1807 27-03-2011 07:00:00 4.4 C 4.78 g/m*3 4.4 C 0 km/h
1808 27-03-2011 08:00:00 5.56 C 4.78 g/m*3 5.56 C 0 km/h
1809 27-03-2011 09:00:00 7.16 C 4.62 g/m*3 7.16 C 0 km/h
1810 27-03-2011 10:00:00 8.34 C 4.48 g/m*3 8.34 C 0 km/h
1811 27-03-2011 11:00:00 10.02 C 4.42 g/m*3 10.02 C 0 km/h
1812 27-03-2011 12:00:00 11.32 C 4.39 g/m*3 11.32 C 0 km/h
1813 27-03-2011 13:00:00 14.1 C 4.59 g/m*3 14.1 C 0 km/h
1814 27-03-2011 14:00:00 15.86 C 4.16 g/m*3 15.86 C 0 km/h
1815 27-03-2011 15:00:00 18.86 C 3.78 g/m*3 18.86 C 0 km/h
1816 27-03-2011 16:00:00 19.96 C 3.45 g/m*3 19.96 C 0 km/h
1817 27-03-2011 17:00:00 17.8 C 3.52 g/m*3 17.8 C 0 km/h
1818 27-03-2011 18:00:00 15.46 C 3.98 g/m*3 15.46 C 0 km/h
1819 27-03-2011 19:00:00 12.36 C 4.69 g/m*3 12.36 C 0 km/h
1820 27-03-2011 20:00:00 9.06 C 4.81 g/m*3 9.06 C 0 km/h
1821 27-03-2011 21:00:00 7.78 C 4.96 g/m*3 7.78 C 0 km/h
1822 27-03-2011 22:00:00 7.74 C 4.99 g/m*3 7.74 C 0 km/h
1823 27-03-2011 23:00:00 6.7 C 5.11 g/m*3 6.7 C 0 km/h
1824 28-03-2011 00:00:00 5.46 C 5.13 g/m*3 5.46 C 0 km/h
1825 28-03-2011 01:00:00 4 C 5 g/m*3 4 C 0 km/h
Sensor: Nr:Datum:Temp:Abs-Feuchte:Windchill:Wind:
Aussen-T/F 1826 28-03-2011 02:00:00 2.8 C 4.89 g/m*3 2.8 C 0 km/h
1827 28-03-2011 03:00:00 2.14 C 4.81 g/m*3 2.14 C 0 km/h
1828 28-03-2011 04:00:00 2.68 C 5.1 g/m*3 2.68 C 0 km/h
1829 28-03-2011 05:00:00 1.84 C 4.85 g/m*3 1.84 C 0 km/h
1830 28-03-2011 06:00:00 1.14 C 4.67 g/m*3 1.14 C 0 km/h
1831 28-03-2011 07:00:00 0.62 C 4.58 g/m*3 0.62 C 0 km/h
1832 28-03-2011 08:00:00 1.14 C 4.77 g/m*3 1.14 C 0 km/h
1833 28-03-2011 09:00:00 2.42 C 5.15 g/m*3 2.42 C 0 km/h
1834 28-03-2011 10:00:00 4.66 C 5.49 g/m*3 4.66 C 0 km/h
1835 28-03-2011 11:00:00 8.6 C 4.35 g/m*3 8.6 C 0 km/h
1836 28-03-2011 12:00:00 11.28 C 3.44 g/m*3 11.28 C 0 km/h
1837 28-03-2011 13:00:00 13.88 C 3.07 g/m*3 13.88 C 0 km/h
1838 28-03-2011 14:00:00 14.58 C 2.5 g/m*3 14.58 C 0 km/h
1839 28-03-2011 15:00:00 17.22 C 2.93 g/m*3 17.22 C 0 km/h
1840 28-03-2011 16:00:00 18.94 C 3.25 g/m*3 18.94 C 0 km/h
1841 28-03-2011 17:00:00 17.94 C 3.06 g/m*3 17.94 C 0 km/h
1842 28-03-2011 18:00:00 16.12 C 2.74 g/m*3 16.12 C 0 km/h
1843 28-03-2011 19:00:00 12.38 C 2.88 g/m*3 12.38 C 0 km/h
1844 28-03-2011 20:00:00 9.38 C 3.22 g/m*3 9.38 C 0 km/h
1845 28-03-2011 21:00:00 6.9 C 3.68 g/m*3 6.9 C 0 km/h
1846 28-03-2011 22:00:00 5.7 C 3.8 g/m*3 5.7 C 0 km/h
1847 28-03-2011 23:00:00 3.52 C 3.97 g/m*3 3.52 C 0 km/h
1848 29-03-2011 00:00:00 1.3 C 3.86 g/m*3 1.3 C 0 km/h
1849 29-03-2011 01:00:00 0.46 C 3.81 g/m*3 0.46 C 0 km/h
1850 29-03-2011 02:00:00 -0.34 C 3.7 g/m*3 -0.34 C 0 km/h
Sensor: Nr:Datum:Temp:Abs-Feuchte:Windchill:Wind:
Aussen-T/F 1851 29-03-2011 03:00:00 -0.84 C 3.72 g/m*3 -0.84 C 0 km/h
1852 29-03-2011 04:00:00 -1.46 C 3.67 g/m*3 -1.46 C 0 km/h
1853 29-03-2011 05:00:00 -2 C 3.58 g/m*3 -2 C 0 km/h
1854 29-03-2011 06:00:00 -2 C 3.66 g/m*3 -2 C 0 km/h
1855 29-03-2011 07:00:00 -2.22 C 3.64 g/m*3 -2.22 C 0 km/h
1856 29-03-2011 08:00:00 -1.64 C 3.8 g/m*3 -1.64 C 0 km/h
1857 29-03-2011 09:00:00 -0.24 C 4.21 g/m*3 -0.24 C 0 km/h
1858 29-03-2011 10:00:00 2.38 C 4.69 g/m*3 2.38 C 0 km/h
1859 29-03-2011 11:00:00 6.68 C 4.34 g/m*3 6.68 C 0 km/h
1860 29-03-2011 12:00:00 10.4 C 4.12 g/m*3 10.4 C 0 km/h
1861 29-03-2011 13:00:00 16.1 C 3.73 g/m*3 16.1 C 0 km/h
1862 29-03-2011 14:00:00 18.2 C 3.17 g/m*3 18.2 C 0 km/h
1863 29-03-2011 15:00:00 20.6 C 3.58 g/m*3 20.6 C 0 km/h
1864 29-03-2011 16:00:00 23.64 C 4.26 g/m*3 23.64 C 0 km/h
1865 29-03-2011 17:00:00 21.6 C 3.79 g/m*3 21.6 C 0 km/h
1866 29-03-2011 18:00:00 20.18 C 3.49 g/m*3 20.18 C 0 km/h
1867 29-03-2011 19:00:00 14.96 C 4.3 g/m*3 14.96 C 0 km/h
1868 29-03-2011 20:00:00 10.66 C 4.68 g/m*3 10.66 C 0 km/h
1869 29-03-2011 21:00:00 8.56 C 4.78 g/m*3 8.56 C 0 km/h
1870 29-03-2011 22:00:00 7.52 C 4.78 g/m*3 7.52 C 0 km/h
1871 29-03-2011 23:00:00 5.6 C 4.71 g/m*3 5.6 C 0 km/h
1872 30-03-2011 00:00:00 4.12 C 4.54 g/m*3 4.12 C 0 km/h
1873 30-03-2011 01:00:00 3.08 C 4.57 g/m*3 3.08 C 0 km/h
1874 30-03-2011 02:00:00 3.06 C 4.79 g/m*3 3.06 C 0 km/h
1875 30-03-2011 03:00:00 1.82 C 4.53 g/m*3 1.82 C 0 km/h
Sensor: Nr:Datum:Temp:Abs-Feuchte:Windchill:Wind:
Aussen-T/F 1876 30-03-2011 04:00:00 1.02 C 4.42 g/m*3 1.02 C 0 km/h
1877 30-03-2011 05:00:00 0.64 C 4.44 g/m*3 0.64 C 0 km/h
1878 30-03-2011 06:00:00 0.14 C 4.32 g/m*3 0.14 C 0 km/h
1879 30-03-2011 07:00:00 0.62 C 4.53 g/m*3 0.62 C 0 km/h
1880 30-03-2011 08:00:00 2.94 C 5.09 g/m*3 2.94 C 0 km/h
1881 30-03-2011 09:00:00 5.08 C 4.66 g/m*3 5.08 C 0 km/h
1882 30-03-2011 10:00:00 8.5 C 4.78 g/m*3 8.5 C 0 km/h
1883 30-03-2011 11:00:00 11.28 C 4.65 g/m*3 11.28 C 0 km/h
1884 30-03-2011 12:00:00 12.7 C 5.41 g/m*3 12.7 C 0 km/h
1885 30-03-2011 13:00:00 14.46 C 5.83 g/m*3 14.46 C 0 km/h
1886 30-03-2011 14:00:00 16.16 C 5.67 g/m*3 16.16 C 0 km/h
1887 30-03-2011 15:00:00 17.16 C 5.55 g/m*3 17.16 C 0 km/h
1888 30-03-2011 16:00:00 15.96 C 5.49 g/m*3 15.96 C 0 km/h
1889 30-03-2011 17:00:00 13.94 C 7.16 g/m*3 13.94 C 0 km/h
1890 30-03-2011 18:00:00 14.16 C 7.24 g/m*3 14.16 C 0 km/h
1891 30-03-2011 19:00:00 12.7 C 6.35 g/m*3 12.7 C 0 km/h
1892 30-03-2011 20:00:00 11.5 C 6.49 g/m*3 11.5 C 0 km/h
1893 30-03-2011 21:00:00 10.36 C 6.69 g/m*3 10.36 C 0 km/h
1894 30-03-2011 22:00:00 9.8 C 6.77 g/m*3 9.8 C 0 km/h
1895 30-03-2011 23:00:00 9.52 C 7 g/m*3 9.52 C 0 km/h
1896 31-03-2011 00:00:00 10.24 C 7.33 g/m*3 10.24 C 0 km/h
1897 31-03-2011 01:00:00 9.92 C 7.37 g/m*3 9.92 C 0 km/h
1898 31-03-2011 02:00:00 9.54 C 7.15 g/m*3 9.54 C 0 km/h
1899 31-03-2011 03:00:00 9.44 C 7.24 g/m*3 9.44 C 0 km/h
1900 31-03-2011 04:00:00 10.48 C 6.95 g/m*3 10.48 C 0 km/h
Sensor: Nr:Datum:Temp:Abs-Feuchte:Windchill:Wind:
Aussen-T/F 1901 31-03-2011 05:00:00 10.46 C 6.95 g/m*3 10.46 C 0 km/h
1902 31-03-2011 06:00:00 10.4 C 7.09 g/m*3 10.4 C 0 km/h
1903 31-03-2011 07:00:00 10.5 C 7.1 g/m*3 10.5 C 0 km/h
1904 31-03-2011 08:00:00 10.88 C 7.21 g/m*3 10.88 C 0 km/h
1905 31-03-2011 09:00:00 11.4 C 7.27 g/m*3 11.4 C 0 km/h
1906 31-03-2011 10:00:00 11.86 C 7.23 g/m*3 11.86 C 0 km/h
1907 31-03-2011 11:00:00 11.46 C 7.56 g/m*3 11.46 C 0 km/h
1908 31-03-2011 12:00:00 11.62 C 8.2 g/m*3 11.62 C 0 km/h
1909 31-03-2011 13:00:00 12.02 C 8.32 g/m*3 12.02 C 0 km/h
1910 31-03-2011 14:00:00 12.1 C 8.41 g/m*3 12.1 C 0 km/h
1911 31-03-2011 15:00:00 13.06 C 8.51 g/m*3 13.06 C 0 km/h
1912 31-03-2011 16:00:00 14.76 C 8.42 g/m*3 14.76 C 0 km/h
1913 31-03-2011 17:00:00 14.48 C 8.4 g/m*3 14.48 C 0 km/h
1914 31-03-2011 18:00:00 13.82 C 8.73 g/m*3 13.82 C 0 km/h
1915 31-03-2011 19:00:00 14.2 C 8.6 g/m*3 14.2 C 0 km/h
1916 31-03-2011 20:00:00 13.82 C 8.4 g/m*3 13.82 C 0 km/h
1917 31-03-2011 21:00:00 14.06 C 8.5 g/m*3 14.06 C 0 km/h
1918 31-03-2011 22:00:00 14.22 C 8.26 g/m*3 14.22 C 0 km/h
1919 31-03-2011 23:00:00 14.18 C 8.42 g/m*3 14.18 C 0 km/h
1920 01-04-2011 00:00:00 13.68 C 8.63 g/m*3 13.68 C 0 km/h
1921 01-04-2011 01:00:00 13.08 C 8.57 g/m*3 13.08 C 0 km/h
1922 01-04-2011 02:00:00 11.96 C 8.59 g/m*3 11.96 C 0 km/h
1923 01-04-2011 03:00:00 12.36 C 8.52 g/m*3 12.36 C 0 km/h
1924 01-04-2011 04:00:00 12.06 C 8.3 g/m*3 12.06 C 0 km/h
1925 01-04-2011 05:00:00 11.34 C 8.08 g/m*3 11.34 C 0 km/h
Sensor: Nr:Datum:Temp:Abs-Feuchte:Windchill:Wind:
Aussen-T/F 1926 01-04-2011 06:00:00 10.14 C 7.96 g/m*3 10.14 C 0 km/h
1927 01-04-2011 07:00:00 10.22 C 8.08 g/m*3 10.22 C 0 km/h
1928 01-04-2011 08:00:00 10.86 C 8.43 g/m*3 10.86 C 0 km/h
1929 01-04-2011 09:00:00 12.74 C 8.39 g/m*3 12.74 C 0 km/h
1930 01-04-2011 10:00:00 15.36 C 8 g/m*3 15.36 C 0 km/h
1931 01-04-2011 11:00:00 15.9 C 7.88 g/m*3 15.9 C 0 km/h
1932 01-04-2011 12:00:00 16.92 C 7.95 g/m*3 16.92 C 0 km/h
1933 01-04-2011 13:00:00 16.92 C 8.01 g/m*3 16.92 C 0 km/h
1934 01-04-2011 14:00:00 18.32 C 7.8 g/m*3 18.32 C 0 km/h
1935 01-04-2011 15:00:00 18.68 C 7.48 g/m*3 18.68 C 0 km/h
1936 01-04-2011 16:00:00 18.6 C 7.29 g/m*3 18.6 C 0 km/h
1937 01-04-2011 17:00:00 17.18 C 7.61 g/m*3 17.18 C 0 km/h
1938 01-04-2011 18:00:00 16.54 C 7.69 g/m*3 16.54 C 0 km/h
1939 01-04-2011 19:00:00 15.6 C 7.93 g/m*3 15.6 C 0 km/h
1940 01-04-2011 20:00:00 14.28 C 8.15 g/m*3 14.28 C 0 km/h
1941 01-04-2011 21:00:00 12.2 C 8.16 g/m*3 12.2 C 0 km/h
1942 01-04-2011 22:00:00 10.86 C 8.24 g/m*3 10.86 C 0 km/h
1943 01-04-2011 23:00:00 9.84 C 7.98 g/m*3 9.84 C 0 km/h
1944 02-04-2011 00:00:00 8.82 C 7.7 g/m*3 8.82 C 0 km/h
1945 02-04-2011 01:00:00 8.06 C 7.42 g/m*3 8.06 C 0 km/h
1946 02-04-2011 02:00:00 7.38 C 7.15 g/m*3 7.38 C 0 km/h
1947 02-04-2011 03:00:00 6.4 C 6.78 g/m*3 6.4 C 0 km/h
1948 02-04-2011 04:00:00 6.38 C 6.8 g/m*3 6.38 C 0 km/h
1949 02-04-2011 05:00:00 6.52 C 6.91 g/m*3 6.52 C 0 km/h
1950 02-04-2011 06:00:00 6.6 C 6.96 g/m*3 6.6 C 0 km/h
Sensor: Nr:Datum:Temp:Abs-Feuchte:Windchill:Wind:
Aussen-T/F 1951 02-04-2011 07:00:00 6.3 C 6.84 g/m*3 6.3 C 0 km/h
1952 02-04-2011 08:00:00 6.36 C 6.91 g/m*3 6.36 C 0 km/h
1953 02-04-2011 09:00:00 7.46 C 7.36 g/m*3 7.46 C 0 km/h
1954 02-04-2011 10:00:00 9 C 7.74 g/m*3 9 C 0 km/h
1955 02-04-2011 11:00:00 12.12 C 8.74 g/m*3 12.12 C 0 km/h
1956 02-04-2011 12:00:00 17.68 C 8.53 g/m*3 17.68 C 0 km/h
1957 02-04-2011 13:00:00 22.24 C 7.04 g/m*3 22.24 C 0 km/h
1958 02-04-2011 14:00:00 23.76 C 6.22 g/m*3 23.76 C 0 km/h
1959 02-04-2011 15:00:00 27.42 C 5.64 g/m*3 27.42 C 0 km/h
1960 02-04-2011 16:00:00 29.94 C 6.05 g/m*3 29.94 C 0 km/h
1961 02-04-2011 17:00:00 28.22 C 5.67 g/m*3 28.22 C 0 km/h
1962 02-04-2011 18:00:00 23.66 C 6.87 g/m*3 23.66 C 0 km/h
1963 02-04-2011 19:00:00 19.58 C 7.96 g/m*3 19.58 C 0 km/h
1964 02-04-2011 20:00:00 16.26 C 7.75 g/m*3 16.26 C 0 km/h
1965 02-04-2011 21:00:00 15.18 C 7.73 g/m*3 15.18 C 0 km/h
1966 02-04-2011 22:00:00 13.74 C 7.72 g/m*3 13.74 C 0 km/h
1967 02-04-2011 23:00:00 12.16 C 7.56 g/m*3 12.16 C 0 km/h
1968 03-04-2011 00:00:00 10.3 C 7.36 g/m*3 10.3 C 0 km/h
1969 03-04-2011 01:00:00 9.06 C 7.35 g/m*3 9.06 C 0 km/h
1970 03-04-2011 02:00:00 8.5 C 7.33 g/m*3 8.5 C 0 km/h
1971 03-04-2011 03:00:00 8.32 C 7.34 g/m*3 8.32 C 0 km/h
1972 03-04-2011 04:00:00 9 C 7.67 g/m*3 9 C 0 km/h
1973 03-04-2011 05:00:00 9.56 C 7.73 g/m*3 9.56 C 0 km/h
1974 03-04-2011 06:00:00 8.86 C 7.29 g/m*3 8.86 C 0 km/h
1975 03-04-2011 07:00:00 8.8 C 7.49 g/m*3 8.8 C 0 km/h
Sensor: Nr:Datum:Temp:Abs-Feuchte:Windchill:Wind:
Aussen-T/F 1976 03-04-2011 08:00:00 10.1 C 7.6 g/m*3 10.1 C 0 km/h
1977 03-04-2011 09:00:00 11.56 C 7.4 g/m*3 11.56 C 0 km/h
1978 03-04-2011 10:00:00 13.38 C 7.55 g/m*3 13.38 C 0 km/h
1979 03-04-2011 11:00:00 15.94 C 7.49 g/m*3 15.94 C 0 km/h
1980 03-04-2011 12:00:00 16.82 C 7.47 g/m*3 16.82 C 0 km/h
1981 03-04-2011 13:00:00 19 C 7.5 g/m*3 19 C 0 km/h
1982 03-04-2011 14:00:00 19.18 C 7.41 g/m*3 19.18 C 0 km/h
1983 03-04-2011 15:00:00 15.04 C 7.76 g/m*3 15.04 C 0 km/h
1984 03-04-2011 16:00:00 11.92 C 8.5 g/m*3 11.92 C 0 km/h
1985 03-04-2011 17:00:00 12.12 C 8.95 g/m*3 12.12 C 0 km/h
1986 03-04-2011 18:00:00 12.24 C 8.85 g/m*3 12.24 C 0 km/h
1987 03-04-2011 19:00:00 11.42 C 8.72 g/m*3 11.42 C 0 km/h
1988 03-04-2011 20:00:00 11 C 8.67 g/m*3 11 C 0 km/h
1989 03-04-2011 21:00:00 10.72 C 8.69 g/m*3 10.72 C 0 km/h
1990 03-04-2011 22:00:00 10.6 C 8.69 g/m*3 10.6 C 0 km/h
1991 03-04-2011 23:00:00 10.04 C 8.29 g/m*3 10.04 C 0 km/h
1992 04-04-2011 00:00:00 9.56 C 8.04 g/m*3 9.56 C 0 km/h
1993 04-04-2011 01:00:00 8.8 C 7.56 g/m*3 8.8 C 0 km/h
1994 04-04-2011 02:00:00 8.16 C 7.08 g/m*3 8.16 C 0 km/h
1995 04-04-2011 03:00:00 7.78 C 7.19 g/m*3 7.78 C 0 km/h
1996 04-04-2011 04:00:00 7.48 C 7.18 g/m*3 7.48 C 0 km/h
1997 04-04-2011 05:00:00 7.14 C 7.12 g/m*3 7.14 C 0 km/h
1998 04-04-2011 06:00:00 7.16 C 7.12 g/m*3 7.16 C 0 km/h
1999 04-04-2011 07:00:00 7.1 C 7.11 g/m*3 7.1 C 0 km/h
2000 04-04-2011 08:00:00 7.94 C 7.43 g/m*3 7.94 C 0 km/h
Sensor: Nr:Datum:Temp:Abs-Feuchte:Windchill:Wind:
Aussen-T/F 2001 04-04-2011 09:00:00 9.26 C 7.06 g/m*3 9.26 C 0 km/h
2002 04-04-2011 10:00:00 10.58 C 6.43 g/m*3 10.58 C 0 km/h
2003 04-04-2011 11:00:00 11.34 C 6.01 g/m*3 11.34 C 0 km/h
2004 04-04-2011 12:00:00 13.26 C 5.88 g/m*3 13.26 C 0 km/h
2005 04-04-2011 13:00:00 14.04 C 5.68 g/m*3 14.04 C 0 km/h
2006 04-04-2011 14:00:00 14.88 C 4.86 g/m*3 14.88 C 0 km/h
2007 04-04-2011 15:00:00 15.94 C 4.72 g/m*3 15.94 C 0 km/h
2008 04-04-2011 16:00:00 16.46 C 4.68 g/m*3 16.46 C 0 km/h
2009 04-04-2011 17:00:00 16.72 C 4.27 g/m*3 16.72 C 0 km/h
2010 04-04-2011 18:00:00 13.52 C 4.59 g/m*3 13.52 C 0 km/h
2011 04-04-2011 19:00:00 11.5 C 5.37 g/m*3 11.5 C 0 km/h
2012 04-04-2011 20:00:00 10.66 C 5.78 g/m*3 10.66 C 0 km/h
2013 04-04-2011 21:00:00 9.28 C 6.32 g/m*3 9.28 C 0 km/h
2014 04-04-2011 22:00:00 9.02 C 6.44 g/m*3 9.02 C 0 km/h
2015 04-04-2011 23:00:00 8.82 C 6.59 g/m*3 8.82 C 0 km/h
2016 05-04-2011 00:00:00 8.18 C 6.41 g/m*3 8.18 C 0 km/h
2017 05-04-2011 01:00:00 6.52 C 6.32 g/m*3 6.52 C 0 km/h
2018 05-04-2011 02:00:00 5.44 C 6.06 g/m*3 5.44 C 0 km/h
2019 05-04-2011 03:00:00 4.22 C 5.7 g/m*3 4.22 C 0 km/h
2020 05-04-2011 04:00:00 3.7 C 5.56 g/m*3 3.7 C 0 km/h
2021 05-04-2011 05:00:00 2.54 C 5.26 g/m*3 2.54 C 0 km/h
2022 05-04-2011 06:00:00 1.52 C 4.95 g/m*3 1.52 C 0 km/h
2023 05-04-2011 07:00:00 2.32 C 5.24 g/m*3 2.32 C 0 km/h
2024 05-04-2011 08:00:00 4.7 C 6.05 g/m*3 4.7 C 0 km/h
2025 05-04-2011 09:00:00 6.94 C 6.11 g/m*3 6.94 C 0 km/h
Sensor: Nr:Datum:Temp:Abs-Feuchte:Windchill:Wind:
Aussen-T/F 2026 05-04-2011 10:00:00 10.04 C 5.86 g/m*3 10.04 C 0 km/h
2027 05-04-2011 11:00:00 12.34 C 5.53 g/m*3 12.34 C 0 km/h
2028 05-04-2011 12:00:00 13.64 C 5.17 g/m*3 13.64 C 0 km/h
2029 05-04-2011 13:00:00 14.54 C 5.01 g/m*3 14.54 C 0 km/h
2030 05-04-2011 14:00:00 14.18 C 5.07 g/m*3 14.18 C 0 km/h
2031 05-04-2011 15:00:00 14.6 C 5.06 g/m*3 14.6 C 0 km/h
2032 05-04-2011 16:00:00 14.48 C 5.14 g/m*3 14.48 C 0 km/h
2033 05-04-2011 17:00:00 15.4 C 5.05 g/m*3 15.4 C 0 km/h
2034 05-04-2011 18:00:00 14.9 C 5 g/m*3 14.9 C 0 km/h
2035 05-04-2011 19:00:00 14.3 C 5.18 g/m*3 14.3 C 0 km/h
2036 05-04-2011 20:00:00 11.12 C 6.43 g/m*3 11.12 C 0 km/h
2037 05-04-2011 21:00:00 9.42 C 7.57 g/m*3 9.42 C 0 km/h
2038 05-04-2011 22:00:00 9.2 C 7.79 g/m*3 9.2 C 0 km/h
2039 05-04-2011 23:00:00 9.16 C 7.84 g/m*3 9.16 C 0 km/h
2040 06-04-2011 00:00:00 9.3 C 7.91 g/m*3 9.3 C 0 km/h
2041 06-04-2011 01:00:00 9.5 C 8.01 g/m*3 9.5 C 0 km/h
2042 06-04-2011 02:00:00 9.64 C 7.97 g/m*3 9.64 C 0 km/h
2043 06-04-2011 03:00:00 9.72 C 7.86 g/m*3 9.72 C 0 km/h
2044 06-04-2011 04:00:00 10.04 C 7.63 g/m*3 10.04 C 0 km/h
2045 06-04-2011 05:00:00 10.2 C 7.52 g/m*3 10.2 C 0 km/h
2046 06-04-2011 06:00:00 10.36 C 7.52 g/m*3 10.36 C 0 km/h
2047 06-04-2011 07:00:00 10.78 C 7.38 g/m*3 10.78 C 0 km/h
2048 06-04-2011 08:00:00 11.82 C 7.25 g/m*3 11.82 C 0 km/h
2049 06-04-2011 09:00:00 12.88 C 7.29 g/m*3 12.88 C 0 km/h
2050 06-04-2011 10:00:00 14.52 C 7.17 g/m*3 14.52 C 0 km/h
Sensor: Nr:Datum:Temp:Abs-Feuchte:Windchill:Wind:
Aussen-T/F 2051 06-04-2011 11:00:00 15.56 C 7.32 g/m*3 15.56 C 0 km/h
2052 06-04-2011 12:00:00 17.48 C 7.59 g/m*3 17.48 C 0 km/h
2053 06-04-2011 13:00:00 19.46 C 7.9 g/m*3 19.46 C 0 km/h
2054 06-04-2011 14:00:00 21.18 C 8.14 g/m*3 21.18 C 0 km/h
2055 06-04-2011 15:00:00 24.9 C 7.69 g/m*3 24.9 C 0 km/h
2056 06-04-2011 16:00:00 26.26 C 7.61 g/m*3 26.26 C 0 km/h
2057 06-04-2011 17:00:00 27.08 C 7.34 g/m*3 27.08 C 0 km/h
2058 06-04-2011 18:00:00 25.2 C 7.54 g/m*3 25.2 C 0 km/h
2059 06-04-2011 19:00:00 20.82 C 9.06 g/m*3 20.82 C 0 km/h
2060 06-04-2011 20:00:00 17.3 C 9.52 g/m*3 17.3 C 0 km/h
2061 06-04-2011 21:00:00 15.92 C 9.65 g/m*3 15.92 C 0 km/h
2062 06-04-2011 22:00:00 14.12 C 9.48 g/m*3 14.12 C 0 km/h
2063 06-04-2011 23:00:00 12.56 C 9.16 g/m*3 12.56 C 0 km/h
2064 07-04-2011 00:00:00 11.8 C 9.03 g/m*3 11.8 C 0 km/h
2065 07-04-2011 01:00:00 11.14 C 8.81 g/m*3 11.14 C 0 km/h
2066 07-04-2011 02:00:00 10.275 C 8.41 g/m*3 10.28 C 0 km/h
2067 07-04-2011 03:00:00 10.08 C 8.35 g/m*3 10.08 C 0 km/h
2068 07-04-2011 04:00:00 10.34 C 8.6 g/m*3 10.34 C 0 km/h
2069 07-04-2011 05:00:00 9.56 C 8.3 g/m*3 9.56 C 0 km/h
2070 07-04-2011 06:00:00 9.44 C 8.25 g/m*3 9.44 C 0 km/h
2071 07-04-2011 07:00:00 9.96 C 8.51 g/m*3 9.96 C 0 km/h
2072 07-04-2011 08:00:00 11.5 C 9.38 g/m*3 11.5 C 0 km/h
2073 07-04-2011 09:00:00 13.5 C 9.83 g/m*3 13.5 C 0 km/h
2074 07-04-2011 10:00:00 16.78 C 9.22 g/m*3 16.78 C 0 km/h
2075 07-04-2011 11:00:00 18.74 C 8.83 g/m*3 18.74 C 0 km/h
Sensor: Nr:Datum:Temp:Abs-Feuchte:Windchill:Wind:
Aussen-T/F 2076 07-04-2011 12:00:00 20.04 C 7.59 g/m*3 20.04 C 0 km/h
2077 07-04-2011 13:00:00 21.04 C 6.24 g/m*3 21.04 C 0 km/h
2078 07-04-2011 14:00:00 22.8 C 4.67 g/m*3 22.8 C 0 km/h
2079 07-04-2011 15:00:00 26.08 C 4.89 g/m*3 26.08 C 0 km/h
2080 07-04-2011 16:00:00 26.92 C 5.12 g/m*3 26.92 C 0 km/h
2081 07-04-2011 17:00:00 24.16 C 4.39 g/m*3 24.16 C 0 km/h
2082 07-04-2011 18:00:00 22.9 C 4.78 g/m*3 22.9 C 0 km/h
2083 07-04-2011 19:00:00 20.36 C 6 g/m*3 20.36 C 0 km/h
2084 07-04-2011 20:00:00 17.92 C 7.12 g/m*3 17.92 C 0 km/h
2085 07-04-2011 21:00:00 16.28 C 7.43 g/m*3 16.28 C 0 km/h
2086 07-04-2011 22:00:00 15.34 C 7.46 g/m*3 15.34 C 0 km/h
2087 07-04-2011 23:00:00 14.3 C 7.52 g/m*3 14.3 C 0 km/h
2088 08-04-2011 00:00:00 13.86 C 7.22 g/m*3 13.86 C 0 km/h
2089 08-04-2011 01:00:00 12.38 C 6.87 g/m*3 12.38 C 0 km/h
2090 08-04-2011 02:00:00 10.48 C 6.82 g/m*3 10.48 C 0 km/h
2091 08-04-2011 03:00:00 9.12 C 6.81 g/m*3 9.12 C 0 km/h
2092 08-04-2011 04:00:00 8.04 C 6.61 g/m*3 8.04 C 0 km/h
2093 08-04-2011 05:00:00 9 C 6.59 g/m*3 9 C 0 km/h
2094 08-04-2011 06:00:00 8.5 C 6.47 g/m*3 8.5 C 0 km/h
2095 08-04-2011 07:00:00 7.12 C 6.56 g/m*3 7.12 C 0 km/h
2096 08-04-2011 08:00:00 8.22 C 6.88 g/m*3 8.22 C 0 km/h
2097 08-04-2011 09:00:00 9.44 C 6.4 g/m*3 9.44 C 0 km/h
2098 08-04-2011 10:00:00 10.82 C 6.02 g/m*3 10.82 C 0 km/h
2099 08-04-2011 11:00:00 12.4 C 5.57 g/m*3 12.4 C 0 km/h
2100 08-04-2011 12:00:00 14.04 C 5.18 g/m*3 14.04 C 0 km/h
Sensor: Nr:Datum:Temp:Abs-Feuchte:Windchill:Wind:
Aussen-T/F 2101 08-04-2011 13:00:00 16.04 C 5.11 g/m*3 16.04 C 0 km/h
2102 08-04-2011 14:00:00 17.86 C 4.75 g/m*3 17.86 C 0 km/h
2103 08-04-2011 15:00:00 22.5 C 4.27 g/m*3 22.5 C 0 km/h
2104 08-04-2011 16:00:00 23.34 C 4.28 g/m*3 23.34 C 0 km/h
2105 08-04-2011 17:00:00 21.74 C 5.05 g/m*3 21.74 C 0 km/h
2106 08-04-2011 18:00:00 19.82 C 5.34 g/m*3 19.82 C 0 km/h
2107 08-04-2011 19:00:00 16.9 C 6.04 g/m*3 16.9 C 0 km/h
2108 08-04-2011 20:00:00 14.84 C 6.55 g/m*3 14.84 C 0 km/h
2109 08-04-2011 21:00:00 13.24 C 6.88 g/m*3 13.24 C 0 km/h
2110 08-04-2011 22:00:00 12.44 C 7.03 g/m*3 12.44 C 0 km/h
2111 08-04-2011 23:00:00 11.68 C 7.04 g/m*3 11.68 C 0 km/h
2112 09-04-2011 00:00:00 11.34 C 6.54 g/m*3 11.34 C 0 km/h
2113 09-04-2011 01:00:00 10.72 C 6.16 g/m*3 10.72 C 0 km/h
2114 09-04-2011 02:00:00 9.86 C 5.9 g/m*3 9.86 C 0 km/h
2115 09-04-2011 03:00:00 8.56 C 5.76 g/m*3 8.56 C 0 km/h
2116 09-04-2011 04:00:00 7.54 C 5.99 g/m*3 7.54 C 0 km/h
2117 09-04-2011 05:00:00 8.04 C 6.27 g/m*3 8.04 C 0 km/h
2118 09-04-2011 06:00:00 8.52 C 6.09 g/m*3 8.52 C 0 km/h
2119 09-04-2011 07:00:00 8.34 C 5.97 g/m*3 8.34 C 0 km/h
2120 09-04-2011 08:00:00 9.14 C 5.71 g/m*3 9.14 C 0 km/h
2121 09-04-2011 09:00:00 9.9 C 5.43 g/m*3 9.9 C 0 km/h
2122 09-04-2011 10:00:00 10.16 C 5.3 g/m*3 10.16 C 0 km/h
2123 09-04-2011 11:00:00 11.14 C 5.11 g/m*3 11.14 C 0 km/h
2124 09-04-2011 12:00:00 12.34 C 4.88 g/m*3 12.34 C 0 km/h
2125 09-04-2011 13:00:00 14.64 C 4.64 g/m*3 14.64 C 0 km/h
Sensor: Nr:Datum:Temp:Abs-Feuchte:Windchill:Wind:
Aussen-T/F 2126 09-04-2011 14:00:00 17.08 C 4.22 g/m*3 17.08 C 0 km/h
2127 09-04-2011 15:00:00 20.28 C 3.79 g/m*3 20.28 C 0 km/h
2128 09-04-2011 16:00:00 23.72 C 4.28 g/m*3 23.72 C 0 km/h
2129 09-04-2011 17:00:00 24.14 C 4.39 g/m*3 24.14 C 0 km/h
2130 09-04-2011 18:00:00 22.84 C 4.07 g/m*3 22.84 C 0 km/h
2131 09-04-2011 19:00:00 18.48 C 3.86 g/m*3 18.48 C 0 km/h
2132 09-04-2011 20:00:00 13.8 C 4.55 g/m*3 13.8 C 0 km/h
2133 09-04-2011 21:00:00 12.02 C 4.76 g/m*3 12.02 C 0 km/h
2134 09-04-2011 22:00:00 10.18 C 5.15 g/m*3 10.18 C 0 km/h
2135 09-04-2011 23:00:00 8.48 C 5.22 g/m*3 8.48 C 0 km/h
2136 10-04-2011 00:00:00 6.78 C 5.18 g/m*3 6.78 C 0 km/h
2137 10-04-2011 01:00:00 5.32 C 4.96 g/m*3 5.32 C 0 km/h
2138 10-04-2011 02:00:00 4.54 C 4.96 g/m*3 4.54 C 0 km/h
2139 10-04-2011 03:00:00 4.06 C 5.04 g/m*3 4.06 C 0 km/h
2140 10-04-2011 04:00:00 3.48 C 5.07 g/m*3 3.48 C 0 km/h
2141 10-04-2011 05:00:00 2.9 C 5 g/m*3 2.9 C 0 km/h
2142 10-04-2011 06:00:00 2.52 C 4.98 g/m*3 2.52 C 0 km/h
2143 10-04-2011 07:00:00 2.82 C 5.17 g/m*3 2.82 C 0 km/h
2144 10-04-2011 08:00:00 4.08 C 5.59 g/m*3 4.08 C 0 km/h
2145 10-04-2011 09:00:00 5.8 C 5.99 g/m*3 5.8 C 0 km/h
2146 10-04-2011 10:00:00 8.98 C 5.95 g/m*3 8.98 C 0 km/h
2147 10-04-2011 11:00:00 12.46 C 5.42 g/m*3 12.46 C 0 km/h
2148 10-04-2011 12:00:00 15.26 C 4.95 g/m*3 15.26 C 0 km/h
2149 10-04-2011 13:00:00 18.54 C 4.54 g/m*3 18.54 C 0 km/h
2150 10-04-2011 14:00:00 21.9 C 4.05 g/m*3 21.9 C 0 km/h
Sensor: Nr:Datum:Temp:Abs-Feuchte:Windchill:Wind:
Aussen-T/F 2151 10-04-2011 15:00:00 27.1 C 5.18 g/m*3 27.1 C 0 km/h
2152 10-04-2011 16:00:00 28.18 C 5.49 g/m*3 28.18 C 0 km/h
2153 10-04-2011 17:00:00 26.9 C 5.12 g/m*3 26.9 C 0 km/h
2154 10-04-2011 18:00:00 25.82 C 4.92 g/m*3 25.82 C 0 km/h
2155 10-04-2011 19:00:00 20.38 C 5.05 g/m*3 20.38 C 0 km/h
2156 10-04-2011 20:00:00 14.7 C 5.09 g/m*3 14.7 C 0 km/h
2157 10-04-2011 21:00:00 12.36 C 5.51 g/m*3 12.36 C 0 km/h
2158 10-04-2011 22:00:00 10.68 C 5.59 g/m*3 10.68 C 0 km/h
2159 10-04-2011 23:00:00 9.22 C 5.49 g/m*3 9.22 C 0 km/h
2160 11-04-2011 00:00:00 8.14 C 5.56 g/m*3 8.14 C 0 km/h
2161 11-04-2011 01:00:00 7.28 C 5.65 g/m*3 7.28 C 0 km/h
2162 11-04-2011 02:00:00 6.52 C 5.78 g/m*3 6.52 C 0 km/h
2163 11-04-2011 03:00:00 6.06 C 5.95 g/m*3 6.06 C 0 km/h
2164 11-04-2011 04:00:00 5.24 C 5.8 g/m*3 5.24 C 0 km/h
2165 11-04-2011 05:00:00 4.78 C 5.8 g/m*3 4.78 C 0 km/h
2166 11-04-2011 06:00:00 4.36 C 5.76 g/m*3 4.36 C 0 km/h
2167 11-04-2011 07:00:00 4.58 C 5.88 g/m*3 4.58 C 0 km/h
2168 11-04-2011 08:00:00 5.86 C 6.33 g/m*3 5.86 C 0 km/h
2169 11-04-2011 09:00:00 7.74 C 6.65 g/m*3 7.74 C 0 km/h
2170 11-04-2011 10:00:00 10.68 C 6.59 g/m*3 10.68 C 0 km/h
2171 11-04-2011 11:00:00 15.64 C 6.16 g/m*3 15.64 C 0 km/h
2172 11-04-2011 12:00:00 19.54 C 5.79 g/m*3 19.54 C 0 km/h
2173 11-04-2011 13:00:00 21.76 C 4.02 g/m*3 21.76 C 0 km/h
2174 11-04-2011 14:00:00 23.64 C 4.26 g/m*3 23.64 C 0 km/h
2175 11-04-2011 15:00:00 27.46 C 5.28 g/m*3 27.46 C 0 km/h
Sensor: Nr:Datum:Temp:Abs-Feuchte:Windchill:Wind:
Aussen-T/F 2176 11-04-2011 16:00:00 28.54 C 5.6 g/m*3 28.54 C 0 km/h
2177 11-04-2011 17:00:00 27.16 C 5.19 g/m*3 27.16 C 0 km/h
2178 11-04-2011 18:00:00 25.8 C 5.1 g/m*3 25.8 C 0 km/h
2179 11-04-2011 19:00:00 21.48 C 6.03 g/m*3 21.48 C 0 km/h
2180 11-04-2011 20:00:00 19.8 C 6.11 g/m*3 19.8 C 0 km/h
2181 11-04-2011 21:00:00 18.82 C 6.51 g/m*3 18.82 C 0 km/h
2182 11-04-2011 22:00:00 17.62 C 6.58 g/m*3 17.62 C 0 km/h
2183 11-04-2011 23:00:00 15.82 C 6.25 g/m*3 15.82 C 0 km/h
2184 12-04-2011 00:00:00 15.4 C 6.18 g/m*3 15.4 C 0 km/h
2185 12-04-2011 01:00:00 14.94 C 6.26 g/m*3 14.94 C 0 km/h
2186 12-04-2011 02:00:00 14.34 C 6.68 g/m*3 14.34 C 0 km/h
2187 12-04-2011 03:00:00 13.88 C 6.8 g/m*3 13.88 C 0 km/h
2188 12-04-2011 04:00:00 10.38 C 6.74 g/m*3 10.38 C 0 km/h
2189 12-04-2011 05:00:00 9.4 C 6.44 g/m*3 9.4 C 0 km/h
2190 12-04-2011 06:00:00 9.12 C 6.06 g/m*3 9.12 C 0 km/h
2191 12-04-2011 07:00:00 8.58 C 5.89 g/m*3 8.58 C 0 km/h
2192 12-04-2011 08:00:00 9.58 C 5.76 g/m*3 9.58 C 0 km/h
2193 12-04-2011 09:00:00 10.2 C 5.71 g/m*3 10.2 C 0 km/h
2194 12-04-2011 10:00:00 10.02 C 5.08 g/m*3 10.02 C 0 km/h
2195 12-04-2011 11:00:00 10.54 C 5.02 g/m*3 10.54 C 0 km/h
2196 12-04-2011 12:00:00 9.52 C 5.16 g/m*3 9.52 C 0 km/h
2197 12-04-2011 13:00:00 9.38 C 5.17 g/m*3 9.38 C 0 km/h
2198 12-04-2011 14:00:00 9.22 C 5.4 g/m*3 9.22 C 0 km/h
2199 12-04-2011 15:00:00 12.3 C 4.58 g/m*3 12.3 C 0 km/h
2200 12-04-2011 16:00:00 11.96 C 5.1 g/m*3 11.96 C 0 km/h
Sensor: Nr:Datum:Temp:Abs-Feuchte:Windchill:Wind:
Aussen-T/F 2201 12-04-2011 17:00:00 11.18 C 4.9 g/m*3 11.18 C 0 km/h
2202 12-04-2011 18:00:00 12.48 C 5.58 g/m*3 12.48 C 0 km/h
2203 12-04-2011 19:00:00 9.1 C 5.31 g/m*3 9.1 C 0 km/h
2204 12-04-2011 20:00:00 7.6 C 3.98 g/m*3 7.6 C 0 km/h
2205 12-04-2011 21:00:00 6.8 C 3.98 g/m*3 6.8 C 0 km/h
2206 12-04-2011 22:00:00 5.54 C 4.38 g/m*3 5.54 C 0 km/h
2207 12-04-2011 23:00:00 5.24 C 4.67 g/m*3 5.24 C 0 km/h
2208 13-04-2011 00:00:00 4.6 C 4.45 g/m*3 4.6 C 0 km/h
2209 13-04-2011 01:00:00 4.66 C 4.54 g/m*3 4.66 C 0 km/h
2210 13-04-2011 02:00:00 3.32 C 4.73 g/m*3 3.32 C 0 km/h
2211 13-04-2011 03:00:00 2.48 C 4.72 g/m*3 2.48 C 0 km/h
2212 13-04-2011 04:00:00 1.74 C 4.72 g/m*3 1.74 C 0 km/h
2213 13-04-2011 05:00:00 1.9 C 4.86 g/m*3 1.9 C 0 km/h
2214 13-04-2011 06:00:00 1.74 C 4.8 g/m*3 1.74 C 0 km/h
2215 13-04-2011 07:00:00 2.06 C 4.87 g/m*3 2.06 C 0 km/h
2216 13-04-2011 08:00:00 2.9 C 4.97 g/m*3 2.9 C 0 km/h
2217 13-04-2011 09:00:00 5.86 C 4.83 g/m*3 5.86 C 0 km/h
2218 13-04-2011 10:00:00 9.02 C 4.03 g/m*3 9.02 C 0 km/h
2219 13-04-2011 11:00:00 10.28 C 3.75 g/m*3 10.28 C 0 km/h
2220 13-04-2011 12:00:00 11.32 C 3.37 g/m*3 11.32 C 0 km/h
2221 13-04-2011 13:00:00 13.2 C 3.08 g/m*3 13.2 C 0 km/h
2222 13-04-2011 14:00:00 13.96 C 2.55 g/m*3 13.96 C 0 km/h
2223 13-04-2011 15:00:00 15.24 C 2.73 g/m*3 15.24 C 0 km/h
2224 13-04-2011 16:00:00 13.22 C 3.01 g/m*3 13.22 C 0 km/h
2225 13-04-2011 17:00:00 13.24 C 3.18 g/m*3 13.24 C 0 km/h
Sensor: Nr:Datum:Temp:Abs-Feuchte:Windchill:Wind:
Aussen-T/F 2226 13-04-2011 18:00:00 12.72 C 3.23 g/m*3 12.72 C 0 km/h
2227 13-04-2011 19:00:00 10.66 C 3.9 g/m*3 10.66 C 0 km/h
2228 13-04-2011 20:00:00 8.3 C 4 g/m*3 8.3 C 0 km/h
2229 13-04-2011 21:00:00 7.76 C 3.97 g/m*3 7.76 C 0 km/h
2230 13-04-2011 22:00:00 6.48 C 4.43 g/m*3 6.48 C 0 km/h
2231 13-04-2011 23:00:00 5.76 C 4.6 g/m*3 5.76 C 0 km/h
2232 14-04-2011 00:00:00 4.44 C 4.56 g/m*3 4.44 C 0 km/h
2233 14-04-2011 01:00:00 3.92 C 4.67 g/m*3 3.92 C 0 km/h
2234 14-04-2011 02:00:00 3.12 C 4.65 g/m*3 3.12 C 0 km/h
2235 14-04-2011 03:00:00 2.7 C 4.77 g/m*3 2.7 C 0 km/h
2236 14-04-2011 04:00:00 3.66 C 4.82 g/m*3 3.66 C 0 km/h
2237 14-04-2011 05:00:00 3.76 C 4.71 g/m*3 3.76 C 0 km/h
2238 14-04-2011 06:00:00 3.9 C 4.79 g/m*3 3.9 C 0 km/h
2239 14-04-2011 07:00:00 4.52 C 4.9 g/m*3 4.52 C 0 km/h
2240 14-04-2011 08:00:00 5.46 C 4.92 g/m*3 5.46 C 0 km/h
2241 14-04-2011 09:00:00 7.18 C 4.7 g/m*3 7.18 C 0 km/h
2242 14-04-2011 10:00:00 9.08 C 4.68 g/m*3 9.08 C 0 km/h
2243 14-04-2011 11:00:00 11 C 3.86 g/m*3 11 C 0 km/h
2244 14-04-2011 12:00:00 13.82 C 3.27 g/m*3 13.82 C 0 km/h
2245 14-04-2011 13:00:00 14.28 C 3.02 g/m*3 14.28 C 0 km/h
2246 14-04-2011 14:00:00 15.04 C 2.91 g/m*3 15.04 C 0 km/h
2247 14-04-2011 15:00:00 14.88 C 2.9 g/m*3 14.88 C 0 km/h
2248 14-04-2011 16:00:00 15.38 C 2.83 g/m*3 15.38 C 0 km/h
2249 14-04-2011 17:00:00 15.04 C 2.6 g/m*3 15.04 C 0 km/h
2250 14-04-2011 18:00:00 14.26 C 2.77 g/m*3 14.26 C 0 km/h
Sensor: Nr:Datum:Temp:Abs-Feuchte:Windchill:Wind:
Aussen-T/F 2251 14-04-2011 19:00:00 12.3 C 3.67 g/m*3 12.3 C 0 km/h
2252 14-04-2011 20:00:00 7.56 C 4.26 g/m*3 7.56 C 0 km/h
2253 14-04-2011 21:00:00 6.04 C 4.5 g/m*3 6.04 C 0 km/h
2254 14-04-2011 22:00:00 4.64 C 4.49 g/m*3 4.64 C 0 km/h
2255 14-04-2011 23:00:00 3.28 C 4.5 g/m*3 3.28 C 0 km/h
2256 15-04-2011 00:00:00 2.52 C 4.58 g/m*3 2.52 C 0 km/h
2257 15-04-2011 01:00:00 2.78 C 4.79 g/m*3 2.78 C 0 km/h
2258 15-04-2011 02:00:00 3.22 C 4.75 g/m*3 3.22 C 0 km/h
2259 15-04-2011 03:00:00 1.68 C 4.45 g/m*3 1.68 C 0 km/h
2260 15-04-2011 04:00:00 0.82 C 4.42 g/m*3 0.82 C 0 km/h
2261 15-04-2011 05:00:00 0.76 C 4.49 g/m*3 0.76 C 0 km/h
2262 15-04-2011 06:00:00 -0.1 C 4.25 g/m*3 -0.1 C 0 km/h
2263 15-04-2011 07:00:00 0.18 C 4.39 g/m*3 0.18 C 0 km/h
2264 15-04-2011 08:00:00 1.1 C 4.71 g/m*3 1.1 C 0 km/h
2265 15-04-2011 09:00:00 2.74 C 5.25 g/m*3 2.74 C 0 km/h
2266 15-04-2011 10:00:00 5.96 C 6.1 g/m*3 5.96 C 0 km/h
2267 15-04-2011 11:00:00 10.18 C 4.51 g/m*3 10.18 C 0 km/h
2268 15-04-2011 12:00:00 12.22 C 2.96 g/m*3 12.22 C 0 km/h
2269 15-04-2011 13:00:00 15.04 C 2.57 g/m*3 15.04 C 0 km/h
2270 15-04-2011 14:00:00 17.48 C 2.98 g/m*3 17.48 C 0 km/h
2271 15-04-2011 15:00:00 17.5 C 2.98 g/m*3 17.5 C 0 km/h
2272 15-04-2011 16:00:00 16.44 C 2.8 g/m*3 16.44 C 0 km/h
2273 15-04-2011 17:00:00 16.1 C 2.74 g/m*3 16.1 C 0 km/h
2274 15-04-2011 18:00:00 17.54 C 2.99 g/m*3 17.54 C 0 km/h
2275 15-04-2011 19:00:00 11.56 C 3.61 g/m*3 11.56 C 0 km/h
Sensor: Nr:Datum:Temp:Abs-Feuchte:Windchill:Wind:
Aussen-T/F 2276 15-04-2011 20:00:00 7.7 C 3.97 g/m*3 7.7 C 0 km/h
2277 15-04-2011 21:00:00 6.42 C 4.09 g/m*3 6.42 C 0 km/h
2278 15-04-2011 22:00:00 5.08 C 4.14 g/m*3 5.08 C 0 km/h
2279 15-04-2011 23:00:00 3.54 C 4.32 g/m*3 3.54 C 0 km/h
2280 16-04-2011 00:00:00 2.34 C 4.24 g/m*3 2.34 C 0 km/h
2281 16-04-2011 01:00:00 1.52 C 4.3 g/m*3 1.52 C 0 km/h
2282 16-04-2011 02:00:00 1 C 4.33 g/m*3 1 C 0 km/h
2283 16-04-2011 03:00:00 0.3 C 4.24 g/m*3 0.3 C 0 km/h
2284 16-04-2011 04:00:00 -0.12 C 4.18 g/m*3 -0.12 C 0 km/h
2285 16-04-2011 05:00:00 0.72 C 4.54 g/m*3 0.72 C 0 km/h
2286 16-04-2011 06:00:00 1.94 C 4.83 g/m*3 1.94 C 0 km/h
2287 16-04-2011 07:00:00 2.62 C 4.69 g/m*3 2.62 C 0 km/h
2288 16-04-2011 08:00:00 3.94 C 4.6 g/m*3 3.94 C 0 km/h
2289 16-04-2011 09:00:00 6.02 C 4.46 g/m*3 6.02 C 0 km/h
2290 16-04-2011 10:00:00 7.92 C 4.31 g/m*3 7.92 C 0 km/h
2291 16-04-2011 11:00:00 10.8 C 4.67 g/m*3 10.8 C 0 km/h
2292 16-04-2011 12:00:00 15.08 C 3.58 g/m*3 15.08 C 0 km/h
2293 16-04-2011 13:00:00 16.12 C 2.74 g/m*3 16.12 C 0 km/h
2294 16-04-2011 14:00:00 16.8 C 2.86 g/m*3 16.8 C 0 km/h
2295 16-04-2011 15:00:00 15.1 C 2.63 g/m*3 15.1 C 0 km/h
2296 16-04-2011 16:00:00 15.7 C 2.81 g/m*3 15.7 C 0 km/h
2297 16-04-2011 17:00:00 15.28 C 3.21 g/m*3 15.28 C 0 km/h
2298 16-04-2011 18:00:00 12.9 C 4.33 g/m*3 12.9 C 0 km/h
2299 16-04-2011 19:00:00 11.66 C 4.49 g/m*3 11.66 C 0 km/h
2300 16-04-2011 20:00:00 10.28 C 4.28 g/m*3 10.28 C 0 km/h
Sensor: Nr:Datum:Temp:Abs-Feuchte:Windchill:Wind:
Aussen-T/F 2301 16-04-2011 21:00:00 9.76 C 4.61 g/m*3 9.76 C 0 km/h
2302 16-04-2011 22:00:00 9.12 C 4.55 g/m*3 9.12 C 0 km/h
2303 16-04-2011 23:00:00 8.72 C 4.78 g/m*3 8.72 C 0 km/h
2304 17-04-2011 00:00:00 8.32 C 4.78 g/m*3 8.32 C 0 km/h
2305 17-04-2011 01:00:00 7.62 C 4.86 g/m*3 7.62 C 0 km/h
2306 17-04-2011 02:00:00 7.36 C 4.79 g/m*3 7.36 C 0 km/h
2307 17-04-2011 03:00:00 7.16 C 4.96 g/m*3 7.16 C 0 km/h
2308 17-04-2011 04:00:00 6.96 C 5.18 g/m*3 6.96 C 0 km/h
2309 17-04-2011 05:00:00 6.86 C 5.34 g/m*3 6.86 C 0 km/h
2310 17-04-2011 06:00:00 6.68 C 5.37 g/m*3 6.68 C 0 km/h
2311 17-04-2011 07:00:00 7.04 C 5.61 g/m*3 7.04 C 0 km/h
2312 17-04-2011 08:00:00 8.1 C 5.67 g/m*3 8.1 C 0 km/h
2313 17-04-2011 09:00:00 9.44 C 5.57 g/m*3 9.44 C 0 km/h
2314 17-04-2011 10:00:00 11.66 C 5.13 g/m*3 11.66 C 0 km/h
2315 17-04-2011 11:00:00 14.5 C 4.6 g/m*3 14.5 C 0 km/h
2316 17-04-2011 12:00:00 16.56 C 3.64 g/m*3 16.56 C 0 km/h
2317 17-04-2011 13:00:00 18.9 C 3.24 g/m*3 18.9 C 0 km/h
2318 17-04-2011 14:00:00 21.06 C 3.68 g/m*3 21.06 C 0 km/h
2319 17-04-2011 15:00:00 18.48 C 3.16 g/m*3 18.48 C 0 km/h
2320 17-04-2011 16:00:00 18.98 C 3.26 g/m*3 18.98 C 0 km/h
2321 17-04-2011 17:00:00 18.64 C 3.19 g/m*3 18.64 C 0 km/h
2322 17-04-2011 18:00:00 16.54 C 2.93 g/m*3 16.54 C 0 km/h
2323 17-04-2011 19:00:00 14.24 C 3.89 g/m*3 14.24 C 0 km/h
2324 17-04-2011 20:00:00 11.64 C 3.9 g/m*3 11.64 C 0 km/h
2325 17-04-2011 21:00:00 9.18 C 3.96 g/m*3 9.18 C 0 km/h
Sensor: Nr:Datum:Temp:Abs-Feuchte:Windchill:Wind:
Aussen-T/F 2326 17-04-2011 22:00:00 7.22 C 4.28 g/m*3 7.22 C 0 km/h
2327 17-04-2011 23:00:00 5.72 C 4.32 g/m*3 5.72 C 0 km/h
2328 18-04-2011 00:00:00 4.86 C 4.48 g/m*3 4.86 C 0 km/h
2329 18-04-2011 01:00:00 3.76 C 4.44 g/m*3 3.76 C 0 km/h
2330 18-04-2011 02:00:00 2.68 C 4.49 g/m*3 2.68 C 0 km/h
2331 18-04-2011 03:00:00 2.06 C 4.56 g/m*3 2.06 C 0 km/h
2332 18-04-2011 04:00:00 1.42 C 4.5 g/m*3 1.42 C 0 km/h
2333 18-04-2011 05:00:00 0.98 C 4.47 g/m*3 0.98 C 0 km/h
2334 18-04-2011 06:00:00 0.72 C 4.48 g/m*3 0.72 C 0 km/h
2335 18-04-2011 07:00:00 1.3 C 4.7 g/m*3 1.3 C 0 km/h
2336 18-04-2011 08:00:00 2.7 C 5.14 g/m*3 2.7 C 0 km/h
2337 18-04-2011 09:00:00 4.56 C 5.68 g/m*3 4.56 C 0 km/h
2338 18-04-2011 10:00:00 8.08 C 6.03 g/m*3 8.08 C 0 km/h
2339 18-04-2011 11:00:00 12.02 C 5.34 g/m*3 12.02 C 0 km/h
2340 18-04-2011 12:00:00 15.86 C 3.86 g/m*3 15.86 C 0 km/h
2341 18-04-2011 13:00:00 19.24 C 3.64 g/m*3 19.24 C 0 km/h
2342 18-04-2011 14:00:00 23.64 C 4.26 g/m*3 23.64 C 0 km/h
2343 18-04-2011 15:00:00 24.52 C 4.48 g/m*3 24.52 C 0 km/h
2344 18-04-2011 16:00:00 26.1 C 4.9 g/m*3 26.1 C 0 km/h
2345 18-04-2011 17:00:00 25.44 C 4.72 g/m*3 25.44 C 0 km/h
2346 18-04-2011 18:00:00 23.54 C 4.24 g/m*3 23.54 C 0 km/h
2347 18-04-2011 19:00:00 18.26 C 4.46 g/m*3 18.26 C 0 km/h
2348 18-04-2011 20:00:00 12.92 C 4.63 g/m*3 12.92 C 0 km/h
2349 18-04-2011 21:00:00 10.72 C 4.76 g/m*3 10.72 C 0 km/h
2350 18-04-2011 22:00:00 9.275 C 5 g/m*3 9.28 C 0 km/h
Sensor: Nr:Datum:Temp:Abs-Feuchte:Windchill:Wind:
Aussen-T/F 2351 18-04-2011 23:00:00 7.86 C 5.03 g/m*3 7.86 C 0 km/h
2352 19-04-2011 00:00:00 6.42 C 5.07 g/m*3 6.42 C 0 km/h
2353 19-04-2011 01:00:00 5.3 C 5.03 g/m*3 5.3 C 0 km/h
2354 19-04-2011 02:00:00 4.46 C 5.01 g/m*3 4.46 C 0 km/h
2355 19-04-2011 03:00:00 3.74 C 5 g/m*3 3.74 C 0 km/h
2356 19-04-2011 04:00:00 3.16 C 5.01 g/m*3 3.16 C 0 km/h
2357 19-04-2011 05:00:00 2.5 C 4.91 g/m*3 2.5 C 0 km/h
2358 19-04-2011 06:00:00 2.22 C 4.93 g/m*3 2.22 C 0 km/h
2359 19-04-2011 07:00:00 2.64 C 5.14 g/m*3 2.64 C 0 km/h
2360 19-04-2011 08:00:00 3.76 C 5.54 g/m*3 3.76 C 0 km/h
2361 19-04-2011 09:00:00 5.42 C 6.15 g/m*3 5.42 C 0 km/h
2362 19-04-2011 10:00:00 8.58 C 6.8 g/m*3 8.58 C 0 km/h
2363 19-04-2011 11:00:00 12.76 C 6.26 g/m*3 12.76 C 0 km/h
2364 19-04-2011 12:00:00 17.58 C 4.7 g/m*3 17.58 C 0 km/h
2365 19-04-2011 13:00:00 20.42 C 4.18 g/m*3 20.42 C 0 km/h
2366 19-04-2011 14:00:00 26.44 C 4.99 g/m*3 26.44 C 0 km/h
2367 19-04-2011 15:00:00 28.6 C 5.62 g/m*3 28.6 C 0 km/h
2368 19-04-2011 16:00:00 28.78 C 5.68 g/m*3 28.78 C 0 km/h
2369 19-04-2011 17:00:00 28.68 C 5.65 g/m*3 28.68 C 0 km/h
2370 19-04-2011 18:00:00 27.58 C 5.31 g/m*3 27.58 C 0 km/h
2371 19-04-2011 19:00:00 22.26 C 4.65 g/m*3 22.26 C 0 km/h
2372 19-04-2011 20:00:00 15.18 C 4.62 g/m*3 15.18 C 0 km/h
2373 19-04-2011 21:00:00 12.64 C 4.88 g/m*3 12.64 C 0 km/h
2374 19-04-2011 22:00:00 10.86 C 5.24 g/m*3 10.86 C 0 km/h
2375 19-04-2011 23:00:00 9.04 C 5.16 g/m*3 9.04 C 0 km/h
Sensor: Nr:Datum:Temp:Abs-Feuchte:Windchill:Wind:
Aussen-T/F 2376 20-04-2011 00:00:00 7.48 C 5.29 g/m*3 7.48 C 0 km/h
2377 20-04-2011 01:00:00 6.52 C 5.29 g/m*3 6.52 C 0 km/h
2378 20-04-2011 02:00:00 5.74 C 5.28 g/m*3 5.74 C 0 km/h
2379 20-04-2011 03:00:00 4.7 C 5.33 g/m*3 4.7 C 0 km/h
2380 20-04-2011 04:00:00 4.02 C 5.32 g/m*3 4.02 C 0 km/h
2381 20-04-2011 05:00:00 3.48 C 5.32 g/m*3 3.48 C 0 km/h
2382 20-04-2011 06:00:00 3.06 C 5.23 g/m*3 3.06 C 0 km/h
2383 20-04-2011 07:00:00 3.38 C 5.4 g/m*3 3.38 C 0 km/h
2384 20-04-2011 08:00:00 4.5 C 5.84 g/m*3 4.5 C 0 km/h
2385 20-04-2011 09:00:00 6.08 C 6.36 g/m*3 6.08 C 0 km/h
2386 20-04-2011 10:00:00 8.94 C 7.03 g/m*3 8.94 C 0 km/h
2387 20-04-2011 11:00:00 12.54 C 6.99 g/m*3 12.54 C 0 km/h
2388 20-04-2011 12:00:00 17.52 C 5.97 g/m*3 17.52 C 0 km/h
2389 20-04-2011 13:00:00 21.7 C 3.85 g/m*3 21.7 C 0 km/h
2390 20-04-2011 14:00:00 26.94 C 5.13 g/m*3 26.94 C 0 km/h
2391 20-04-2011 15:00:00 28.82 C 5.69 g/m*3 28.82 C 0 km/h
2392 20-04-2011 16:00:00 29.3 C 5.84 g/m*3 29.3 C 0 km/h
2393 20-04-2011 17:00:00 30.08 C 6.09 g/m*3 30.08 C 0 km/h
2394 20-04-2011 18:00:00 27.62 C 5.33 g/m*3 27.62 C 0 km/h
2395 20-04-2011 19:00:00 22.44 C 5.22 g/m*3 22.44 C 0 km/h
2396 20-04-2011 20:00:00 15.9 C 4.98 g/m*3 15.9 C 0 km/h
2397 20-04-2011 21:00:00 13.3 C 5.04 g/m*3 13.3 C 0 km/h
2398 20-04-2011 22:00:00 11.48 C 5.1 g/m*3 11.48 C 0 km/h
2399 20-04-2011 23:00:00 9.64 C 5.22 g/m*3 9.64 C 0 km/h
2400 21-04-2011 00:00:00 8.66 C 5.26 g/m*3 8.66 C 0 km/h
Sensor: Nr:Datum:Temp:Abs-Feuchte:Windchill:Wind:
Aussen-T/F 2401 21-04-2011 01:00:00 8.08 C 5.45 g/m*3 8.08 C 0 km/h
2402 21-04-2011 02:00:00 7.02 C 5.48 g/m*3 7.02 C 0 km/h
2403 21-04-2011 03:00:00 6.42 C 5.63 g/m*3 6.42 C 0 km/h
2404 21-04-2011 04:00:00 5.62 C 5.65 g/m*3 5.62 C 0 km/h
2405 21-04-2011 05:00:00 4.86 C 5.57 g/m*3 4.86 C 0 km/h
2406 21-04-2011 06:00:00 4.68 C 5.67 g/m*3 4.68 C 0 km/h
2407 21-04-2011 07:00:00 5.18 C 5.94 g/m*3 5.18 C 0 km/h
2408 21-04-2011 08:00:00 6.24 C 6.37 g/m*3 6.24 C 0 km/h
2409 21-04-2011 09:00:00 8.56 C 6.98 g/m*3 8.56 C 0 km/h
2410 21-04-2011 10:00:00 11.76 C 6.7 g/m*3 11.76 C 0 km/h
2411 21-04-2011 11:00:00 15.18 C 6.46 g/m*3 15.18 C 0 km/h
2412 21-04-2011 12:00:00 17.8 C 6.74 g/m*3 17.8 C 0 km/h
2413 21-04-2011 13:00:00 20.9 C 6.16 g/m*3 20.9 C 0 km/h
2414 21-04-2011 14:00:00 29.96 C 6.05 g/m*3 29.96 C 0 km/h
2415 21-04-2011 15:00:00 31.4 C 6.54 g/m*3 31.4 C 0 km/h
2416 21-04-2011 16:00:00 30.8 C 6.33 g/m*3 30.8 C 0 km/h
2417 21-04-2011 17:00:00 31.1 C 6.43 g/m*3 31.1 C 0 km/h
2418 21-04-2011 18:00:00 23.04 C 5.56 g/m*3 23.04 C 0 km/h
2419 21-04-2011 19:00:00 18.72 C 5.64 g/m*3 18.72 C 0 km/h
2420 21-04-2011 20:00:00 15.6 C 5.82 g/m*3 15.6 C 0 km/h
2421 21-04-2011 21:00:00 13.46 C 5.9 g/m*3 13.46 C 0 km/h
2422 21-04-2011 22:00:00 12.12 C 5.88 g/m*3 12.12 C 0 km/h
2423 21-04-2011 23:00:00 10.68 C 6.08 g/m*3 10.68 C 0 km/h
2424 22-04-2011 00:00:00 9.58 C 6.15 g/m*3 9.58 C 0 km/h
2425 22-04-2011 01:00:00 9 C 6.31 g/m*3 9 C 0 km/h
Sensor: Nr:Datum:Temp:Abs-Feuchte:Windchill:Wind:
Aussen-T/F 2426 22-04-2011 02:00:00 8.3 C 6.44 g/m*3 8.3 C 0 km/h
2427 22-04-2011 03:00:00 7.44 C 6.46 g/m*3 7.44 C 0 km/h
2428 22-04-2011 04:00:00 6.84 C 6.49 g/m*3 6.84 C 0 km/h
2429 22-04-2011 05:00:00 6.34 C 6.43 g/m*3 6.34 C 0 km/h
2430 22-04-2011 06:00:00 5.98 C 6.36 g/m*3 5.98 C 0 km/h
2431 22-04-2011 07:00:00 6.52 C 6.67 g/m*3 6.52 C 0 km/h
2432 22-04-2011 08:00:00 7.62 C 7.08 g/m*3 7.62 C 0 km/h
2433 22-04-2011 09:00:00 9.56 C 7.84 g/m*3 9.56 C 0 km/h
2434 22-04-2011 10:00:00 12.44 C 8.65 g/m*3 12.44 C 0 km/h
2435 22-04-2011 11:00:00 15.8 C 8.21 g/m*3 15.8 C 0 km/h
2436 22-04-2011 12:00:00 19.26 C 7.74 g/m*3 19.26 C 0 km/h
2437 22-04-2011 13:00:00 23.48 C 5.24 g/m*3 23.48 C 0 km/h
2438 22-04-2011 14:00:00 29.48 C 5.9 g/m*3 29.48 C 0 km/h
2439 22-04-2011 15:00:00 31.16 C 6.46 g/m*3 31.16 C 0 km/h
2440 22-04-2011 16:00:00 30.32 C 6.17 g/m*3 30.32 C 0 km/h
2441 22-04-2011 17:00:00 29 C 5.74 g/m*3 29 C 0 km/h
2442 22-04-2011 18:00:00 29.72 C 5.97 g/m*3 29.72 C 0 km/h
2443 22-04-2011 19:00:00 25.08 C 6.01 g/m*3 25.08 C 0 km/h
2444 22-04-2011 20:00:00 19.14 C 6.24 g/m*3 19.14 C 0 km/h
2445 22-04-2011 21:00:00 17.26 C 6.11 g/m*3 17.26 C 0 km/h
2446 22-04-2011 22:00:00 16.48 C 5.97 g/m*3 16.48 C 0 km/h
2447 22-04-2011 23:00:00 16.62 C 6.39 g/m*3 16.62 C 0 km/h
2448 23-04-2011 00:00:00 13.46 C 9.73 g/m*3 13.46 C 0 km/h
2449 23-04-2011 01:00:00 12.34 C 9.49 g/m*3 12.34 C 0 km/h
2450 23-04-2011 02:00:00 11.32 C 8.99 g/m*3 11.32 C 0 km/h
Sensor: Nr:Datum:Temp:Abs-Feuchte:Windchill:Wind:
Aussen-T/F 2451 23-04-2011 03:00:00 10.38 C 8.53 g/m*3 10.38 C 0 km/h
2452 23-04-2011 04:00:00 10.84 C 8.88 g/m*3 10.84 C 0 km/h
2453 23-04-2011 05:00:00 11.3 C 9.16 g/m*3 11.3 C 0 km/h
2454 23-04-2011 06:00:00 10.96 C 8.99 g/m*3 10.96 C 0 km/h
2455 23-04-2011 07:00:00 11.16 C 9.12 g/m*3 11.16 C 0 km/h
2456 23-04-2011 08:00:00 13 C 10.18 g/m*3 13 C 0 km/h
2457 23-04-2011 09:00:00 14.38 C 10.72 g/m*3 14.38 C 0 km/h
2458 23-04-2011 10:00:00 15.06 C 10.94 g/m*3 15.06 C 0 km/h
2459 23-04-2011 11:00:00 17.2 C 10.43 g/m*3 17.2 C 0 km/h
2460 23-04-2011 12:00:00 19.96 C 7.24 g/m*3 19.96 C 0 km/h
2461 23-04-2011 13:00:00 23.94 C 5.25 g/m*3 23.94 C 0 km/h
2462 23-04-2011 14:00:00 30.62 C 6.27 g/m*3 30.62 C 0 km/h
2463 23-04-2011 15:00:00 31.56 C 6.6 g/m*3 31.56 C 0 km/h
2464 23-04-2011 16:00:00 31.88 C 6.71 g/m*3 31.88 C 0 km/h
2465 23-04-2011 17:00:00 30.98 C 6.39 g/m*3 30.98 C 0 km/h
2466 23-04-2011 18:00:00 30.12 C 6.1 g/m*3 30.12 C 0 km/h
2467 23-04-2011 19:00:00 24.44 C 6.42 g/m*3 24.44 C 0 km/h
2468 23-04-2011 20:00:00 18.26 C 5.96 g/m*3 18.26 C 0 km/h
2469 23-04-2011 21:00:00 15.72 C 5.92 g/m*3 15.72 C 0 km/h
2470 23-04-2011 22:00:00 14.88 C 6.59 g/m*3 14.88 C 0 km/h
2471 23-04-2011 23:00:00 14.5 C 6.84 g/m*3 14.5 C 0 km/h
2472 24-04-2011 00:00:00 13.14 C 7.05 g/m*3 13.14 C 0 km/h
2473 24-04-2011 01:00:00 11.28 C 6.89 g/m*3 11.28 C 0 km/h
2474 24-04-2011 02:00:00 10.22 C 6.9 g/m*3 10.22 C 0 km/h
2475 24-04-2011 03:00:00 9.42 C 6.94 g/m*3 9.42 C 0 km/h
Sensor: Nr:Datum:Temp:Abs-Feuchte:Windchill:Wind:
Aussen-T/F 2476 24-04-2011 04:00:00 8.86 C 7.06 g/m*3 8.86 C 0 km/h
2477 24-04-2011 05:00:00 8.16 C 6.95 g/m*3 8.16 C 0 km/h
2478 24-04-2011 06:00:00 7.4 C 6.82 g/m*3 7.4 C 0 km/h
2479 24-04-2011 07:00:00 7.96 C 7.16 g/m*3 7.96 C 0 km/h
2480 24-04-2011 08:00:00 9.44 C 7.65 g/m*3 9.44 C 0 km/h
2481 24-04-2011 09:00:00 10.94 C 8.06 g/m*3 10.94 C 0 km/h
2482 24-04-2011 10:00:00 13.42 C 8.68 g/m*3 13.42 C 0 km/h
2483 24-04-2011 11:00:00 16.12 C 8.1 g/m*3 16.12 C 0 km/h
2484 24-04-2011 12:00:00 19.04 C 6.96 g/m*3 19.04 C 0 km/h
2485 24-04-2011 13:00:00 22.96 C 5.82 g/m*3 22.96 C 0 km/h
2486 24-04-2011 14:00:00 29.4 C 5.87 g/m*3 29.4 C 0 km/h
2487 24-04-2011 15:00:00 30.46 C 6.22 g/m*3 30.46 C 0 km/h
2488 24-04-2011 16:00:00 31.08 C 6.43 g/m*3 31.08 C 0 km/h
2489 24-04-2011 17:00:00 28.58 C 6.63 g/m*3 28.58 C 0 km/h
2490 24-04-2011 18:00:00 25.34 C 7.32 g/m*3 25.34 C 0 km/h
2491 24-04-2011 19:00:00 22.02 C 7.69 g/m*3 22.02 C 0 km/h
2492 24-04-2011 20:00:00 17.72 C 6.95 g/m*3 17.72 C 0 km/h
2493 24-04-2011 21:00:00 16.14 C 6.27 g/m*3 16.14 C 0 km/h
2494 24-04-2011 22:00:00 16.5 C 5.14 g/m*3 16.5 C 0 km/h
2495 24-04-2011 23:00:00 16.24 C 4.42 g/m*3 16.24 C 0 km/h
2496 25-04-2011 00:00:00 14.78 C 4.45 g/m*3 14.78 C 0 km/h
2497 25-04-2011 01:00:00 12.76 C 4.94 g/m*3 12.76 C 0 km/h
2498 25-04-2011 02:00:00 11.24 C 5 g/m*3 11.24 C 0 km/h
2499 25-04-2011 03:00:00 9.94 C 5.15 g/m*3 9.94 C 0 km/h
2500 25-04-2011 04:00:00 8.12 C 5.35 g/m*3 8.12 C 0 km/h
Sensor: Nr:Datum:Temp:Abs-Feuchte:Windchill:Wind:
Aussen-T/F 2501 25-04-2011 05:00:00 6.94 C 5.53 g/m*3 6.94 C 0 km/h
2502 25-04-2011 06:00:00 6.26 C 5.67 g/m*3 6.26 C 0 km/h
2503 25-04-2011 07:00:00 6.2 C 5.96 g/m*3 6.2 C 0 km/h
2504 25-04-2011 08:00:00 7.32 C 6.55 g/m*3 7.32 C 0 km/h
2505 25-04-2011 09:00:00 9.34 C 7.15 g/m*3 9.34 C 0 km/h
2506 25-04-2011 10:00:00 12.78 C 7.2 g/m*3 12.78 C 0 km/h
2507 25-04-2011 11:00:00 16.32 C 5.58 g/m*3 16.32 C 0 km/h
2508 25-04-2011 12:00:00 18.84 C 3.81 g/m*3 18.84 C 0 km/h
2509 25-04-2011 13:00:00 21.56 C 3.78 g/m*3 21.56 C 0 km/h
2510 25-04-2011 14:00:00 27.66 C 5.34 g/m*3 27.66 C 0 km/h
2511 25-04-2011 15:00:00 29.44 C 5.88 g/m*3 29.44 C 0 km/h
2512 25-04-2011 16:00:00 29.42 C 5.88 g/m*3 29.42 C 0 km/h
2513 25-04-2011 17:00:00 29.12 C 5.78 g/m*3 29.12 C 0 km/h
2514 25-04-2011 18:00:00 27.62 C 5.33 g/m*3 27.62 C 0 km/h
2515 25-04-2011 19:00:00 22.72 C 4.53 g/m*3 22.72 C 0 km/h
2516 25-04-2011 20:00:00 15.98 C 5.39 g/m*3 15.98 C 0 km/h
2517 25-04-2011 21:00:00 14.06 C 5.06 g/m*3 14.06 C 0 km/h
2518 25-04-2011 22:00:00 13 C 5.24 g/m*3 13 C 0 km/h
2519 25-04-2011 23:00:00 11.98 C 5.28 g/m*3 11.98 C 0 km/h
2520 26-04-2011 00:00:00 11.32 C 5.54 g/m*3 11.32 C 0 km/h
2521 26-04-2011 01:00:00 9.38 C 5.58 g/m*3 9.38 C 0 km/h
2522 26-04-2011 02:00:00 8.1 C 5.66 g/m*3 8.1 C 0 km/h
2523 26-04-2011 03:00:00 7.04 C 5.8 g/m*3 7.04 C 0 km/h
2524 26-04-2011 04:00:00 6.2 C 5.81 g/m*3 6.2 C 0 km/h
2525 26-04-2011 05:00:00 5.62 C 5.89 g/m*3 5.62 C 0 km/h
Sensor: Nr:Datum:Temp:Abs-Feuchte:Windchill:Wind:
Aussen-T/F 2526 26-04-2011 06:00:00 5.22 C 5.93 g/m*3 5.22 C 0 km/h
2527 26-04-2011 07:00:00 5.88 C 6.25 g/m*3 5.88 C 0 km/h
2528 26-04-2011 08:00:00 7.08 C 6.73 g/m*3 7.08 C 0 km/h
2529 26-04-2011 09:00:00 8.9 C 7.2 g/m*3 8.9 C 0 km/h
2530 26-04-2011 10:00:00 12.1 C 7.27 g/m*3 12.1 C 0 km/h
2531 26-04-2011 11:00:00 15.92 C 6.24 g/m*3 15.92 C 0 km/h
2532 26-04-2011 12:00:00 19.24 C 5.75 g/m*3 19.24 C 0 km/h
2533 26-04-2011 13:00:00 19.66 C 5.79 g/m*3 19.66 C 0 km/h
2534 26-04-2011 14:00:00 22.08 C 5.26 g/m*3 22.08 C 0 km/h
2535 26-04-2011 15:00:00 20.74 C 5.23 g/m*3 20.74 C 0 km/h
2536 26-04-2011 16:00:00 23.94 C 4.6 g/m*3 23.94 C 0 km/h
2537 26-04-2011 17:00:00 20.08 C 4.93 g/m*3 20.08 C 0 km/h
2538 26-04-2011 18:00:00 14.54 C 7.76 g/m*3 14.54 C 0 km/h
2539 26-04-2011 19:00:00 14.04 C 8.25 g/m*3 14.04 C 0 km/h
2540 26-04-2011 20:00:00 13.28 C 7.82 g/m*3 13.28 C 0 km/h
2541 26-04-2011 21:00:00 12.02 C 7.49 g/m*3 12.02 C 0 km/h
2542 26-04-2011 22:00:00 13.12 C 7.68 g/m*3 13.12 C 0 km/h
2543 26-04-2011 23:00:00 12.36 C 7.74 g/m*3 12.36 C 0 km/h
2544 27-04-2011 00:00:00 11.4 C 7.55 g/m*3 11.4 C 0 km/h
2545 27-04-2011 01:00:00 11.58 C 8.16 g/m*3 11.58 C 0 km/h
2546 27-04-2011 02:00:00 11.42 C 8.59 g/m*3 11.42 C 0 km/h
2547 27-04-2011 03:00:00 11.26 C 8.71 g/m*3 11.26 C 0 km/h
2548 27-04-2011 04:00:00 11.42 C 8.82 g/m*3 11.42 C 0 km/h
2549 27-04-2011 05:00:00 11.48 C 8.25 g/m*3 11.48 C 0 km/h
2550 27-04-2011 06:00:00 11.04 C 6.98 g/m*3 11.04 C 0 km/h
Sensor: Nr:Datum:Temp:Abs-Feuchte:Windchill:Wind:
Aussen-T/F 2551 27-04-2011 07:00:00 9.98 C 6.79 g/m*3 9.98 C 0 km/h
2552 27-04-2011 08:00:00 9.94 C 7.15 g/m*3 9.94 C 0 km/h
2553 27-04-2011 09:00:00 11.24 C 7.11 g/m*3 11.24 C 0 km/h
2554 27-04-2011 10:00:00 11.8 C 7.07 g/m*3 11.8 C 0 km/h
2555 27-04-2011 11:00:00 11.62 C 7.06 g/m*3 11.62 C 0 km/h
2556 27-04-2011 12:00:00 12.14 C 7.1 g/m*3 12.14 C 0 km/h
2557 27-04-2011 13:00:00 11.18 C 7.53 g/m*3 11.18 C 0 km/h
2558 27-04-2011 14:00:00 11.42 C 7.85 g/m*3 11.42 C 0 km/h
2559 27-04-2011 15:00:00 12.92 C 7.99 g/m*3 12.92 C 0 km/h
2560 27-04-2011 16:00:00 12.68 C 7.74 g/m*3 12.68 C 0 km/h
2561 27-04-2011 17:00:00 12.26 C 7.73 g/m*3 12.26 C 0 km/h
2562 27-04-2011 18:00:00 12.08 C 7.86 g/m*3 12.08 C 0 km/h
2563 27-04-2011 19:00:00 10.74 C 8.21 g/m*3 10.74 C 0 km/h
2564 27-04-2011 20:00:00 10.7 C 8.39 g/m*3 10.7 C 0 km/h
2565 27-04-2011 21:00:00 10.14 C 8.25 g/m*3 10.14 C 0 km/h
2566 27-04-2011 22:00:00 10.12 C 8.41 g/m*3 10.12 C 0 km/h
2567 27-04-2011 23:00:00 9.96 C 8.42 g/m*3 9.96 C 0 km/h
2568 28-04-2011 00:00:00 9.92 C 8.45 g/m*3 9.92 C 0 km/h
2569 28-04-2011 01:00:00 9.78 C 8.43 g/m*3 9.78 C 0 km/h
2570 28-04-2011 02:00:00 9.54 C 8.3 g/m*3 9.54 C 0 km/h
2571 28-04-2011 03:00:00 9.26 C 8.18 g/m*3 9.26 C 0 km/h
2572 28-04-2011 04:00:00 8.78 C 7.98 g/m*3 8.78 C 0 km/h
2573 28-04-2011 05:00:00 9.08 C 8.15 g/m*3 9.08 C 0 km/h
2574 28-04-2011 06:00:00 9.44 C 8.34 g/m*3 9.44 C 0 km/h
2575 28-04-2011 07:00:00 9.84 C 8.54 g/m*3 9.84 C 0 km/h
Sensor: Nr:Datum:Temp:Abs-Feuchte:Windchill:Wind:
Aussen-T/F 2576 28-04-2011 08:00:00 10.7 C 9.02 g/m*3 10.7 C 0 km/h
2577 28-04-2011 09:00:00 11.82 C 9.57 g/m*3 11.82 C 0 km/h
2578 28-04-2011 10:00:00 12.84 C 8.98 g/m*3 12.84 C 0 km/h
2579 28-04-2011 11:00:00 15.22 C 8.34 g/m*3 15.22 C 0 km/h
2580 28-04-2011 12:00:00 16.12 C 7.9 g/m*3 16.12 C 0 km/h
2581 28-04-2011 13:00:00 17.64 C 7.73 g/m*3 17.64 C 0 km/h
2582 28-04-2011 14:00:00 20.54 C 7.28 g/m*3 20.54 C 0 km/h
2583 28-04-2011 15:00:00 22.04 C 6.85 g/m*3 22.04 C 0 km/h
2584 28-04-2011 16:00:00 21 C 8.43 g/m*3 21 C 0 km/h
2585 28-04-2011 17:00:00 24.02 C 6.01 g/m*3 24.02 C 0 km/h
2586 28-04-2011 18:00:00 19.88 C 7.93 g/m*3 19.88 C 0 km/h
2587 28-04-2011 19:00:00 19.92 C 7.98 g/m*3 19.92 C 0 km/h
2588 28-04-2011 20:00:00 14.16 C 8.55 g/m*3 14.16 C 0 km/h
2589 28-04-2011 21:00:00 12.42 C 8.45 g/m*3 12.42 C 0 km/h
2590 28-04-2011 22:00:00 11.44 C 8.5 g/m*3 11.44 C 0 km/h
2591 28-04-2011 23:00:00 10.36 C 8.21 g/m*3 10.36 C 0 km/h
2592 29-04-2011 00:00:00 10.74 C 8.65 g/m*3 10.74 C 0 km/h
2593 29-04-2011 01:00:00 10 C 8.29 g/m*3 10 C 0 km/h
2594 29-04-2011 02:00:00 10.56 C 8.66 g/m*3 10.56 C 0 km/h
2595 29-04-2011 03:00:00 9.42 C 8.13 g/m*3 9.42 C 0 km/h
2596 29-04-2011 04:00:00 9.24 C 8.06 g/m*3 9.24 C 0 km/h
2597 29-04-2011 05:00:00 9.36 C 8.16 g/m*3 9.36 C 0 km/h
2598 29-04-2011 06:00:00 9.76 C 8.38 g/m*3 9.76 C 0 km/h
2599 29-04-2011 07:00:00 11 C 8.99 g/m*3 11 C 0 km/h
2600 29-04-2011 08:00:00 13.46 C 9.19 g/m*3 13.46 C 0 km/h
Sensor: Nr:Datum:Temp:Abs-Feuchte:Windchill:Wind:
Aussen-T/F 2601 29-04-2011 09:00:00 15.92 C 7.81 g/m*3 15.92 C 0 km/h
2602 29-04-2011 10:00:00 17.2 C 7.67 g/m*3 17.2 C 0 km/h
2603 29-04-2011 11:00:00 18.84 C 6.91 g/m*3 18.84 C 0 km/h
2604 29-04-2011 12:00:00 20.4 C 6.33 g/m*3 20.4 C 0 km/h
2605 29-04-2011 13:00:00 22.56 C 5.53 g/m*3 22.56 C 0 km/h
2606 29-04-2011 14:00:00 27.38 C 5.26 g/m*3 27.38 C 0 km/h
2607 29-04-2011 15:00:00 25.74 C 5.28 g/m*3 25.74 C 0 km/h
2608 29-04-2011 16:00:00 19.14 C 8.81 g/m*3 19.14 C 0 km/h
2609 29-04-2011 17:00:00 17.44 C 10.16 g/m*3 17.44 C 0 km/h
2610 29-04-2011 18:00:00 16.32 C 9.72 g/m*3 16.32 C 0 km/h
2611 29-04-2011 19:00:00 15.64 C 8.27 g/m*3 15.64 C 0 km/h
2612 29-04-2011 20:00:00 14.72 C 7.46 g/m*3 14.72 C 0 km/h
2613 29-04-2011 21:00:00 12.76 C 7.89 g/m*3 12.76 C 0 km/h
2614 29-04-2011 22:00:00 12.22 C 7.97 g/m*3 12.22 C 0 km/h
2615 29-04-2011 23:00:00 12.18 C 7.63 g/m*3 12.18 C 0 km/h
2616 30-04-2011 00:00:00 11.82 C 7.78 g/m*3 11.82 C 0 km/h
2617 30-04-2011 01:00:00 11.48 C 7.74 g/m*3 11.48 C 0 km/h
2618 30-04-2011 02:00:00 11.1 C 7.68 g/m*3 11.1 C 0 km/h
2619 30-04-2011 03:00:00 10.54 C 7.53 g/m*3 10.54 C 0 km/h
2620 30-04-2011 04:00:00 9.98 C 7.49 g/m*3 9.98 C 0 km/h
2621 30-04-2011 05:00:00 9.64 C 7.49 g/m*3 9.64 C 0 km/h
2622 30-04-2011 06:00:00 10.22 C 7.22 g/m*3 10.22 C 0 km/h
2623 30-04-2011 07:00:00 11.78 C 7.32 g/m*3 11.78 C 0 km/h
2624 30-04-2011 08:00:00 12.68 C 7.69 g/m*3 12.68 C 0 km/h
2625 30-04-2011 09:00:00 14.58 C 7.35 g/m*3 14.58 C 0 km/h
Sensor: Nr:Datum:Temp:Abs-Feuchte:Windchill:Wind:
Aussen-T/F 2626 30-04-2011 10:00:00 16.56 C 6.76 g/m*3 16.56 C 0 km/h
2627 30-04-2011 11:00:00 17.96 C 6.53 g/m*3 17.96 C 0 km/h
2628 30-04-2011 12:00:00 19.36 C 6.19 g/m*3 19.36 C 0 km/h
2629 30-04-2011 13:00:00 22.04 C 5.8 g/m*3 22.04 C 0 km/h
2630 30-04-2011 14:00:00 24.26 C 5.56 g/m*3 24.26 C 0 km/h
2631 30-04-2011 15:00:00 25.14 C 6.26 g/m*3 25.14 C 0 km/h
2632 30-04-2011 16:00:00 25.06 C 5.08 g/m*3 25.06 C 0 km/h
2633 30-04-2011 17:00:00 20 C 7.02 g/m*3 20 C 0 km/h
2634 30-04-2011 18:00:00 16.44 C 9.23 g/m*3 16.44 C 0 km/h
2635 30-04-2011 19:00:00 14.8 C 8.79 g/m*3 14.8 C 0 km/h
2636 30-04-2011 20:00:00 14.4 C 7.54 g/m*3 14.4 C 0 km/h
2637 30-04-2011 21:00:00 15.04 C 6.02 g/m*3 15.04 C 0 km/h
2638 30-04-2011 22:00:00 13.06 C 5.85 g/m*3 13.06 C 0 km/h
2639 30-04-2011 23:00:00 12.14 C 5.7 g/m*3 12.14 C 0 km/h
2640 01-05-2011 00:00:00 12.05 C 5.51 g/m*3 12.05 C 0 km/h
2641 01-05-2011 01:00:00 12.84 C 5.1 g/m*3 12.84 C 0 km/h
2642 01-05-2011 02:00:00 12.32 C 4.81 g/m*3 12.32 C 0 km/h
2643 01-05-2011 03:00:00 11.24 C 4.84 g/m*3 11.24 C 0 km/h
2644 01-05-2011 04:00:00 9.64 C 4.89 g/m*3 9.64 C 0 km/h
2645 01-05-2011 05:00:00 9.92 C 4.56 g/m*3 9.92 C 0 km/h
2646 01-05-2011 06:00:00 9.3 C 4.57 g/m*3 9.3 C 0 km/h
2647 01-05-2011 07:00:00 9.2 C 4.59 g/m*3 9.2 C 0 km/h
2648 01-05-2011 08:00:00 9.68 C 4.9 g/m*3 9.68 C 0 km/h
2649 01-05-2011 09:00:00 11.22 C 4.93 g/m*3 11.22 C 0 km/h
2650 01-05-2011 10:00:00 13.48 C 4.63 g/m*3 13.48 C 0 km/h
Sensor: Nr:Datum:Temp:Abs-Feuchte:Windchill:Wind:
Aussen-T/F 2651 01-05-2011 11:00:00 14.98 C 5.02 g/m*3 14.98 C 0 km/h
2652 01-05-2011 12:00:00 16.74 C 5.19 g/m*3 16.74 C 0 km/h
2653 01-05-2011 13:00:00 18.86 C 4.69 g/m*3 18.86 C 0 km/h
2654 01-05-2011 14:00:00 24.24 C 4.41 g/m*3 24.24 C 0 km/h
2655 01-05-2011 15:00:00 25.4 C 4.71 g/m*3 25.4 C 0 km/h
2656 01-05-2011 16:00:00 25.52 C 4.74 g/m*3 25.52 C 0 km/h
2657 01-05-2011 17:00:00 24.6 C 4.5 g/m*3 24.6 C 0 km/h
2658 01-05-2011 18:00:00 23.38 C 4.2 g/m*3 23.38 C 0 km/h
2659 01-05-2011 19:00:00 20.54 C 3.75 g/m*3 20.54 C 0 km/h
2660 01-05-2011 20:00:00 15.24 C 3.62 g/m*3 15.24 C 0 km/h
2661 01-05-2011 21:00:00 11 C 4.02 g/m*3 11 C 0 km/h
2662 01-05-2011 22:00:00 9.88 C 4.01 g/m*3 9.88 C 0 km/h
2663 01-05-2011 23:00:00 10.36 C 4.1 g/m*3 10.36 C 0 km/h
2664 02-05-2011 00:00:00 11.56 C 3.71 g/m*3 11.56 C 0 km/h
2665 02-05-2011 01:00:00 9.52 C 3.79 g/m*3 9.52 C 0 km/h
2666 02-05-2011 02:00:00 7.82 C 4.07 g/m*3 7.82 C 0 km/h
2667 02-05-2011 03:00:00 6.16 C 4.33 g/m*3 6.16 C 0 km/h
2668 02-05-2011 04:00:00 5.32 C 4.44 g/m*3 5.32 C 0 km/h
2669 02-05-2011 05:00:00 4.76 C 4.49 g/m*3 4.76 C 0 km/h
2670 02-05-2011 06:00:00 4.2 C 4.54 g/m*3 4.2 C 0 km/h
2671 02-05-2011 07:00:00 4.4 C 4.77 g/m*3 4.4 C 0 km/h
2672 02-05-2011 08:00:00 5.26 C 5.17 g/m*3 5.26 C 0 km/h
2673 02-05-2011 09:00:00 7.2 C 5.23 g/m*3 7.2 C 0 km/h
2674 02-05-2011 10:00:00 10.76 C 4.79 g/m*3 10.76 C 0 km/h
2675 02-05-2011 11:00:00 13.12 C 4.2 g/m*3 13.12 C 0 km/h
Sensor: Nr:Datum:Temp:Abs-Feuchte:Windchill:Wind:
Aussen-T/F 2676 02-05-2011 12:00:00 14.54 C 3.77 g/m*3 14.54 C 0 km/h
2677 02-05-2011 13:00:00 16.78 C 3.6 g/m*3 16.78 C 0 km/h
2678 02-05-2011 14:00:00 22.72 C 4.05 g/m*3 22.72 C 0 km/h
2679 02-05-2011 15:00:00 22.12 C 3.91 g/m*3 22.12 C 0 km/h
2680 02-05-2011 16:00:00 21.2 C 3.74 g/m*3 21.2 C 0 km/h
2681 02-05-2011 17:00:00 21.04 C 3.67 g/m*3 21.04 C 0 km/h
2682 02-05-2011 18:00:00 18.58 C 3.37 g/m*3 18.58 C 0 km/h
2683 02-05-2011 19:00:00 17.22 C 3.4 g/m*3 17.22 C 0 km/h
2684 02-05-2011 20:00:00 12.46 C 4.1 g/m*3 12.46 C 0 km/h
2685 02-05-2011 21:00:00 9.9 C 4.52 g/m*3 9.9 C 0 km/h
2686 02-05-2011 22:00:00 8.36 C 4.79 g/m*3 8.36 C 0 km/h
2687 02-05-2011 23:00:00 9 C 4.73 g/m*3 9 C 0 km/h
2688 03-05-2011 00:00:00 8.3 C 4.74 g/m*3 8.3 C 0 km/h
2689 03-05-2011 01:00:00 8.02 C 4.74 g/m*3 8.02 C 0 km/h
2690 03-05-2011 02:00:00 8.2 C 4.71 g/m*3 8.2 C 0 km/h
2691 03-05-2011 03:00:00 8.02 C 4.54 g/m*3 8.02 C 0 km/h
2692 03-05-2011 04:00:00 7.72 C 4.42 g/m*3 7.72 C 0 km/h
2693 03-05-2011 05:00:00 7.7 C 4.27 g/m*3 7.7 C 0 km/h
2694 03-05-2011 06:00:00 7.52 C 4.3 g/m*3 7.52 C 0 km/h
2695 03-05-2011 07:00:00 7.76 C 4.12 g/m*3 7.76 C 0 km/h
2696 03-05-2011 08:00:00 7.12 C 4.05 g/m*3 7.12 C 0 km/h
2697 03-05-2011 09:00:00 7.74 C 4.18 g/m*3 7.74 C 0 km/h
2698 03-05-2011 10:00:00 9.78 C 4.02 g/m*3 9.78 C 0 km/h
2699 03-05-2011 11:00:00 11.94 C 3.67 g/m*3 11.94 C 0 km/h
2700 03-05-2011 12:00:00 12.2 C 3.43 g/m*3 12.2 C 0 km/h
Sensor: Nr:Datum:Temp:Abs-Feuchte:Windchill:Wind:
Aussen-T/F 2701 03-05-2011 13:00:00 13.14 C 3.25 g/m*3 13.14 C 0 km/h
2702 03-05-2011 14:00:00 17.38 C 3.08 g/m*3 17.38 C 0 km/h
2703 03-05-2011 15:00:00 19.14 C 3.29 g/m*3 19.14 C 0 km/h
2704 03-05-2011 16:00:00 21.46 C 3.76 g/m*3 21.46 C 0 km/h
2705 03-05-2011 17:00:00 19.28 C 3.31 g/m*3 19.28 C 0 km/h
2706 03-05-2011 18:00:00 19.6 C 3.38 g/m*3 19.6 C 0 km/h
2707 03-05-2011 19:00:00 16.12 C 2.88 g/m*3 16.12 C 0 km/h
2708 03-05-2011 20:00:00 9.08 C 3.76 g/m*3 9.08 C 0 km/h
2709 03-05-2011 21:00:00 6.58 C 3.66 g/m*3 6.58 C 0 km/h
2710 03-05-2011 22:00:00 4.78 C 3.67 g/m*3 4.78 C 0 km/h
2711 03-05-2011 23:00:00 3.78 C 3.77 g/m*3 3.78 C 0 km/h
2712 04-05-2011 00:00:00 3.48 C 4.03 g/m*3 3.48 C 0 km/h
2713 04-05-2011 01:00:00 2.24 C 3.99 g/m*3 2.24 C 0 km/h
2714 04-05-2011 02:00:00 1.26 C 4 g/m*3 1.26 C 0 km/h
2715 04-05-2011 03:00:00 0.6 C 4.1 g/m*3 0.6 C 0 km/h
2716 04-05-2011 04:00:00 0.1 C 4.09 g/m*3 0.1 C 0 km/h
2717 04-05-2011 05:00:00 -0.5 C 4.03 g/m*3 -0.5 C 0 km/h
2718 04-05-2011 06:00:00 -0.5 C 4.09 g/m*3 -0.5 C 0 km/h
2719 04-05-2011 07:00:00 0.22 C 4.33 g/m*3 0.22 C 0 km/h
2720 04-05-2011 08:00:00 2.2 C 4.9 g/m*3 2.2 C 0 km/h
2721 04-05-2011 09:00:00 4.08 C 5.1 g/m*3 4.08 C 0 km/h
2722 04-05-2011 10:00:00 7.14 C 4.88 g/m*3 7.14 C 0 km/h
2723 04-05-2011 11:00:00 9.78 C 4.11 g/m*3 9.78 C 0 km/h
2724 04-05-2011 12:00:00 11.56 C 3.32 g/m*3 11.56 C 0 km/h
2725 04-05-2011 13:00:00 15.4 C 2.81 g/m*3 15.4 C 0 km/h
Sensor: Nr:Datum:Temp:Abs-Feuchte:Windchill:Wind:
Aussen-T/F 2726 04-05-2011 14:00:00 17.96 C 3.06 g/m*3 17.96 C 0 km/h
2727 04-05-2011 15:00:00 19.16 C 3.29 g/m*3 19.16 C 0 km/h
2728 04-05-2011 16:00:00 19.32 C 3.32 g/m*3 19.32 C 0 km/h
2729 04-05-2011 17:00:00 19.76 C 3.41 g/m*3 19.76 C 0 km/h
2730 04-05-2011 18:00:00 18.44 C 3.15 g/m*3 18.44 C 0 km/h
2731 04-05-2011 19:00:00 16.32 C 3 g/m*3 16.32 C 0 km/h
2732 04-05-2011 20:00:00 11.2 C 3.75 g/m*3 11.2 C 0 km/h
2733 04-05-2011 21:00:00 7.86 C 4.16 g/m*3 7.86 C 0 km/h
2734 04-05-2011 22:00:00 6.84 C 4.17 g/m*3 6.84 C 0 km/h
2735 04-05-2011 23:00:00 4.8 C 4.37 g/m*3 4.8 C 0 km/h
2736 05-05-2011 00:00:00 3.46 C 4.38 g/m*3 3.46 C 0 km/h
2737 05-05-2011 01:00:00 2.64 C 4.42 g/m*3 2.64 C 0 km/h
2738 05-05-2011 02:00:00 2.02 C 4.51 g/m*3 2.02 C 0 km/h
2739 05-05-2011 03:00:00 1.58 C 4.59 g/m*3 1.58 C 0 km/h
2740 05-05-2011 04:00:00 1.1 C 4.56 g/m*3 1.1 C 0 km/h
2741 05-05-2011 05:00:00 0.5 C 4.45 g/m*3 0.5 C 0 km/h
2742 05-05-2011 06:00:00 0.44 C 4.47 g/m*3 0.44 C 0 km/h
2743 05-05-2011 07:00:00 1.28 C 4.76 g/m*3 1.28 C 0 km/h
2744 05-05-2011 08:00:00 2.66 C 5.17 g/m*3 2.66 C 0 km/h
2745 05-05-2011 09:00:00 5.2 C 5.94 g/m*3 5.2 C 0 km/h
2746 05-05-2011 10:00:00 8.94 C 6.48 g/m*3 8.94 C 0 km/h
2747 05-05-2011 11:00:00 12.78 C 4.65 g/m*3 12.78 C 0 km/h
2748 05-05-2011 12:00:00 14.56 C 3.55 g/m*3 14.56 C 0 km/h
2749 05-05-2011 13:00:00 18.24 C 3.65 g/m*3 18.24 C 0 km/h
2750 05-05-2011 14:00:00 23.46 C 4.22 g/m*3 23.46 C 0 km/h
Sensor: Nr:Datum:Temp:Abs-Feuchte:Windchill:Wind:
Aussen-T/F 2751 05-05-2011 15:00:00 24.12 C 4.38 g/m*3 24.12 C 0 km/h
2752 05-05-2011 16:00:00 23.18 C 4.15 g/m*3 23.18 C 0 km/h
2753 05-05-2011 17:00:00 22.56 C 4.01 g/m*3 22.56 C 0 km/h
2754 05-05-2011 18:00:00 20.86 C 3.63 g/m*3 20.86 C 0 km/h
2755 05-05-2011 19:00:00 17.1 C 4.92 g/m*3 17.1 C 0 km/h
2756 05-05-2011 20:00:00 13.18 C 4.68 g/m*3 13.18 C 0 km/h
2757 05-05-2011 21:00:00 10.9 C 4.16 g/m*3 10.9 C 0 km/h
2758 05-05-2011 22:00:00 9.06 C 4.67 g/m*3 9.06 C 0 km/h
2759 05-05-2011 23:00:00 7.94 C 4.83 g/m*3 7.94 C 0 km/h
2760 06-05-2011 00:00:00 6.78 C 4.74 g/m*3 6.78 C 0 km/h
2761 06-05-2011 01:00:00 5.6 C 4.78 g/m*3 5.6 C 0 km/h
2762 06-05-2011 02:00:00 4.36 C 4.87 g/m*3 4.36 C 0 km/h
2763 06-05-2011 03:00:00 3.56 C 4.96 g/m*3 3.56 C 0 km/h
2764 06-05-2011 04:00:00 2.88 C 4.93 g/m*3 2.88 C 0 km/h
2765 06-05-2011 05:00:00 2.18 C 4.86 g/m*3 2.18 C 0 km/h
2766 06-05-2011 06:00:00 2.3 C 5.01 g/m*3 2.3 C 0 km/h
2767 06-05-2011 07:00:00 3.46 C 5.41 g/m*3 3.46 C 0 km/h
2768 06-05-2011 08:00:00 5.2 C 6 g/m*3 5.2 C 0 km/h
2769 06-05-2011 09:00:00 8.38 C 6.78 g/m*3 8.38 C 0 km/h
2770 06-05-2011 10:00:00 11.9 C 6.69 g/m*3 11.9 C 0 km/h
2771 06-05-2011 11:00:00 16.36 C 5.63 g/m*3 16.36 C 0 km/h
2772 06-05-2011 12:00:00 20.48 C 4.59 g/m*3 20.48 C 0 km/h
2773 06-05-2011 13:00:00 23.68 C 4.27 g/m*3 23.68 C 0 km/h
2774 06-05-2011 14:00:00 26.28 C 4.95 g/m*3 26.28 C 0 km/h
2775 06-05-2011 15:00:00 26.08 C 4.89 g/m*3 26.08 C 0 km/h
Sensor: Nr:Datum:Temp:Abs-Feuchte:Windchill:Wind:
Aussen-T/F 2776 06-05-2011 16:00:00 26.24 C 4.93 g/m*3 26.24 C 0 km/h
2777 06-05-2011 17:00:00 26.68 C 5.06 g/m*3 26.68 C 0 km/h
2778 06-05-2011 18:00:00 24.76 C 5.68 g/m*3 24.76 C 0 km/h
2779 06-05-2011 19:00:00 20.22 C 6.48 g/m*3 20.22 C 0 km/h
2780 06-05-2011 20:00:00 17.06 C 5.92 g/m*3 17.06 C 0 km/h
2781 06-05-2011 21:00:00 14.88 C 5.37 g/m*3 14.88 C 0 km/h
2782 06-05-2011 22:00:00 13.12 C 5.64 g/m*3 13.12 C 0 km/h
2783 06-05-2011 23:00:00 12.26 C 5.63 g/m*3 12.26 C 0 km/h
2784 07-05-2011 00:00:00 11.46 C 5.73 g/m*3 11.46 C 0 km/h
2785 07-05-2011 01:00:00 10.04 C 5.86 g/m*3 10.04 C 0 km/h
2786 07-05-2011 02:00:00 8.76 C 5.94 g/m*3 8.76 C 0 km/h
2787 07-05-2011 03:00:00 7.92 C 6.17 g/m*3 7.92 C 0 km/h
2788 07-05-2011 04:00:00 7.3 C 6.19 g/m*3 7.3 C 0 km/h
2789 07-05-2011 05:00:00 7.22 C 6.38 g/m*3 7.22 C 0 km/h
2790 07-05-2011 06:00:00 7.06 C 6.44 g/m*3 7.06 C 0 km/h
2791 07-05-2011 07:00:00 7.58 C 6.74 g/m*3 7.58 C 0 km/h
2792 07-05-2011 08:00:00 9.2 C 7.18 g/m*3 9.2 C 0 km/h
2793 07-05-2011 09:00:00 11.84 C 7.53 g/m*3 11.84 C 0 km/h
2794 07-05-2011 10:00:00 16.16 C 7.92 g/m*3 16.16 C 0 km/h
2795 07-05-2011 11:00:00 19.38 C 7.37 g/m*3 19.38 C 0 km/h
2796 07-05-2011 12:00:00 21.74 C 6.39 g/m*3 21.74 C 0 km/h
2797 07-05-2011 13:00:00 27.32 C 5.76 g/m*3 27.32 C 0 km/h
2798 07-05-2011 14:00:00 31.2 C 6.47 g/m*3 31.2 C 0 km/h
2799 07-05-2011 15:00:00 31.54 C 6.59 g/m*3 31.54 C 0 km/h
2800 07-05-2011 16:00:00 31.26 C 6.49 g/m*3 31.26 C 0 km/h
Sensor: Nr:Datum:Temp:Abs-Feuchte:Windchill:Wind:
Aussen-T/F 2801 07-05-2011 17:00:00 31.44 C 6.55 g/m*3 31.44 C 0 km/h
2802 07-05-2011 18:00:00 29.66 C 6.01 g/m*3 29.66 C 0 km/h
2803 07-05-2011 19:00:00 25.08 C 6.84 g/m*3 25.08 C 0 km/h
2804 07-05-2011 20:00:00 20.12 C 6.89 g/m*3 20.12 C 0 km/h
2805 07-05-2011 21:00:00 17.6 C 6 g/m*3 17.6 C 0 km/h
2806 07-05-2011 22:00:00 16.22 C 5.8 g/m*3 16.22 C 0 km/h
2807 07-05-2011 23:00:00 15.6 C 5.56 g/m*3 15.6 C 0 km/h
2808 08-05-2011 00:00:00 15.16 C 5.33 g/m*3 15.16 C 0 km/h
2809 08-05-2011 01:00:00 14.12 C 5.15 g/m*3 14.12 C 0 km/h
2810 08-05-2011 02:00:00 12.98 C 5.32 g/m*3 12.98 C 0 km/h
2811 08-05-2011 03:00:00 11.64 C 5.19 g/m*3 11.64 C 0 km/h
2812 08-05-2011 04:00:00 10.5 C 5.3 g/m*3 10.5 C 0 km/h
2813 08-05-2011 05:00:00 9.8 C 5.27 g/m*3 9.8 C 0 km/h
2814 08-05-2011 06:00:00 9.04 C 5.34 g/m*3 9.04 C 0 km/h
2815 08-05-2011 07:00:00 9.68 C 5.82 g/m*3 9.68 C 0 km/h
2816 08-05-2011 08:00:00 11.54 C 6.48 g/m*3 11.54 C 0 km/h
2817 08-05-2011 09:00:00 14 C 6.59 g/m*3 14 C 0 km/h
2818 08-05-2011 10:00:00 17.74 C 6.53 g/m*3 17.74 C 0 km/h
2819 08-05-2011 11:00:00 21 C 5.94 g/m*3 21 C 0 km/h
2820 08-05-2011 12:00:00 23.46 C 4.39 g/m*3 23.46 C 0 km/h
2821 08-05-2011 13:00:00 27.4 C 5.26 g/m*3 27.4 C 0 km/h
2822 08-05-2011 14:00:00 30.88 C 6.36 g/m*3 30.88 C 0 km/h
2823 08-05-2011 15:00:00 29.98 C 6.06 g/m*3 29.98 C 0 km/h
2824 08-05-2011 16:00:00 32.02 C 6.76 g/m*3 32.02 C 0 km/h
2825 08-05-2011 17:00:00 31.72 C 6.65 g/m*3 31.72 C 0 km/h
Sensor: Nr:Datum:Temp:Abs-Feuchte:Windchill:Wind:
Aussen-T/F 2826 08-05-2011 18:00:00 30.56 C 6.25 g/m*3 30.56 C 0 km/h
2827 08-05-2011 19:00:00 23.5 C 5.58 g/m*3 23.5 C 0 km/h
2828 08-05-2011 20:00:00 20.22 C 5.32 g/m*3 20.22 C 0 km/h
2829 08-05-2011 21:00:00 18.72 C 4.55 g/m*3 18.72 C 0 km/h
2830 08-05-2011 22:00:00 17 C 4.4 g/m*3 17 C 0 km/h
2831 08-05-2011 23:00:00 15.06 C 4.76 g/m*3 15.06 C 0 km/h
2832 09-05-2011 00:00:00 14.06 C 5.01 g/m*3 14.06 C 0 km/h
2833 09-05-2011 01:00:00 12.54 C 5.29 g/m*3 12.54 C 0 km/h
2834 09-05-2011 02:00:00 11.58 C 5.52 g/m*3 11.58 C 0 km/h
2835 09-05-2011 03:00:00 10.76 C 5.76 g/m*3 10.76 C 0 km/h
2836 09-05-2011 04:00:00 10.56 C 6.15 g/m*3 10.56 C 0 km/h
2837 09-05-2011 05:00:00 10.44 C 6.47 g/m*3 10.44 C 0 km/h
2838 09-05-2011 06:00:00 10.64 C 6.67 g/m*3 10.64 C 0 km/h
2839 09-05-2011 07:00:00 11.08 C 6.92 g/m*3 11.08 C 0 km/h
2840 09-05-2011 08:00:00 12.32 C 7.02 g/m*3 12.32 C 0 km/h
2841 09-05-2011 09:00:00 15.92 C 5.91 g/m*3 15.92 C 0 km/h
2842 09-05-2011 10:00:00 18.9 C 4.5 g/m*3 18.9 C 0 km/h
2843 09-05-2011 11:00:00 20.26 C 4.04 g/m*3 20.26 C 0 km/h
2844 09-05-2011 12:00:00 22.06 C 3.9 g/m*3 22.06 C 0 km/h
2845 09-05-2011 13:00:00 26.06 C 4.89 g/m*3 26.06 C 0 km/h
2846 09-05-2011 14:00:00 28.5 C 5.59 g/m*3 28.5 C 0 km/h
2847 09-05-2011 15:00:00 30.1 C 6.1 g/m*3 30.1 C 0 km/h
2848 09-05-2011 16:00:00 26.48 C 5.9 g/m*3 26.48 C 0 km/h
2849 09-05-2011 17:00:00 30.82 C 6.34 g/m*3 30.82 C 0 km/h
2850 09-05-2011 18:00:00 30.6 C 6.26 g/m*3 30.6 C 0 km/h
Sensor: Nr:Datum:Temp:Abs-Feuchte:Windchill:Wind:
Aussen-T/F 2851 09-05-2011 19:00:00 26.58 C 5.58 g/m*3 26.58 C 0 km/h
2852 09-05-2011 20:00:00 19.56 C 5.05 g/m*3 19.56 C 0 km/h
2853 09-05-2011 21:00:00 16.44 C 4.65 g/m*3 16.44 C 0 km/h
2854 09-05-2011 22:00:00 13.64 C 4.81 g/m*3 13.64 C 0 km/h
2855 09-05-2011 23:00:00 11.72 C 4.9 g/m*3 11.72 C 0 km/h
2856 10-05-2011 00:00:00 10.3 C 5.15 g/m*3 10.3 C 0 km/h
2857 10-05-2011 01:00:00 9.36 C 5.43 g/m*3 9.36 C 0 km/h
2858 10-05-2011 02:00:00 9.06 C 5.72 g/m*3 9.06 C 0 km/h
2859 10-05-2011 03:00:00 8.64 C 5.89 g/m*3 8.64 C 0 km/h
2860 10-05-2011 04:00:00 7.82 C 5.97 g/m*3 7.82 C 0 km/h
2861 10-05-2011 05:00:00 7.62 C 6.23 g/m*3 7.62 C 0 km/h
2862 10-05-2011 06:00:00 8.62 C 6.47 g/m*3 8.62 C 0 km/h
2863 10-05-2011 07:00:00 10.96 C 6.47 g/m*3 10.96 C 0 km/h
2864 10-05-2011 08:00:00 12.94 C 6.26 g/m*3 12.94 C 0 km/h
2865 10-05-2011 09:00:00 16 C 6.16 g/m*3 16 C 0 km/h
2866 10-05-2011 10:00:00 18.44 C 6.65 g/m*3 18.44 C 0 km/h
2867 10-05-2011 11:00:00 20.92 C 6.86 g/m*3 20.92 C 0 km/h
2868 10-05-2011 12:00:00 22.52 C 6.6 g/m*3 22.52 C 0 km/h
2869 10-05-2011 13:00:00 27.48 C 6.13 g/m*3 27.48 C 0 km/h
2870 10-05-2011 14:00:00 32.22 C 6.83 g/m*3 32.22 C 0 km/h
2871 10-05-2011 15:00:00 32.2 C 6.82 g/m*3 32.2 C 0 km/h
2872 10-05-2011 16:00:00 30.58 C 6.51 g/m*3 30.58 C 0 km/h
2873 10-05-2011 17:00:00 30.72 C 6.43 g/m*3 30.72 C 0 km/h
2874 10-05-2011 18:00:00 26.82 C 7.29 g/m*3 26.82 C 0 km/h
2875 10-05-2011 19:00:00 21.86 C 7.51 g/m*3 21.86 C 0 km/h
Sensor: Nr:Datum:Temp:Abs-Feuchte:Windchill:Wind:
Aussen-T/F 2876 10-05-2011 20:00:00 20.16 C 7.75 g/m*3 20.16 C 0 km/h
2877 10-05-2011 21:00:00 16.34 C 9.79 g/m*3 16.34 C 0 km/h
2878 10-05-2011 22:00:00 14.42 C 10.45 g/m*3 14.42 C 0 km/h
2879 10-05-2011 23:00:00 15 C 10.67 g/m*3 15 C 0 km/h
2880 11-05-2011 00:00:00 14.78 C 10.83 g/m*3 14.78 C 0 km/h
2881 11-05-2011 01:00:00 14.34 C 10.79 g/m*3 14.34 C 0 km/h
2882 11-05-2011 02:00:00 14.4 C 10.68 g/m*3 14.4 C 0 km/h
2883 11-05-2011 03:00:00 13.98 C 10.46 g/m*3 13.98 C 0 km/h
2884 11-05-2011 04:00:00 13.06 C 9.97 g/m*3 13.06 C 0 km/h
2885 11-05-2011 05:00:00 12.18 C 9.61 g/m*3 12.18 C 0 km/h
2886 11-05-2011 06:00:00 12.22 C 9.72 g/m*3 12.22 C 0 km/h
2887 11-05-2011 07:00:00 13.96 C 10.81 g/m*3 13.96 C 0 km/h
2888 11-05-2011 08:00:00 15.72 C 11.76 g/m*3 15.72 C 0 km/h
2889 11-05-2011 09:00:00 17.46 C 10.38 g/m*3 17.46 C 0 km/h
2890 11-05-2011 10:00:00 17.88 C 9.15 g/m*3 17.88 C 0 km/h
2891 11-05-2011 11:00:00 19.82 C 8.58 g/m*3 19.82 C 0 km/h
2892 11-05-2011 12:00:00 21.28 C 7.48 g/m*3 21.28 C 0 km/h
2893 11-05-2011 13:00:00 24.76 C 6.5 g/m*3 24.76 C 0 km/h
2894 11-05-2011 14:00:00 27.06 C 5.99 g/m*3 27.06 C 0 km/h
2895 11-05-2011 15:00:00 26.62 C 6.3 g/m*3 26.62 C 0 km/h
2896 11-05-2011 16:00:00 27.44 C 5.91 g/m*3 27.44 C 0 km/h
2897 11-05-2011 17:00:00 25.18 C 6.42 g/m*3 25.18 C 0 km/h
2898 11-05-2011 18:00:00 24.1 C 6.35 g/m*3 24.1 C 0 km/h
2899 11-05-2011 19:00:00 21.76 C 8.12 g/m*3 21.76 C 0 km/h
2900 11-05-2011 20:00:00 18.42 C 8.35 g/m*3 18.42 C 0 km/h
Sensor: Nr:Datum:Temp:Abs-Feuchte:Windchill:Wind:
Aussen-T/F 2901 11-05-2011 21:00:00 16.42 C 7.88 g/m*3 16.42 C 0 km/h
2902 11-05-2011 22:00:00 15.04 C 8.18 g/m*3 15.04 C 0 km/h
2903 11-05-2011 23:00:00 13.88 C 8.31 g/m*3 13.88 C 0 km/h
2904 12-05-2011 00:00:00 12.38 C 7.86 g/m*3 12.38 C 0 km/h
2905 12-05-2011 01:00:00 11.6 C 7.96 g/m*3 11.6 C 0 km/h
2906 12-05-2011 02:00:00 11.46 C 8.18 g/m*3 11.46 C 0 km/h
2907 12-05-2011 03:00:00 10.88 C 8.01 g/m*3 10.88 C 0 km/h
2908 12-05-2011 04:00:00 10.86 C 8.18 g/m*3 10.86 C 0 km/h
2909 12-05-2011 05:00:00 11.36 C 8.11 g/m*3 11.36 C 0 km/h
2910 12-05-2011 06:00:00 11.66 C 8.22 g/m*3 11.66 C 0 km/h
2911 12-05-2011 07:00:00 12.72 C 8.23 g/m*3 12.72 C 0 km/h
2912 12-05-2011 08:00:00 13.86 C 7.96 g/m*3 13.86 C 0 km/h
2913 12-05-2011 09:00:00 15.3 C 7.6 g/m*3 15.3 C 0 km/h
2914 12-05-2011 10:00:00 16.48 C 7.26 g/m*3 16.48 C 0 km/h
2915 12-05-2011 11:00:00 17.12 C 6.97 g/m*3 17.12 C 0 km/h
2916 12-05-2011 12:00:00 19.56 C 6.43 g/m*3 19.56 C 0 km/h
2917 12-05-2011 13:00:00 21.22 C 6.31 g/m*3 21.22 C 0 km/h
2918 12-05-2011 14:00:00 23.72 C 5.65 g/m*3 23.72 C 0 km/h
2919 12-05-2011 15:00:00 21.94 C 5.96 g/m*3 21.94 C 0 km/h
2920 12-05-2011 16:00:00 22.14 C 5.75 g/m*3 22.14 C 0 km/h
2921 12-05-2011 17:00:00 21.56 C 5.03 g/m*3 21.56 C 0 km/h
2922 12-05-2011 18:00:00 21.92 C 4.37 g/m*3 21.92 C 0 km/h
2923 12-05-2011 19:00:00 18.84 C 4.97 g/m*3 18.84 C 0 km/h
2924 12-05-2011 20:00:00 15.98 C 5.2 g/m*3 15.98 C 0 km/h
2925 12-05-2011 21:00:00 13.56 C 5.73 g/m*3 13.56 C 0 km/h
Sensor: Nr:Datum:Temp:Abs-Feuchte:Windchill:Wind:
Aussen-T/F 2926 12-05-2011 22:00:00 11.84 C 5.82 g/m*3 11.84 C 0 km/h
2927 12-05-2011 23:00:00 10.72 C 5.47 g/m*3 10.72 C 0 km/h
2928 13-05-2011 00:00:00 9.98 C 5.31 g/m*3 9.98 C 0 km/h
2929 13-05-2011 01:00:00 8.48 C 5.53 g/m*3 8.48 C 0 km/h
2930 13-05-2011 02:00:00 6.98 C 5.6 g/m*3 6.98 C 0 km/h
2931 13-05-2011 03:00:00 6.64 C 5.71 g/m*3 6.64 C 0 km/h
2932 13-05-2011 04:00:00 5.86 C 5.71 g/m*3 5.86 C 0 km/h
2933 13-05-2011 05:00:00 5.04 C 5.75 g/m*3 5.04 C 0 km/h
2934 13-05-2011 06:00:00 5 C 5.86 g/m*3 5 C 0 km/h
2935 13-05-2011 07:00:00 5.32 C 6 g/m*3 5.32 C 0 km/h
2936 13-05-2011 08:00:00 6.86 C 6.6 g/m*3 6.86 C 0 km/h
2937 13-05-2011 09:00:00 10.34 C 6.84 g/m*3 10.34 C 0 km/h
2938 13-05-2011 10:00:00 13.18 C 6.44 g/m*3 13.18 C 0 km/h
2939 13-05-2011 11:00:00 15.88 C 5.25 g/m*3 15.88 C 0 km/h
2940 13-05-2011 12:00:00 17.6 C 5.19 g/m*3 17.6 C 0 km/h
2941 13-05-2011 13:00:00 20.16 C 4.88 g/m*3 20.16 C 0 km/h
2942 13-05-2011 14:00:00 24.7 C 4.53 g/m*3 24.7 C 0 km/h
2943 13-05-2011 15:00:00 21 C 5.09 g/m*3 21 C 0 km/h
2944 13-05-2011 16:00:00 24.86 C 4.57 g/m*3 24.86 C 0 km/h
2945 13-05-2011 17:00:00 25.08 C 4.9 g/m*3 25.08 C 0 km/h
2946 13-05-2011 18:00:00 21.96 C 5.85 g/m*3 21.96 C 0 km/h
2947 13-05-2011 19:00:00 21.1 C 5.64 g/m*3 21.1 C 0 km/h
2948 13-05-2011 20:00:00 15.34 C 6 g/m*3 15.34 C 0 km/h
2949 13-05-2011 21:00:00 12.9 C 5.46 g/m*3 12.9 C 0 km/h
2950 13-05-2011 22:00:00 12.15 C 5.32 g/m*3 12.15 C 0 km/h
Sensor: Nr:Datum:Temp:Abs-Feuchte:Windchill:Wind:
Aussen-T/F 2951 13-05-2011 23:00:00 11.7 C 5.5 g/m*3 11.7 C 0 km/h
2952 14-05-2011 00:00:00 10.06 C 5.55 g/m*3 10.06 C 0 km/h
2953 14-05-2011 01:00:00 8.68 C 5.63 g/m*3 8.68 C 0 km/h
2954 14-05-2011 02:00:00 7.86 C 5.96 g/m*3 7.86 C 0 km/h
2955 14-05-2011 03:00:00 7.04 C 5.94 g/m*3 7.04 C 0 km/h
2956 14-05-2011 04:00:00 6.64 C 6.16 g/m*3 6.64 C 0 km/h
2957 14-05-2011 05:00:00 5.98 C 6.02 g/m*3 5.98 C 0 km/h
2958 14-05-2011 06:00:00 5.48 C 6.02 g/m*3 5.48 C 0 km/h
2959 14-05-2011 07:00:00 6.8 C 6.49 g/m*3 6.8 C 0 km/h
2960 14-05-2011 08:00:00 9.58 C 6.26 g/m*3 9.58 C 0 km/h
2961 14-05-2011 09:00:00 12.36 C 6.26 g/m*3 12.36 C 0 km/h
2962 14-05-2011 10:00:00 15.8 C 6.25 g/m*3 15.8 C 0 km/h
2963 14-05-2011 11:00:00 18.56 C 5.11 g/m*3 18.56 C 0 km/h
2964 14-05-2011 12:00:00 20.34 C 4.44 g/m*3 20.34 C 0 km/h
2965 14-05-2011 13:00:00 19.1 C 5.21 g/m*3 19.1 C 0 km/h
2966 14-05-2011 14:00:00 15.46 C 7.04 g/m*3 15.46 C 0 km/h
2967 14-05-2011 15:00:00 15.6 C 6.38 g/m*3 15.6 C 0 km/h
2968 14-05-2011 16:00:00 14.6 C 7.33 g/m*3 14.6 C 0 km/h
2969 14-05-2011 17:00:00 16.82 C 6.04 g/m*3 16.82 C 0 km/h
2970 14-05-2011 18:00:00 19.82 C 4.89 g/m*3 19.82 C 0 km/h
2971 14-05-2011 19:00:00 18.14 C 3.78 g/m*3 18.14 C 0 km/h
2972 14-05-2011 20:00:00 15.08 C 3.45 g/m*3 15.08 C 0 km/h
2973 14-05-2011 21:00:00 12.52 C 3.74 g/m*3 12.52 C 0 km/h
2974 14-05-2011 22:00:00 10.6 C 4 g/m*3 10.6 C 0 km/h
2975 14-05-2011 23:00:00 9.46 C 4.21 g/m*3 9.46 C 0 km/h
Sensor: Nr:Datum:Temp:Abs-Feuchte:Windchill:Wind:
Aussen-T/F 2976 15-05-2011 00:00:00 8.02 C 4.57 g/m*3 8.02 C 0 km/h
2977 15-05-2011 01:00:00 6.82 C 5.07 g/m*3 6.82 C 0 km/h
2978 15-05-2011 02:00:00 6.1 C 5.26 g/m*3 6.1 C 0 km/h
2979 15-05-2011 03:00:00 5.56 C 5.34 g/m*3 5.56 C 0 km/h
2980 15-05-2011 04:00:00 6.46 C 5.34 g/m*3 6.46 C 0 km/h
2981 15-05-2011 05:00:00 4.76 C 5.26 g/m*3 4.76 C 0 km/h
2982 15-05-2011 06:00:00 5.66 C 5.49 g/m*3 5.66 C 0 km/h
2983 15-05-2011 07:00:00 7 C 5.52 g/m*3 7 C 0 km/h
2984 15-05-2011 08:00:00 9.2 C 5.61 g/m*3 9.2 C 0 km/h
2985 15-05-2011 09:00:00 10.88 C 6.02 g/m*3 10.88 C 0 km/h
2986 15-05-2011 10:00:00 9.36 C 7.09 g/m*3 9.36 C 0 km/h
2987 15-05-2011 11:00:00 11.6 C 7.13 g/m*3 11.6 C 0 km/h
2988 15-05-2011 12:00:00 12 C 6.63 g/m*3 12 C 0 km/h
2989 15-05-2011 13:00:00 15.02 C 5.78 g/m*3 15.02 C 0 km/h
2990 15-05-2011 14:00:00 16.3 C 5.33 g/m*3 16.3 C 0 km/h
2991 15-05-2011 15:00:00 14.66 C 5.8 g/m*3 14.66 C 0 km/h
2992 15-05-2011 16:00:00 17.12 C 4.63 g/m*3 17.12 C 0 km/h
2993 15-05-2011 17:00:00 18.34 C 4.67 g/m*3 18.34 C 0 km/h
2994 15-05-2011 18:00:00 14.04 C 6.92 g/m*3 14.04 C 0 km/h
2995 15-05-2011 19:00:00 11.02 C 6.98 g/m*3 11.02 C 0 km/h
2996 15-05-2011 20:00:00 9.96 C 7.33 g/m*3 9.96 C 0 km/h
2997 15-05-2011 21:00:00 9.4 C 7.16 g/m*3 9.4 C 0 km/h
2998 15-05-2011 22:00:00 9.84 C 6.98 g/m*3 9.84 C 0 km/h
2999 15-05-2011 23:00:00 9.12 C 7.09 g/m*3 9.12 C 0 km/h
3000 16-05-2011 00:00:00 8.22 C 6.74 g/m*3 8.22 C 0 km/h
Sensor: Nr:Datum:Temp:Abs-Feuchte:Windchill:Wind:
Aussen-T/F 3001 16-05-2011 01:00:00 7.44 C 6.76 g/m*3 7.44 C 0 km/h
3002 16-05-2011 02:00:00 7.9 C 6.78 g/m*3 7.9 C 0 km/h
3003 16-05-2011 03:00:00 8.4 C 6.65 g/m*3 8.4 C 0 km/h
3004 16-05-2011 04:00:00 8.88 C 6.39 g/m*3 8.88 C 0 km/h
3005 16-05-2011 05:00:00 9.16 C 6.13 g/m*3 9.16 C 0 km/h
3006 16-05-2011 06:00:00 9.5 C 5.95 g/m*3 9.5 C 0 km/h
3007 16-05-2011 07:00:00 9.96 C 5.81 g/m*3 9.96 C 0 km/h
3008 16-05-2011 08:00:00 10.86 C 5.83 g/m*3 10.86 C 0 km/h
3009 16-05-2011 09:00:00 12.38 C 5.78 g/m*3 12.38 C 0 km/h
3010 16-05-2011 10:00:00 14.16 C 5.63 g/m*3 14.16 C 0 km/h
3011 16-05-2011 11:00:00 16.36 C 5.51 g/m*3 16.36 C 0 km/h
3012 16-05-2011 12:00:00 16.48 C 5.5 g/m*3 16.48 C 0 km/h
3013 16-05-2011 13:00:00 15.24 C 6.4 g/m*3 15.24 C 0 km/h
3014 16-05-2011 14:00:00 14.96 C 6.7 g/m*3 14.96 C 0 km/h
3015 16-05-2011 15:00:00 14.6 C 7.23 g/m*3 14.6 C 0 km/h
3016 16-05-2011 16:00:00 15.4 C 6.62 g/m*3 15.4 C 0 km/h
3017 16-05-2011 17:00:00 16 C 6.73 g/m*3 16 C 0 km/h
3018 16-05-2011 18:00:00 15.42 C 6.76 g/m*3 15.42 C 0 km/h
3019 16-05-2011 19:00:00 15.26 C 6.93 g/m*3 15.26 C 0 km/h
3020 16-05-2011 20:00:00 14.6 C 7.28 g/m*3 14.6 C 0 km/h
3021 16-05-2011 21:00:00 13.94 C 7.64 g/m*3 13.94 C 0 km/h
3022 16-05-2011 22:00:00 13.6 C 7.67 g/m*3 13.6 C 0 km/h
3023 16-05-2011 23:00:00 13.36 C 7.7 g/m*3 13.36 C 0 km/h
3024 17-05-2011 00:00:00 12.94 C 7.8 g/m*3 12.94 C 0 km/h
3025 17-05-2011 01:00:00 12.74 C 7.83 g/m*3 12.74 C 0 km/h
Sensor: Nr:Datum:Temp:Abs-Feuchte:Windchill:Wind:
Aussen-T/F 3026 17-05-2011 02:00:00 12.7 C 8.04 g/m*3 12.7 C 0 km/h
3027 17-05-2011 03:00:00 12.9 C 7.91 g/m*3 12.9 C 0 km/h
3028 17-05-2011 04:00:00 12.74 C 8.06 g/m*3 12.74 C 0 km/h
3029 17-05-2011 05:00:00 12.68 C 7.96 g/m*3 12.68 C 0 km/h
3030 17-05-2011 06:00:00 13.1 C 7.76 g/m*3 13.1 C 0 km/h
3031 17-05-2011 07:00:00 13.58 C 7.64 g/m*3 13.58 C 0 km/h
3032 17-05-2011 08:00:00 13.1 C 7.94 g/m*3 13.1 C 0 km/h
3033 17-05-2011 09:00:00 14.14 C 7.84 g/m*3 14.14 C 0 km/h
3034 17-05-2011 10:00:00 15.08 C 7.78 g/m*3 15.08 C 0 km/h
3035 17-05-2011 11:00:00 16.22 C 7.54 g/m*3 16.22 C 0 km/h
3036 17-05-2011 12:00:00 18.18 C 7.08 g/m*3 18.18 C 0 km/h
3037 17-05-2011 13:00:00 20.4 C 6.83 g/m*3 20.4 C 0 km/h
3038 17-05-2011 14:00:00 23.16 C 6.14 g/m*3 23.16 C 0 km/h
3039 17-05-2011 15:00:00 24.08 C 6.12 g/m*3 24.08 C 0 km/h
3040 17-05-2011 16:00:00 26.8 C 5.09 g/m*3 26.8 C 0 km/h
3041 17-05-2011 17:00:00 27.36 C 5.25 g/m*3 27.36 C 0 km/h
3042 17-05-2011 18:00:00 24.84 C 4.75 g/m*3 24.84 C 0 km/h
3043 17-05-2011 19:00:00 22.6 C 4.9 g/m*3 22.6 C 0 km/h
3044 17-05-2011 20:00:00 19.56 C 6.06 g/m*3 19.56 C 0 km/h
3045 17-05-2011 21:00:00 15.08 C 6.52 g/m*3 15.08 C 0 km/h
3046 17-05-2011 22:00:00 13.36 C 6.52 g/m*3 13.36 C 0 km/h
3047 17-05-2011 23:00:00 11.64 C 6.79 g/m*3 11.64 C 0 km/h
3048 18-05-2011 00:00:00 10.24 C 6.81 g/m*3 10.24 C 0 km/h
3049 18-05-2011 01:00:00 9.48 C 6.89 g/m*3 9.48 C 0 km/h
3050 18-05-2011 02:00:00 8.54 C 6.93 g/m*3 8.54 C 0 km/h
Sensor: Nr:Datum:Temp:Abs-Feuchte:Windchill:Wind:
Aussen-T/F 3051 18-05-2011 03:00:00 7.76 C 6.9 g/m*3 7.76 C 0 km/h
3052 18-05-2011 04:00:00 7.06 C 6.75 g/m*3 7.06 C 0 km/h
3053 18-05-2011 05:00:00 6.62 C 6.7 g/m*3 6.62 C 0 km/h
3054 18-05-2011 06:00:00 6.74 C 6.78 g/m*3 6.74 C 0 km/h
3055 18-05-2011 07:00:00 7.92 C 7.24 g/m*3 7.92 C 0 km/h
3056 18-05-2011 08:00:00 9.66 C 7.71 g/m*3 9.66 C 0 km/h
3057 18-05-2011 09:00:00 12.92 C 7.85 g/m*3 12.92 C 0 km/h
3058 18-05-2011 10:00:00 17.16 C 6.57 g/m*3 17.16 C 0 km/h
3059 18-05-2011 11:00:00 19.14 C 6.15 g/m*3 19.14 C 0 km/h
3060 18-05-2011 12:00:00 20.62 C 6.38 g/m*3 20.62 C 0 km/h
3061 18-05-2011 13:00:00 24.28 C 6.28 g/m*3 24.28 C 0 km/h
3062 18-05-2011 14:00:00 27.98 C 5.65 g/m*3 27.98 C 0 km/h
3063 18-05-2011 15:00:00 28.98 C 5.74 g/m*3 28.98 C 0 km/h
3064 18-05-2011 16:00:00 28.88 C 5.71 g/m*3 28.88 C 0 km/h
3065 18-05-2011 17:00:00 27.7 C 5.35 g/m*3 27.7 C 0 km/h
3066 18-05-2011 18:00:00 26.82 C 6.17 g/m*3 26.82 C 0 km/h
3067 18-05-2011 19:00:00 23.66 C 7.17 g/m*3 23.66 C 0 km/h
3068 18-05-2011 20:00:00 19.86 C 7.95 g/m*3 19.86 C 0 km/h
3069 18-05-2011 21:00:00 17.48 C 7.33 g/m*3 17.48 C 0 km/h
3070 18-05-2011 22:00:00 15.5 C 7.75 g/m*3 15.5 C 0 km/h
3071 18-05-2011 23:00:00 13.54 C 7.65 g/m*3 13.54 C 0 km/h
3072 19-05-2011 00:00:00 12.14 C 7.59 g/m*3 12.14 C 0 km/h
3073 19-05-2011 01:00:00 11.7 C 7.8 g/m*3 11.7 C 0 km/h
3074 19-05-2011 02:00:00 10.76 C 7.79 g/m*3 10.76 C 0 km/h
3075 19-05-2011 03:00:00 10.16 C 7.84 g/m*3 10.16 C 0 km/h
Sensor: Nr:Datum:Temp:Abs-Feuchte:Windchill:Wind:
Aussen-T/F 3076 19-05-2011 04:00:00 10.4 C 8.06 g/m*3 10.4 C 0 km/h
3077 19-05-2011 05:00:00 10.42 C 8.01 g/m*3 10.42 C 0 km/h
3078 19-05-2011 06:00:00 11.12 C 8.23 g/m*3 11.12 C 0 km/h
3079 19-05-2011 07:00:00 12.88 C 8.04 g/m*3 12.88 C 0 km/h
3080 19-05-2011 08:00:00 15.1 C 7.92 g/m*3 15.1 C 0 km/h
3081 19-05-2011 09:00:00 17.66 C 8.13 g/m*3 17.66 C 0 km/h
3082 19-05-2011 10:00:00 20.06 C 7.98 g/m*3 20.06 C 0 km/h
3083 19-05-2011 11:00:00 22.12 C 7.82 g/m*3 22.12 C 0 km/h
3084 19-05-2011 12:00:00 23.46 C 7.68 g/m*3 23.46 C 0 km/h
3085 19-05-2011 13:00:00 26.3 C 6.78 g/m*3 26.3 C 0 km/h
3086 19-05-2011 14:00:00 27.16 C 6.39 g/m*3 27.16 C 0 km/h
3087 19-05-2011 15:00:00 25.76 C 6.73 g/m*3 25.76 C 0 km/h
3088 19-05-2011 16:00:00 26.92 C 6.41 g/m*3 26.92 C 0 km/h
3089 19-05-2011 17:00:00 24.7 C 7.51 g/m*3 24.7 C 0 km/h
3090 19-05-2011 18:00:00 19.46 C 9.01 g/m*3 19.46 C 0 km/h
3091 19-05-2011 19:00:00 16.12 C 11.36 g/m*3 16.12 C 0 km/h
3092 19-05-2011 20:00:00 15.4 C 11.14 g/m*3 15.4 C 0 km/h
3093 19-05-2011 21:00:00 14.26 C 10.76 g/m*3 14.26 C 0 km/h
3094 19-05-2011 22:00:00 13.48 C 10.4 g/m*3 13.48 C 0 km/h
3095 19-05-2011 23:00:00 13.06 C 10.2 g/m*3 13.06 C 0 km/h
3096 20-05-2011 00:00:00 12.66 C 10.06 g/m*3 12.66 C 0 km/h
3097 20-05-2011 01:00:00 11.96 C 9.63 g/m*3 11.96 C 0 km/h
3098 20-05-2011 02:00:00 11.78 C 9.57 g/m*3 11.78 C 0 km/h
3099 20-05-2011 03:00:00 11.02 C 9.16 g/m*3 11.02 C 0 km/h
3100 20-05-2011 04:00:00 10.7 C 9.02 g/m*3 10.7 C 0 km/h
Sensor: Nr:Datum:Temp:Abs-Feuchte:Windchill:Wind:
Aussen-T/F 3101 20-05-2011 05:00:00 10.84 C 9.12 g/m*3 10.84 C 0 km/h
3102 20-05-2011 06:00:00 11.12 C 9.28 g/m*3 11.12 C 0 km/h
3103 20-05-2011 07:00:00 11.46 C 9.48 g/m*3 11.46 C 0 km/h
3104 20-05-2011 08:00:00 12.24 C 9.87 g/m*3 12.24 C 0 km/h
3105 20-05-2011 09:00:00 13.72 C 10.22 g/m*3 13.72 C 0 km/h
3106 20-05-2011 10:00:00 14.84 C 9.96 g/m*3 14.84 C 0 km/h
3107 20-05-2011 11:00:00 17.52 C 10.6 g/m*3 17.52 C 0 km/h
3108 20-05-2011 12:00:00 20.46 C 9.37 g/m*3 20.46 C 0 km/h
3109 20-05-2011 13:00:00 25.48 C 8.09 g/m*3 25.48 C 0 km/h
3110 20-05-2011 14:00:00 28.32 C 7.36 g/m*3 28.32 C 0 km/h
3111 20-05-2011 15:00:00 24.12 C 8.37 g/m*3 24.12 C 0 km/h
3112 20-05-2011 16:00:00 25.26 C 7.57 g/m*3 25.26 C 0 km/h
3113 20-05-2011 17:00:00 24.52 C 7.53 g/m*3 24.52 C 0 km/h
3114 20-05-2011 18:00:00 22.98 C 8.54 g/m*3 22.98 C 0 km/h
3115 20-05-2011 19:00:00 18.3 C 10.26 g/m*3 18.3 C 0 km/h
3116 20-05-2011 20:00:00 15.36 C 11.14 g/m*3 15.36 C 0 km/h
3117 20-05-2011 21:00:00 14.46 C 10.89 g/m*3 14.46 C 0 km/h
3118 20-05-2011 22:00:00 13.94 C 10.67 g/m*3 13.94 C 0 km/h
3119 20-05-2011 23:00:00 13.66 C 10.63 g/m*3 13.66 C 0 km/h
3120 21-05-2011 00:00:00 13.5 C 10.57 g/m*3 13.5 C 0 km/h
3121 21-05-2011 01:00:00 13.24 C 10.47 g/m*3 13.24 C 0 km/h
3122 21-05-2011 02:00:00 12.56 C 10.04 g/m*3 12.56 C 0 km/h
3123 21-05-2011 03:00:00 11.82 C 9.63 g/m*3 11.82 C 0 km/h
3124 21-05-2011 04:00:00 11.6 C 9.56 g/m*3 11.6 C 0 km/h
3125 21-05-2011 05:00:00 11.46 C 9.48 g/m*3 11.46 C 0 km/h
Sensor: Nr:Datum:Temp:Abs-Feuchte:Windchill:Wind:
Aussen-T/F 3126 21-05-2011 06:00:00 11.6 C 9.56 g/m*3 11.6 C 0 km/h
3127 21-05-2011 07:00:00 12.36 C 9.81 g/m*3 12.36 C 0 km/h
3128 21-05-2011 08:00:00 12.92 C 9.01 g/m*3 12.92 C 0 km/h
3129 21-05-2011 09:00:00 14.34 C 9.16 g/m*3 14.34 C 0 km/h
3130 21-05-2011 10:00:00 16.12 C 8.45 g/m*3 16.12 C 0 km/h
3131 21-05-2011 11:00:00 17.86 C 8.29 g/m*3 17.86 C 0 km/h
3132 21-05-2011 12:00:00 19.46 C 8.57 g/m*3 19.46 C 0 km/h
3133 21-05-2011 13:00:00 25.1 C 8.38 g/m*3 25.1 C 0 km/h
3134 21-05-2011 14:00:00 29.48 C 7.02 g/m*3 29.48 C 0 km/h
3135 21-05-2011 15:00:00 30.12 C 6.47 g/m*3 30.12 C 0 km/h
3136 21-05-2011 16:00:00 30.1 C 6.22 g/m*3 30.1 C 0 km/h
3137 21-05-2011 17:00:00 31.36 C 6.59 g/m*3 31.36 C 0 km/h
3138 21-05-2011 18:00:00 30.7 C 6.42 g/m*3 30.7 C 0 km/h
3139 21-05-2011 19:00:00 26.31 C 9.04 g/m*3 26.31 C 0 km/h
3140 21-05-2011 20:00:00 20.52727 C 9.43 g/m*3 20.53 C 0 km/h
3141 21-05-2011 21:00:00 17.56 C 9.34 g/m*3 17.56 C 0 km/h
3142 21-05-2011 22:00:00 15.525 C 9.27 g/m*3 15.53 C 0 km/h
3143 21-05-2011 23:00:00 14.72 C 9.5 g/m*3 14.72 C 0 km/h
3144 22-05-2011 00:00:00 13.32 C 8.86 g/m*3 13.32 C 0 km/h
3145 22-05-2011 01:00:00 12.2 C 8.57 g/m*3 12.2 C 0 km/h
3146 22-05-2011 02:00:00 11.24 C 8.41 g/m*3 11.24 C 0 km/h
3147 22-05-2011 03:00:00 10.42 C 8.2 g/m*3 10.42 C 0 km/h
3148 22-05-2011 04:00:00 9.8 C 8.05 g/m*3 9.8 C 0 km/h
3149 22-05-2011 05:00:00 9.32 C 7.92 g/m*3 9.32 C 0 km/h
3150 22-05-2011 06:00:00 9.42 C 8.06 g/m*3 9.42 C 0 km/h
Sensor: Nr:Datum:Temp:Abs-Feuchte:Windchill:Wind:
Aussen-T/F 3151 22-05-2011 07:00:00 10 C 8.34 g/m*3 10 C 0 km/h
3152 22-05-2011 08:00:00 12.8 C 9.01 g/m*3 12.8 C 0 km/h
3153 22-05-2011 09:00:00 15 C 9.03 g/m*3 15 C 0 km/h
3154 22-05-2011 10:00:00 20.2 C 8.74 g/m*3 20.2 C 0 km/h
3155 22-05-2011 11:00:00 20.42 C 8.08 g/m*3 20.42 C 0 km/h
3156 22-05-2011 12:00:00 22.54 C 8.05 g/m*3 22.54 C 0 km/h
3157 22-05-2011 13:00:00 24.94286 C 7.51 g/m*3 24.94 C 0 km/h
3158 22-05-2011 14:00:00 27.26667 C 7.18 g/m*3 27.27 C 0 km/h
3159 22-05-2011 15:00:00 27.24 C 7.09 g/m*3 27.24 C 0 km/h
3160 22-05-2011 16:00:00 21.14 C 10.23 g/m*3 21.14 C 0 km/h
3161 22-05-2011 17:00:00 19.64 C 12.15 g/m*3 19.64 C 0 km/h
3162 22-05-2011 18:00:00 20.42 C 12.19 g/m*3 20.42 C 0 km/h
3163 22-05-2011 19:00:00 22.48 C 10.06 g/m*3 22.48 C 0 km/h
3164 22-05-2011 20:00:00 18.28 C 8.75 g/m*3 18.28 C 0 km/h
3165 22-05-2011 21:00:00 15.32 C 7.45 g/m*3 15.32 C 0 km/h
3166 22-05-2011 22:00:00 12.94 C 6.12 g/m*3 12.94 C 0 km/h
3167 22-05-2011 23:00:00 11.4 C 6.06 g/m*3 11.4 C 0 km/h
3168 23-05-2011 00:00:00 11.02 C 5.83 g/m*3 11.02 C 0 km/h
3169 23-05-2011 01:00:00 9.96 C 6.15 g/m*3 9.96 C 0 km/h
3170 23-05-2011 02:00:00 8.9 C 6.13 g/m*3 8.9 C 0 km/h
3171 23-05-2011 03:00:00 6.94 C 6.1 g/m*3 6.94 C 0 km/h
3172 23-05-2011 04:00:00 7.1 C 6.15 g/m*3 7.1 C 0 km/h
3173 23-05-2011 05:00:00 6.02 C 6.05 g/m*3 6.02 C 0 km/h
3174 23-05-2011 06:00:00 6.44 C 6.35 g/m*3 6.44 C 0 km/h
3175 23-05-2011 07:00:00 7.52 C 6.59 g/m*3 7.52 C 0 km/h
Sensor: Nr:Datum:Temp:Abs-Feuchte:Windchill:Wind:
Aussen-T/F 3176 23-05-2011 08:00:00 9.36 C 6.95 g/m*3 9.36 C 0 km/h
3177 23-05-2011 09:00:00 13.18 C 5.8 g/m*3 13.18 C 0 km/h
3178 23-05-2011 10:00:00 15.14 C 5.28 g/m*3 15.14 C 0 km/h
3179 23-05-2011 11:00:00 16.96 C 4.45 g/m*3 16.96 C 0 km/h
3180 23-05-2011 12:00:00 18.34 C 3.51 g/m*3 18.34 C 0 km/h
3181 23-05-2011 13:00:00 22.08 C 3.9 g/m*3 22.08 C 0 km/h
3182 23-05-2011 14:00:00 26.2 C 4.92 g/m*3 26.2 C 0 km/h
3183 23-05-2011 15:00:00 26.84 C 5.1 g/m*3 26.84 C 0 km/h
3184 23-05-2011 16:00:00 27.8 C 5.38 g/m*3 27.8 C 0 km/h
3185 23-05-2011 17:00:00 29.16 C 5.79 g/m*3 29.16 C 0 km/h
3186 23-05-2011 18:00:00 28.22 C 5.5 g/m*3 28.22 C 0 km/h
3187 23-05-2011 19:00:00 25.86 C 5.8 g/m*3 25.86 C 0 km/h
3188 23-05-2011 20:00:00 19.1 C 7.54 g/m*3 19.1 C 0 km/h
3189 23-05-2011 21:00:00 16.28 C 7.15 g/m*3 16.28 C 0 km/h
3190 23-05-2011 22:00:00 13.78 C 7.09 g/m*3 13.78 C 0 km/h
3191 23-05-2011 23:00:00 11.84 C 7.13 g/m*3 11.84 C 0 km/h
3192 24-05-2011 00:00:00 10.84 C 7.27 g/m*3 10.84 C 0 km/h
3193 24-05-2011 01:00:00 10.24 C 7.16 g/m*3 10.24 C 0 km/h
3194 24-05-2011 02:00:00 9.52 C 7.18 g/m*3 9.52 C 0 km/h
3195 24-05-2011 03:00:00 9.1 C 7.29 g/m*3 9.1 C 0 km/h
3196 24-05-2011 04:00:00 8.64 C 7.2 g/m*3 8.64 C 0 km/h
3197 24-05-2011 05:00:00 9.62 C 7.59 g/m*3 9.62 C 0 km/h
3198 24-05-2011 06:00:00 10.74 C 7.74 g/m*3 10.74 C 0 km/h
3199 24-05-2011 07:00:00 13.04 C 7.34 g/m*3 13.04 C 0 km/h
3200 24-05-2011 08:00:00 13.84 C 7.76 g/m*3 13.84 C 0 km/h
Sensor: Nr:Datum:Temp:Abs-Feuchte:Windchill:Wind:
Aussen-T/F 3201 24-05-2011 09:00:00 16.02 C 7.31 g/m*3 16.02 C 0 km/h
3202 24-05-2011 10:00:00 18.12 C 6.99 g/m*3 18.12 C 0 km/h
3203 24-05-2011 11:00:00 18.86 C 6.92 g/m*3 18.86 C 0 km/h
3204 24-05-2011 12:00:00 18.74 C 6.16 g/m*3 18.74 C 0 km/h
3205 24-05-2011 13:00:00 21.8 C 5.07 g/m*3 21.8 C 0 km/h
3206 24-05-2011 14:00:00 24.76 C 4.54 g/m*3 24.76 C 0 km/h
3207 24-05-2011 15:00:00 24.38 C 4.45 g/m*3 24.38 C 0 km/h
3208 24-05-2011 16:00:00 24.42 C 4.46 g/m*3 24.42 C 0 km/h
3209 24-05-2011 17:00:00 22.5 C 3.99 g/m*3 22.5 C 0 km/h
3210 24-05-2011 18:00:00 22.5 C 3.99 g/m*3 22.5 C 0 km/h